<?xml version="1.0" encoding="UTF-8" standalone="no" ?>
<gpx xmlns="http://www.topografix.com/GPX/1/1" xmlns:xsi="http://www.w3.org/2001/XMLSchema-instance" xsi:schemaLocation="http://www.topografix.com/GPX/1/1 http://www.topografix.com/GPX/1/1/gpx.xsd" version="1.1" creator="VisuGPX - https://www.visugpx.com">
  <metadata>
    <name>TOTAL 4x4 </name>
  </metadata>
  <wpt lat="42.36368" lon="2.84007">
    <ele>181</ele>
  </wpt>
  <wpt lat="42.36397" lon="2.83975">
    <ele>185.2</ele>
  </wpt>
  <wpt lat="42.36387" lon="2.83877">
    <ele>193</ele>
  </wpt>
  <wpt lat="42.36443" lon="2.83943">
    <ele>186.6</ele>
  </wpt>
  <wpt lat="42.2714" lon="2.52859">
    <ele>415.7</ele>
  </wpt>
  <wpt lat="42.27123" lon="2.52776">
    <ele>417.3</ele>
  </wpt>
  <wpt lat="42.27143" lon="2.53029">
    <ele>408.8</ele>
  </wpt>
  <trk>
    <name><![CDATA[TOTAL 4x4 _7]]></name>
    <extensions>
      <line xmlns="http://www.topografix.com/GPX/gpx_style/0/2">
        <color>000088</color>
        <width>4</width>
      </line>
    </extensions>
    <trkseg>
      <trkpt lat="42.18939" lon="0.95861">
        <ele>474.95</ele>
        <time>2021-08-01T14:02:55Z</time>
      </trkpt>
      <trkpt lat="42.18943" lon="0.95845">
        <ele>475.23</ele>
        <time>2021-08-01T14:02:59Z</time>
      </trkpt>
      <trkpt lat="42.1897" lon="0.95837">
        <ele>476.51</ele>
        <time>2021-08-01T14:03:05Z</time>
      </trkpt>
      <trkpt lat="42.19001" lon="0.95806">
        <ele>480.75</ele>
        <time>2021-08-01T14:03:12Z</time>
      </trkpt>
      <trkpt lat="42.18982" lon="0.95784">
        <ele>484.3</ele>
        <time>2021-08-01T14:03:16Z</time>
      </trkpt>
      <trkpt lat="42.18981" lon="0.95761">
        <ele>487.53</ele>
        <time>2021-08-01T14:03:20Z</time>
      </trkpt>
      <trkpt lat="42.19016" lon="0.9577">
        <ele>491.03</ele>
        <time>2021-08-01T14:03:25Z</time>
      </trkpt>
      <trkpt lat="42.19025" lon="0.9577">
        <ele>491.53</ele>
        <time>2021-08-01T14:03:26Z</time>
      </trkpt>
      <trkpt lat="42.19043" lon="0.95771">
        <ele>492.68</ele>
        <time>2021-08-01T14:03:28Z</time>
      </trkpt>
      <trkpt lat="42.19065" lon="0.95768">
        <ele>494.46</ele>
        <time>2021-08-01T14:03:31Z</time>
      </trkpt>
      <trkpt lat="42.19073" lon="0.95746">
        <ele>497.77</ele>
        <time>2021-08-01T14:03:37Z</time>
      </trkpt>
      <trkpt lat="42.19022" lon="0.95695">
        <ele>501.7</ele>
        <time>2021-08-01T14:03:45Z</time>
      </trkpt>
      <trkpt lat="42.19" lon="0.95667">
        <ele>503.49</ele>
        <time>2021-08-01T14:03:48Z</time>
      </trkpt>
      <trkpt lat="42.18978" lon="0.95611">
        <ele>505.66</ele>
        <time>2021-08-01T14:03:52Z</time>
      </trkpt>
      <trkpt lat="42.1896" lon="0.9555">
        <ele>507.76</ele>
        <time>2021-08-01T14:03:59Z</time>
      </trkpt>
      <trkpt lat="42.18959" lon="0.9554">
        <ele>509.62</ele>
        <time>2021-08-01T14:04:09Z</time>
      </trkpt>
      <trkpt lat="42.18959" lon="0.95538">
        <ele>510.16</ele>
        <time>2021-08-01T14:04:23Z</time>
      </trkpt>
      <trkpt lat="42.18975" lon="0.95519">
        <ele>510.42</ele>
        <time>2021-08-01T14:04:28Z</time>
      </trkpt>
      <trkpt lat="42.18986" lon="0.95512">
        <ele>510.56</ele>
        <time>2021-08-01T14:04:30Z</time>
      </trkpt>
      <trkpt lat="42.19003" lon="0.95475">
        <ele>511.9</ele>
        <time>2021-08-01T14:04:35Z</time>
      </trkpt>
      <trkpt lat="42.19006" lon="0.95458">
        <ele>512.06</ele>
        <time>2021-08-01T14:04:37Z</time>
      </trkpt>
      <trkpt lat="42.19029" lon="0.95379">
        <ele>511.06</ele>
        <time>2021-08-01T14:04:45Z</time>
      </trkpt>
      <trkpt lat="42.19037" lon="0.95359">
        <ele>510.18</ele>
        <time>2021-08-01T14:04:47Z</time>
      </trkpt>
      <trkpt lat="42.19051" lon="0.9528">
        <ele>510.58</ele>
        <time>2021-08-01T14:04:55Z</time>
      </trkpt>
      <trkpt lat="42.19055" lon="0.95213">
        <ele>513.9</ele>
        <time>2021-08-01T14:05:02Z</time>
      </trkpt>
      <trkpt lat="42.19067" lon="0.95197">
        <ele>514.64</ele>
        <time>2021-08-01T14:05:04Z</time>
      </trkpt>
      <trkpt lat="42.19089" lon="0.95146">
        <ele>516.66</ele>
        <time>2021-08-01T14:05:09Z</time>
      </trkpt>
      <trkpt lat="42.19105" lon="0.95045">
        <ele>518.37</ele>
        <time>2021-08-01T14:05:17Z</time>
      </trkpt>
      <trkpt lat="42.19103" lon="0.95034">
        <ele>518.27</ele>
        <time>2021-08-01T14:05:18Z</time>
      </trkpt>
      <trkpt lat="42.19069" lon="0.94998">
        <ele>515.97</ele>
        <time>2021-08-01T14:05:23Z</time>
      </trkpt>
      <trkpt lat="42.19046" lon="0.94996">
        <ele>514.69</ele>
        <time>2021-08-01T14:05:25Z</time>
      </trkpt>
      <trkpt lat="42.19024" lon="0.94996">
        <ele>513.21</ele>
        <time>2021-08-01T14:05:27Z</time>
      </trkpt>
      <trkpt lat="42.18982" lon="0.95021">
        <ele>508.73</ele>
        <time>2021-08-01T14:05:33Z</time>
      </trkpt>
      <trkpt lat="42.18982" lon="0.94998">
        <ele>506.88</ele>
        <time>2021-08-01T14:05:37Z</time>
      </trkpt>
      <trkpt lat="42.18982" lon="0.94964">
        <ele>506.93</ele>
        <time>2021-08-01T14:05:41Z</time>
      </trkpt>
      <trkpt lat="42.18937" lon="0.94912">
        <ele>510.3</ele>
        <time>2021-08-01T14:05:47Z</time>
      </trkpt>
      <trkpt lat="42.18911" lon="0.949">
        <ele>512.73</ele>
        <time>2021-08-01T14:05:50Z</time>
      </trkpt>
      <trkpt lat="42.18899" lon="0.94878">
        <ele>514.13</ele>
        <time>2021-08-01T14:05:53Z</time>
      </trkpt>
      <trkpt lat="42.18912" lon="0.94852">
        <ele>514.35</ele>
        <time>2021-08-01T14:05:56Z</time>
      </trkpt>
      <trkpt lat="42.18928" lon="0.94794">
        <ele>513.43</ele>
        <time>2021-08-01T14:06:03Z</time>
      </trkpt>
      <trkpt lat="42.18943" lon="0.9471">
        <ele>513.62</ele>
        <time>2021-08-01T14:06:10Z</time>
      </trkpt>
      <trkpt lat="42.1893" lon="0.94655">
        <ele>517.76</ele>
        <time>2021-08-01T14:06:16Z</time>
      </trkpt>
      <trkpt lat="42.18944" lon="0.94614">
        <ele>521.17</ele>
        <time>2021-08-01T14:06:21Z</time>
      </trkpt>
      <trkpt lat="42.18976" lon="0.94555">
        <ele>524.6</ele>
        <time>2021-08-01T14:06:26Z</time>
      </trkpt>
      <trkpt lat="42.1902" lon="0.945">
        <ele>527.87</ele>
        <time>2021-08-01T14:06:31Z</time>
      </trkpt>
      <trkpt lat="42.19062" lon="0.9446">
        <ele>531.31</ele>
        <time>2021-08-01T14:06:37Z</time>
      </trkpt>
      <trkpt lat="42.19075" lon="0.94429">
        <ele>532.24</ele>
        <time>2021-08-01T14:06:41Z</time>
      </trkpt>
      <trkpt lat="42.19092" lon="0.94371">
        <ele>532.01</ele>
        <time>2021-08-01T14:06:46Z</time>
      </trkpt>
      <trkpt lat="42.19126" lon="0.94331">
        <ele>528.6</ele>
        <time>2021-08-01T14:06:52Z</time>
      </trkpt>
      <trkpt lat="42.19138" lon="0.94269">
        <ele>526.47</ele>
        <time>2021-08-01T14:06:58Z</time>
      </trkpt>
      <trkpt lat="42.19134" lon="0.9423">
        <ele>526.69</ele>
        <time>2021-08-01T14:07:02Z</time>
      </trkpt>
      <trkpt lat="42.19129" lon="0.94214">
        <ele>527.27</ele>
        <time>2021-08-01T14:07:04Z</time>
      </trkpt>
      <trkpt lat="42.19121" lon="0.94083">
        <ele>529.23</ele>
        <time>2021-08-01T14:07:15Z</time>
      </trkpt>
      <trkpt lat="42.19116" lon="0.9398">
        <ele>532.31</ele>
        <time>2021-08-01T14:07:21Z</time>
      </trkpt>
      <trkpt lat="42.19118" lon="0.93903">
        <ele>535.86</ele>
        <time>2021-08-01T14:07:26Z</time>
      </trkpt>
      <trkpt lat="42.19122" lon="0.93835">
        <ele>538.79</ele>
        <time>2021-08-01T14:07:31Z</time>
      </trkpt>
      <trkpt lat="42.19119" lon="0.93826">
        <ele>539.2</ele>
        <time>2021-08-01T14:07:32Z</time>
      </trkpt>
      <trkpt lat="42.19073" lon="0.93812">
        <ele>541.49</ele>
        <time>2021-08-01T14:07:37Z</time>
      </trkpt>
      <trkpt lat="42.19009" lon="0.93821">
        <ele>544.11</ele>
        <time>2021-08-01T14:07:42Z</time>
      </trkpt>
      <trkpt lat="42.18968" lon="0.93807">
        <ele>546.82</ele>
        <time>2021-08-01T14:07:46Z</time>
      </trkpt>
      <trkpt lat="42.18932" lon="0.93813">
        <ele>550.19</ele>
        <time>2021-08-01T14:07:50Z</time>
      </trkpt>
      <trkpt lat="42.18903" lon="0.93783">
        <ele>551.9</ele>
        <time>2021-08-01T14:07:56Z</time>
      </trkpt>
      <trkpt lat="42.18899" lon="0.93762">
        <ele>551.97</ele>
        <time>2021-08-01T14:07:58Z</time>
      </trkpt>
      <trkpt lat="42.18878" lon="0.9374">
        <ele>551.18</ele>
        <time>2021-08-01T14:08:02Z</time>
      </trkpt>
      <trkpt lat="42.18847" lon="0.93726">
        <ele>549.06</ele>
        <time>2021-08-01T14:08:07Z</time>
      </trkpt>
      <trkpt lat="42.18795" lon="0.93677">
        <ele>547.99</ele>
        <time>2021-08-01T14:08:13Z</time>
      </trkpt>
      <trkpt lat="42.18723" lon="0.93659">
        <ele>547.82</ele>
        <time>2021-08-01T14:08:21Z</time>
      </trkpt>
      <trkpt lat="42.18689" lon="0.9365">
        <ele>547.9</ele>
        <time>2021-08-01T14:08:27Z</time>
      </trkpt>
      <trkpt lat="42.18675" lon="0.93662">
        <ele>547.68</ele>
        <time>2021-08-01T14:08:29Z</time>
      </trkpt>
      <trkpt lat="42.18658" lon="0.93646">
        <ele>544.92</ele>
        <time>2021-08-01T14:08:35Z</time>
      </trkpt>
      <trkpt lat="42.18672" lon="0.93584">
        <ele>543.26</ele>
        <time>2021-08-01T14:08:40Z</time>
      </trkpt>
      <trkpt lat="42.18692" lon="0.9356">
        <ele>542.67</ele>
        <time>2021-08-01T14:08:43Z</time>
      </trkpt>
      <trkpt lat="42.18699" lon="0.93474">
        <ele>539.87</ele>
        <time>2021-08-01T14:08:51Z</time>
      </trkpt>
      <trkpt lat="42.18671" lon="0.93449">
        <ele>537.97</ele>
        <time>2021-08-01T14:08:55Z</time>
      </trkpt>
      <trkpt lat="42.18639" lon="0.93428">
        <ele>537.36</ele>
        <time>2021-08-01T14:08:59Z</time>
      </trkpt>
      <trkpt lat="42.18585" lon="0.93428">
        <ele>536.57</ele>
        <time>2021-08-01T14:09:05Z</time>
      </trkpt>
      <trkpt lat="42.18574" lon="0.93434">
        <ele>536.53</ele>
        <time>2021-08-01T14:09:06Z</time>
      </trkpt>
      <trkpt lat="42.18555" lon="0.93445">
        <ele>536.56</ele>
        <time>2021-08-01T14:09:08Z</time>
      </trkpt>
      <trkpt lat="42.18526" lon="0.93451">
        <ele>537.85</ele>
        <time>2021-08-01T14:09:12Z</time>
      </trkpt>
      <trkpt lat="42.18522" lon="0.93456">
        <ele>538.31</ele>
        <time>2021-08-01T14:09:13Z</time>
      </trkpt>
      <trkpt lat="42.18509" lon="0.93481">
        <ele>540.07</ele>
        <time>2021-08-01T14:09:16Z</time>
      </trkpt>
      <trkpt lat="42.18486" lon="0.93527">
        <ele>543.24</ele>
        <time>2021-08-01T14:09:21Z</time>
      </trkpt>
      <trkpt lat="42.18471" lon="0.93545">
        <ele>546.07</ele>
        <time>2021-08-01T14:09:26Z</time>
      </trkpt>
      <trkpt lat="42.18449" lon="0.93513">
        <ele>549.65</ele>
        <time>2021-08-01T14:09:33Z</time>
      </trkpt>
      <trkpt lat="42.18424" lon="0.93513">
        <ele>551.76</ele>
        <time>2021-08-01T14:09:37Z</time>
      </trkpt>
      <trkpt lat="42.18416" lon="0.93518">
        <ele>552.36</ele>
        <time>2021-08-01T14:09:38Z</time>
      </trkpt>
      <trkpt lat="42.18398" lon="0.93533">
        <ele>553.86</ele>
        <time>2021-08-01T14:09:41Z</time>
      </trkpt>
      <trkpt lat="42.18369" lon="0.93542">
        <ele>556.41</ele>
        <time>2021-08-01T14:09:45Z</time>
      </trkpt>
      <trkpt lat="42.18324" lon="0.93547">
        <ele>560.69</ele>
        <time>2021-08-01T14:09:50Z</time>
      </trkpt>
      <trkpt lat="42.183" lon="0.93554">
        <ele>563.88</ele>
        <time>2021-08-01T14:09:53Z</time>
      </trkpt>
      <trkpt lat="42.18274" lon="0.93569">
        <ele>568.36</ele>
        <time>2021-08-01T14:09:57Z</time>
      </trkpt>
      <trkpt lat="42.18261" lon="0.93563">
        <ele>570.49</ele>
        <time>2021-08-01T14:09:59Z</time>
      </trkpt>
      <trkpt lat="42.18222" lon="0.93549">
        <ele>575.59</ele>
        <time>2021-08-01T14:10:04Z</time>
      </trkpt>
      <trkpt lat="42.18189" lon="0.93549">
        <ele>579.39</ele>
        <time>2021-08-01T14:10:08Z</time>
      </trkpt>
      <trkpt lat="42.1818" lon="0.9355">
        <ele>580.39</ele>
        <time>2021-08-01T14:10:09Z</time>
      </trkpt>
      <trkpt lat="42.18151" lon="0.93525">
        <ele>583.98</ele>
        <time>2021-08-01T14:10:14Z</time>
      </trkpt>
      <trkpt lat="42.18119" lon="0.93495">
        <ele>587.6</ele>
        <time>2021-08-01T14:10:20Z</time>
      </trkpt>
      <trkpt lat="42.18073" lon="0.93509">
        <ele>588.08</ele>
        <time>2021-08-01T14:10:25Z</time>
      </trkpt>
      <trkpt lat="42.18058" lon="0.93489">
        <ele>587.36</ele>
        <time>2021-08-01T14:10:29Z</time>
      </trkpt>
      <trkpt lat="42.18048" lon="0.93452">
        <ele>587.58</ele>
        <time>2021-08-01T14:10:33Z</time>
      </trkpt>
      <trkpt lat="42.18012" lon="0.93412">
        <ele>590.2</ele>
        <time>2021-08-01T14:10:38Z</time>
      </trkpt>
      <trkpt lat="42.17974" lon="0.93394">
        <ele>592.62</ele>
        <time>2021-08-01T14:10:42Z</time>
      </trkpt>
      <trkpt lat="42.17945" lon="0.93342">
        <ele>595.31</ele>
        <time>2021-08-01T14:10:48Z</time>
      </trkpt>
      <trkpt lat="42.17929" lon="0.93274">
        <ele>596.58</ele>
        <time>2021-08-01T14:10:54Z</time>
      </trkpt>
      <trkpt lat="42.17894" lon="0.93259">
        <ele>596.59</ele>
        <time>2021-08-01T14:10:58Z</time>
      </trkpt>
      <trkpt lat="42.17787" lon="0.93224">
        <ele>597.26</ele>
        <time>2021-08-01T14:11:09Z</time>
      </trkpt>
      <trkpt lat="42.17727" lon="0.93233">
        <ele>595.16</ele>
        <time>2021-08-01T14:11:15Z</time>
      </trkpt>
      <trkpt lat="42.17701" lon="0.93256">
        <ele>593.28</ele>
        <time>2021-08-01T14:11:18Z</time>
      </trkpt>
      <trkpt lat="42.17654" lon="0.93269">
        <ele>590.26</ele>
        <time>2021-08-01T14:11:23Z</time>
      </trkpt>
      <trkpt lat="42.17644" lon="0.93272">
        <ele>589.69</ele>
        <time>2021-08-01T14:11:24Z</time>
      </trkpt>
      <trkpt lat="42.17633" lon="0.93276">
        <ele>589.17</ele>
        <time>2021-08-01T14:11:25Z</time>
      </trkpt>
      <trkpt lat="42.17623" lon="0.9328">
        <ele>588.58</ele>
        <time>2021-08-01T14:11:26Z</time>
      </trkpt>
      <trkpt lat="42.17614" lon="0.93285">
        <ele>587.96</ele>
        <time>2021-08-01T14:11:27Z</time>
      </trkpt>
      <trkpt lat="42.17606" lon="0.93291">
        <ele>587.3</ele>
        <time>2021-08-01T14:11:28Z</time>
      </trkpt>
      <trkpt lat="42.17598" lon="0.93295">
        <ele>586.56</ele>
        <time>2021-08-01T14:11:29Z</time>
      </trkpt>
      <trkpt lat="42.1759" lon="0.93298">
        <ele>585.83</ele>
        <time>2021-08-01T14:11:30Z</time>
      </trkpt>
      <trkpt lat="42.17565" lon="0.93293">
        <ele>583.7</ele>
        <time>2021-08-01T14:11:33Z</time>
      </trkpt>
      <trkpt lat="42.17515" lon="0.93299">
        <ele>579.89</ele>
        <time>2021-08-01T14:11:39Z</time>
      </trkpt>
      <trkpt lat="42.17487" lon="0.93276">
        <ele>577.25</ele>
        <time>2021-08-01T14:11:43Z</time>
      </trkpt>
      <trkpt lat="42.17472" lon="0.93252">
        <ele>575.25</ele>
        <time>2021-08-01T14:11:46Z</time>
      </trkpt>
      <trkpt lat="42.17477" lon="0.93211">
        <ele>571.01</ele>
        <time>2021-08-01T14:11:51Z</time>
      </trkpt>
      <trkpt lat="42.17504" lon="0.93201">
        <ele>568.61</ele>
        <time>2021-08-01T14:11:54Z</time>
      </trkpt>
      <trkpt lat="42.17555" lon="0.93175">
        <ele>565.72</ele>
        <time>2021-08-01T14:12:00Z</time>
      </trkpt>
      <trkpt lat="42.17594" lon="0.93114">
        <ele>563.69</ele>
        <time>2021-08-01T14:12:08Z</time>
      </trkpt>
      <trkpt lat="42.17619" lon="0.93082">
        <ele>561.67</ele>
        <time>2021-08-01T14:12:16Z</time>
      </trkpt>
      <trkpt lat="42.17594" lon="0.93066">
        <ele>560.44</ele>
        <time>2021-08-01T14:12:21Z</time>
      </trkpt>
      <trkpt lat="42.17555" lon="0.93067">
        <ele>558.75</ele>
        <time>2021-08-01T14:12:26Z</time>
      </trkpt>
      <trkpt lat="42.17515" lon="0.93027">
        <ele>555.6</ele>
        <time>2021-08-01T14:12:32Z</time>
      </trkpt>
      <trkpt lat="42.17508" lon="0.93005">
        <ele>554.53</ele>
        <time>2021-08-01T14:12:34Z</time>
      </trkpt>
      <trkpt lat="42.17483" lon="0.92958">
        <ele>550.87</ele>
        <time>2021-08-01T14:12:39Z</time>
      </trkpt>
      <trkpt lat="42.17447" lon="0.92928">
        <ele>547.11</ele>
        <time>2021-08-01T14:12:44Z</time>
      </trkpt>
      <trkpt lat="42.17412" lon="0.92871">
        <ele>542.49</ele>
        <time>2021-08-01T14:12:50Z</time>
      </trkpt>
      <trkpt lat="42.17381" lon="0.92821">
        <ele>539.27</ele>
        <time>2021-08-01T14:12:55Z</time>
      </trkpt>
      <trkpt lat="42.17369" lon="0.92801">
        <ele>537.81</ele>
        <time>2021-08-01T14:12:57Z</time>
      </trkpt>
      <trkpt lat="42.17339" lon="0.92772">
        <ele>534.63</ele>
        <time>2021-08-01T14:13:01Z</time>
      </trkpt>
      <trkpt lat="42.17297" lon="0.9274">
        <ele>530.54</ele>
        <time>2021-08-01T14:13:06Z</time>
      </trkpt>
      <trkpt lat="42.17262" lon="0.92716">
        <ele>527.03</ele>
        <time>2021-08-01T14:13:10Z</time>
      </trkpt>
      <trkpt lat="42.17242" lon="0.92709">
        <ele>525.06</ele>
        <time>2021-08-01T14:13:12Z</time>
      </trkpt>
      <trkpt lat="42.17221" lon="0.92709">
        <ele>523.02</ele>
        <time>2021-08-01T14:13:14Z</time>
      </trkpt>
      <trkpt lat="42.1721" lon="0.9271">
        <ele>522.08</ele>
        <time>2021-08-01T14:13:15Z</time>
      </trkpt>
      <trkpt lat="42.172" lon="0.92711">
        <ele>521.19</ele>
        <time>2021-08-01T14:13:16Z</time>
      </trkpt>
      <trkpt lat="42.1719" lon="0.92711">
        <ele>520.28</ele>
        <time>2021-08-01T14:13:17Z</time>
      </trkpt>
      <trkpt lat="42.17179" lon="0.92709">
        <ele>519.37</ele>
        <time>2021-08-01T14:13:18Z</time>
      </trkpt>
      <trkpt lat="42.1717" lon="0.92704">
        <ele>518.45</ele>
        <time>2021-08-01T14:13:19Z</time>
      </trkpt>
      <trkpt lat="42.1716" lon="0.92699">
        <ele>517.54</ele>
        <time>2021-08-01T14:13:20Z</time>
      </trkpt>
      <trkpt lat="42.1715" lon="0.92694">
        <ele>516.71</ele>
        <time>2021-08-01T14:13:21Z</time>
      </trkpt>
      <trkpt lat="42.17085" lon="0.92677">
        <ele>512.89</ele>
        <time>2021-08-01T14:13:27Z</time>
      </trkpt>
      <trkpt lat="42.17062" lon="0.92676">
        <ele>511.44</ele>
        <time>2021-08-01T14:13:29Z</time>
      </trkpt>
      <trkpt lat="42.1702" lon="0.92651">
        <ele>508.5</ele>
        <time>2021-08-01T14:13:33Z</time>
      </trkpt>
      <trkpt lat="42.1697" lon="0.92587">
        <ele>504.42</ele>
        <time>2021-08-01T14:13:38Z</time>
      </trkpt>
      <trkpt lat="42.16961" lon="0.92574">
        <ele>503.5</ele>
        <time>2021-08-01T14:13:39Z</time>
      </trkpt>
      <trkpt lat="42.1693" lon="0.92503">
        <ele>498.77</ele>
        <time>2021-08-01T14:13:44Z</time>
      </trkpt>
      <trkpt lat="42.16874" lon="0.92397">
        <ele>495.42</ele>
        <time>2021-08-01T14:13:51Z</time>
      </trkpt>
      <trkpt lat="42.16837" lon="0.92314">
        <ele>492.4</ele>
        <time>2021-08-01T14:13:57Z</time>
      </trkpt>
      <trkpt lat="42.16816" lon="0.92262">
        <ele>488.37</ele>
        <time>2021-08-01T14:14:02Z</time>
      </trkpt>
      <trkpt lat="42.16815" lon="0.9225">
        <ele>487.55</ele>
        <time>2021-08-01T14:14:03Z</time>
      </trkpt>
      <trkpt lat="42.16783" lon="0.92186">
        <ele>482.85</ele>
        <time>2021-08-01T14:14:09Z</time>
      </trkpt>
      <trkpt lat="42.16762" lon="0.92155">
        <ele>480.65</ele>
        <time>2021-08-01T14:14:12Z</time>
      </trkpt>
      <trkpt lat="42.16734" lon="0.92088">
        <ele>476.95</ele>
        <time>2021-08-01T14:14:18Z</time>
      </trkpt>
      <trkpt lat="42.16725" lon="0.92078">
        <ele>476.34</ele>
        <time>2021-08-01T14:14:19Z</time>
      </trkpt>
      <trkpt lat="42.16681" lon="0.9203">
        <ele>473.46</ele>
        <time>2021-08-01T14:14:24Z</time>
      </trkpt>
      <trkpt lat="42.16652" lon="0.91949">
        <ele>468.69</ele>
        <time>2021-08-01T14:14:30Z</time>
      </trkpt>
      <trkpt lat="42.16641" lon="0.91913">
        <ele>466.31</ele>
        <time>2021-08-01T14:14:33Z</time>
      </trkpt>
      <trkpt lat="42.16621" lon="0.91838">
        <ele>461.59</ele>
        <time>2021-08-01T14:14:39Z</time>
      </trkpt>
      <trkpt lat="42.16595" lon="0.91766">
        <ele>457.69</ele>
        <time>2021-08-01T14:14:44Z</time>
      </trkpt>
      <trkpt lat="42.16575" lon="0.91693">
        <ele>454.08</ele>
        <time>2021-08-01T14:14:49Z</time>
      </trkpt>
      <trkpt lat="42.16555" lon="0.91615">
        <ele>450.84</ele>
        <time>2021-08-01T14:14:54Z</time>
      </trkpt>
      <trkpt lat="42.16536" lon="0.91553">
        <ele>448.33</ele>
        <time>2021-08-01T14:14:58Z</time>
      </trkpt>
      <trkpt lat="42.16529" lon="0.91494">
        <ele>446.05</ele>
        <time>2021-08-01T14:15:02Z</time>
      </trkpt>
      <trkpt lat="42.16496" lon="0.9139">
        <ele>442.37</ele>
        <time>2021-08-01T14:15:10Z</time>
      </trkpt>
      <trkpt lat="42.16452" lon="0.91262">
        <ele>439.41</ele>
        <time>2021-08-01T14:15:20Z</time>
      </trkpt>
      <trkpt lat="42.16439" lon="0.91186">
        <ele>438.02</ele>
        <time>2021-08-01T14:15:26Z</time>
      </trkpt>
      <trkpt lat="42.16424" lon="0.91123">
        <ele>436.7</ele>
        <time>2021-08-01T14:15:32Z</time>
      </trkpt>
      <trkpt lat="42.16397" lon="0.91064">
        <ele>436.24</ele>
        <time>2021-08-01T14:15:41Z</time>
      </trkpt>
      <trkpt lat="42.16404" lon="0.90987">
        <ele>437.42</ele>
        <time>2021-08-01T14:15:48Z</time>
      </trkpt>
      <trkpt lat="42.16441" lon="0.90958">
        <ele>436.62</ele>
        <time>2021-08-01T14:15:53Z</time>
      </trkpt>
      <trkpt lat="42.16476" lon="0.90943">
        <ele>432.86</ele>
        <time>2021-08-01T14:16:01Z</time>
      </trkpt>
      <trkpt lat="42.16507" lon="0.90935">
        <ele>429.76</ele>
        <time>2021-08-01T14:16:08Z</time>
      </trkpt>
      <trkpt lat="42.16548" lon="0.90923">
        <ele>426.71</ele>
        <time>2021-08-01T14:16:18Z</time>
      </trkpt>
      <trkpt lat="42.16564" lon="0.90919">
        <ele>425.48</ele>
        <time>2021-08-01T14:16:22Z</time>
      </trkpt>
      <trkpt lat="42.16577" lon="0.90919">
        <ele>424.49</ele>
        <time>2021-08-01T14:16:26Z</time>
      </trkpt>
      <trkpt lat="42.16597" lon="0.90889">
        <ele>422.55</ele>
        <time>2021-08-01T14:16:33Z</time>
      </trkpt>
      <trkpt lat="42.16613" lon="0.9085">
        <ele>420.94</ele>
        <time>2021-08-01T14:16:38Z</time>
      </trkpt>
      <trkpt lat="42.16651" lon="0.90829">
        <ele>417.78</ele>
        <time>2021-08-01T14:16:44Z</time>
      </trkpt>
      <trkpt lat="42.16695" lon="0.90803">
        <ele>413.37</ele>
        <time>2021-08-01T14:16:52Z</time>
      </trkpt>
      <trkpt lat="42.16719" lon="0.908">
        <ele>411.79</ele>
        <time>2021-08-01T14:16:57Z</time>
      </trkpt>
      <trkpt lat="42.1678" lon="0.90803">
        <ele>410.45</ele>
        <time>2021-08-01T14:17:06Z</time>
      </trkpt>
      <trkpt lat="42.16786" lon="0.90803">
        <ele>410.15</ele>
        <time>2021-08-01T14:17:07Z</time>
      </trkpt>
      <trkpt lat="42.16808" lon="0.90797">
        <ele>409.16</ele>
        <time>2021-08-01T14:17:11Z</time>
      </trkpt>
      <trkpt lat="42.1684" lon="0.90795">
        <ele>405.68</ele>
        <time>2021-08-01T14:17:20Z</time>
      </trkpt>
      <trkpt lat="42.16844" lon="0.90795">
        <ele>403.1</ele>
        <time>2021-08-01T14:17:42Z</time>
      </trkpt>
      <trkpt lat="42.16847" lon="0.90781">
        <ele>402.61</ele>
        <time>2021-08-01T14:17:48Z</time>
      </trkpt>
      <trkpt lat="42.16845" lon="0.90771">
        <ele>402.4</ele>
        <time>2021-08-01T14:17:51Z</time>
      </trkpt>
      <trkpt lat="42.16829" lon="0.90755">
        <ele>402.18</ele>
        <time>2021-08-01T14:17:55Z</time>
      </trkpt>
      <trkpt lat="42.16809" lon="0.90739">
        <ele>401.67</ele>
        <time>2021-08-01T14:18:00Z</time>
      </trkpt>
      <trkpt lat="42.16812" lon="0.90697">
        <ele>401.26</ele>
        <time>2021-08-01T14:18:05Z</time>
      </trkpt>
      <trkpt lat="42.16825" lon="0.90537">
        <ele>401.17</ele>
        <time>2021-08-01T14:18:15Z</time>
      </trkpt>
      <trkpt lat="42.1683" lon="0.90467">
        <ele>401.41</ele>
        <time>2021-08-01T14:18:19Z</time>
      </trkpt>
      <trkpt lat="42.16798" lon="0.90365">
        <ele>401.14</ele>
        <time>2021-08-01T14:18:25Z</time>
      </trkpt>
      <trkpt lat="42.16773" lon="0.9034">
        <ele>400.64</ele>
        <time>2021-08-01T14:18:27Z</time>
      </trkpt>
      <trkpt lat="42.16759" lon="0.90328">
        <ele>400.37</ele>
        <time>2021-08-01T14:18:28Z</time>
      </trkpt>
      <trkpt lat="42.16602" lon="0.90196">
        <ele>400.42</ele>
        <time>2021-08-01T14:18:39Z</time>
      </trkpt>
      <trkpt lat="42.16491" lon="0.90105">
        <ele>403.45</ele>
        <time>2021-08-01T14:18:48Z</time>
      </trkpt>
      <trkpt lat="42.16421" lon="0.9005">
        <ele>406.69</ele>
        <time>2021-08-01T14:18:54Z</time>
      </trkpt>
      <trkpt lat="42.16371" lon="0.90005">
        <ele>409.33</ele>
        <time>2021-08-01T14:18:59Z</time>
      </trkpt>
      <trkpt lat="42.16364" lon="0.89992">
        <ele>409.74</ele>
        <time>2021-08-01T14:19:00Z</time>
      </trkpt>
      <trkpt lat="42.16348" lon="0.89912">
        <ele>411.78</ele>
        <time>2021-08-01T14:19:05Z</time>
      </trkpt>
      <trkpt lat="42.16351" lon="0.89776">
        <ele>415.28</ele>
        <time>2021-08-01T14:19:14Z</time>
      </trkpt>
      <trkpt lat="42.16355" lon="0.8967">
        <ele>418.56</ele>
        <time>2021-08-01T14:19:21Z</time>
      </trkpt>
      <trkpt lat="42.16366" lon="0.89585">
        <ele>421.96</ele>
        <time>2021-08-01T14:19:27Z</time>
      </trkpt>
      <trkpt lat="42.16378" lon="0.89513">
        <ele>424.81</ele>
        <time>2021-08-01T14:19:34Z</time>
      </trkpt>
      <trkpt lat="42.16385" lon="0.89484">
        <ele>426.57</ele>
        <time>2021-08-01T14:19:41Z</time>
      </trkpt>
      <trkpt lat="42.16391" lon="0.89473">
        <ele>427.18</ele>
        <time>2021-08-01T14:19:46Z</time>
      </trkpt>
      <trkpt lat="42.16371" lon="0.89463">
        <ele>427.7</ele>
        <time>2021-08-01T14:19:54Z</time>
      </trkpt>
      <trkpt lat="42.1639" lon="0.89467">
        <ele>427.67</ele>
        <time>2021-08-01T14:20:00Z</time>
      </trkpt>
      <trkpt lat="42.16402" lon="0.8947">
        <ele>427.71</ele>
        <time>2021-08-01T14:20:02Z</time>
      </trkpt>
      <trkpt lat="42.16503" lon="0.89498">
        <ele>430.84</ele>
        <time>2021-08-01T14:20:13Z</time>
      </trkpt>
      <trkpt lat="42.16563" lon="0.89512">
        <ele>434.04</ele>
        <time>2021-08-01T14:20:20Z</time>
      </trkpt>
      <trkpt lat="42.16601" lon="0.8953">
        <ele>435.92</ele>
        <time>2021-08-01T14:20:24Z</time>
      </trkpt>
      <trkpt lat="42.16625" lon="0.89555">
        <ele>437.44</ele>
        <time>2021-08-01T14:20:28Z</time>
      </trkpt>
      <trkpt lat="42.16652" lon="0.89585">
        <ele>438.62</ele>
        <time>2021-08-01T14:20:32Z</time>
      </trkpt>
      <trkpt lat="42.16719" lon="0.896">
        <ele>440.39</ele>
        <time>2021-08-01T14:20:40Z</time>
      </trkpt>
      <trkpt lat="42.16726" lon="0.89599">
        <ele>440.52</ele>
        <time>2021-08-01T14:20:41Z</time>
      </trkpt>
      <trkpt lat="42.16733" lon="0.89597">
        <ele>440.63</ele>
        <time>2021-08-01T14:20:42Z</time>
      </trkpt>
      <trkpt lat="42.16765" lon="0.89571">
        <ele>441</ele>
        <time>2021-08-01T14:20:46Z</time>
      </trkpt>
      <trkpt lat="42.16844" lon="0.89485">
        <ele>442.3</ele>
        <time>2021-08-01T14:20:56Z</time>
      </trkpt>
      <trkpt lat="42.16909" lon="0.89472">
        <ele>443.2</ele>
        <time>2021-08-01T14:21:03Z</time>
      </trkpt>
      <trkpt lat="42.17054" lon="0.89504">
        <ele>441.89</ele>
        <time>2021-08-01T14:21:16Z</time>
      </trkpt>
      <trkpt lat="42.17165" lon="0.89536">
        <ele>440.36</ele>
        <time>2021-08-01T14:21:27Z</time>
      </trkpt>
      <trkpt lat="42.17197" lon="0.89545">
        <ele>440.62</ele>
        <time>2021-08-01T14:21:30Z</time>
      </trkpt>
      <trkpt lat="42.17285" lon="0.89599">
        <ele>443.84</ele>
        <time>2021-08-01T14:21:37Z</time>
      </trkpt>
      <trkpt lat="42.17339" lon="0.89633">
        <ele>447.08</ele>
        <time>2021-08-01T14:21:41Z</time>
      </trkpt>
      <trkpt lat="42.17381" lon="0.89661">
        <ele>449.76</ele>
        <time>2021-08-01T14:21:45Z</time>
      </trkpt>
      <trkpt lat="42.17394" lon="0.89674">
        <ele>451.08</ele>
        <time>2021-08-01T14:21:47Z</time>
      </trkpt>
      <trkpt lat="42.17407" lon="0.897">
        <ele>452.92</ele>
        <time>2021-08-01T14:21:51Z</time>
      </trkpt>
      <trkpt lat="42.17413" lon="0.89722">
        <ele>454.36</ele>
        <time>2021-08-01T14:22:02Z</time>
      </trkpt>
      <trkpt lat="42.17411" lon="0.89724">
        <ele>454.37</ele>
        <time>2021-08-01T14:22:12Z</time>
      </trkpt>
      <trkpt lat="42.17402" lon="0.89721">
        <ele>454.64</ele>
        <time>2021-08-01T14:22:26Z</time>
      </trkpt>
      <trkpt lat="42.174" lon="0.8972">
        <ele>455.17</ele>
        <time>2021-08-01T14:22:48Z</time>
      </trkpt>
      <trkpt lat="42.174" lon="0.89719">
        <ele>455.12</ele>
        <time>2021-08-01T14:22:49Z</time>
      </trkpt>
      <trkpt lat="42.17412" lon="0.89733">
        <ele>455.21</ele>
        <time>2021-08-01T14:27:04Z</time>
      </trkpt>
      <trkpt lat="42.1739" lon="0.89715">
        <ele>455.21</ele>
        <time>2021-08-01T14:27:09Z</time>
      </trkpt>
      <trkpt lat="42.17396" lon="0.89702">
        <ele>452.99</ele>
        <time>2021-08-01T14:27:18Z</time>
      </trkpt>
      <trkpt lat="42.17418" lon="0.89692">
        <ele>452.3</ele>
        <time>2021-08-01T14:27:23Z</time>
      </trkpt>
      <trkpt lat="42.17422" lon="0.89694">
        <ele>452.24</ele>
        <time>2021-08-01T14:27:27Z</time>
      </trkpt>
      <trkpt lat="42.17478" lon="0.89725">
        <ele>453.29</ele>
        <time>2021-08-01T14:27:34Z</time>
      </trkpt>
      <trkpt lat="42.17509" lon="0.89743">
        <ele>455.02</ele>
        <time>2021-08-01T14:27:37Z</time>
      </trkpt>
      <trkpt lat="42.17564" lon="0.89722">
        <ele>458.14</ele>
        <time>2021-08-01T14:27:42Z</time>
      </trkpt>
      <trkpt lat="42.17593" lon="0.89682">
        <ele>459.38</ele>
        <time>2021-08-01T14:27:45Z</time>
      </trkpt>
      <trkpt lat="42.17604" lon="0.89673">
        <ele>460.02</ele>
        <time>2021-08-01T14:27:46Z</time>
      </trkpt>
      <trkpt lat="42.17642" lon="0.89663">
        <ele>461.81</ele>
        <time>2021-08-01T14:27:49Z</time>
      </trkpt>
      <trkpt lat="42.17771" lon="0.89668">
        <ele>465.21</ele>
        <time>2021-08-01T14:27:57Z</time>
      </trkpt>
      <trkpt lat="42.17885" lon="0.8967">
        <ele>468.23</ele>
        <time>2021-08-01T14:28:03Z</time>
      </trkpt>
      <trkpt lat="42.17983" lon="0.89681">
        <ele>471.25</ele>
        <time>2021-08-01T14:28:08Z</time>
      </trkpt>
      <trkpt lat="42.18062" lon="0.89712">
        <ele>474.33</ele>
        <time>2021-08-01T14:28:13Z</time>
      </trkpt>
      <trkpt lat="42.18073" lon="0.89718">
        <ele>474.96</ele>
        <time>2021-08-01T14:28:14Z</time>
      </trkpt>
      <trkpt lat="42.18091" lon="0.8973">
        <ele>475.8</ele>
        <time>2021-08-01T14:28:16Z</time>
      </trkpt>
      <trkpt lat="42.18121" lon="0.89714">
        <ele>477.38</ele>
        <time>2021-08-01T14:28:20Z</time>
      </trkpt>
      <trkpt lat="42.18154" lon="0.89734">
        <ele>478.25</ele>
        <time>2021-08-01T14:28:24Z</time>
      </trkpt>
      <trkpt lat="42.18187" lon="0.8978">
        <ele>481.38</ele>
        <time>2021-08-01T14:28:28Z</time>
      </trkpt>
      <trkpt lat="42.1823" lon="0.89812">
        <ele>485.03</ele>
        <time>2021-08-01T14:28:32Z</time>
      </trkpt>
      <trkpt lat="42.18275" lon="0.89823">
        <ele>489.32</ele>
        <time>2021-08-01T14:28:36Z</time>
      </trkpt>
      <trkpt lat="42.18287" lon="0.89819">
        <ele>490.44</ele>
        <time>2021-08-01T14:28:37Z</time>
      </trkpt>
      <trkpt lat="42.1834" lon="0.89799">
        <ele>495.26</ele>
        <time>2021-08-01T14:28:41Z</time>
      </trkpt>
      <trkpt lat="42.18389" lon="0.89782">
        <ele>499.14</ele>
        <time>2021-08-01T14:28:45Z</time>
      </trkpt>
      <trkpt lat="42.1843" lon="0.89769">
        <ele>502.42</ele>
        <time>2021-08-01T14:28:49Z</time>
      </trkpt>
      <trkpt lat="42.1849" lon="0.89759">
        <ele>505.48</ele>
        <time>2021-08-01T14:28:55Z</time>
      </trkpt>
      <trkpt lat="42.18563" lon="0.89734">
        <ele>508.77</ele>
        <time>2021-08-01T14:29:01Z</time>
      </trkpt>
      <trkpt lat="42.18592" lon="0.89717">
        <ele>510.13</ele>
        <time>2021-08-01T14:29:03Z</time>
      </trkpt>
      <trkpt lat="42.18605" lon="0.89705">
        <ele>510.79</ele>
        <time>2021-08-01T14:29:04Z</time>
      </trkpt>
      <trkpt lat="42.18617" lon="0.8969">
        <ele>511.41</ele>
        <time>2021-08-01T14:29:05Z</time>
      </trkpt>
      <trkpt lat="42.18637" lon="0.89652">
        <ele>512.46</ele>
        <time>2021-08-01T14:29:07Z</time>
      </trkpt>
      <trkpt lat="42.1869" lon="0.89521">
        <ele>516.02</ele>
        <time>2021-08-01T14:29:13Z</time>
      </trkpt>
      <trkpt lat="42.18724" lon="0.89435">
        <ele>519.08</ele>
        <time>2021-08-01T14:29:17Z</time>
      </trkpt>
      <trkpt lat="42.18756" lon="0.89356">
        <ele>522.56</ele>
        <time>2021-08-01T14:29:21Z</time>
      </trkpt>
      <trkpt lat="42.18766" lon="0.89338">
        <ele>523.41</ele>
        <time>2021-08-01T14:29:22Z</time>
      </trkpt>
      <trkpt lat="42.18791" lon="0.89307">
        <ele>525.18</ele>
        <time>2021-08-01T14:29:24Z</time>
      </trkpt>
      <trkpt lat="42.1885" lon="0.89253">
        <ele>528.72</ele>
        <time>2021-08-01T14:29:28Z</time>
      </trkpt>
      <trkpt lat="42.18902" lon="0.89243">
        <ele>532.04</ele>
        <time>2021-08-01T14:29:31Z</time>
      </trkpt>
      <trkpt lat="42.18947" lon="0.89278">
        <ele>536.14</ele>
        <time>2021-08-01T14:29:34Z</time>
      </trkpt>
      <trkpt lat="42.18966" lon="0.89341">
        <ele>540.62</ele>
        <time>2021-08-01T14:29:37Z</time>
      </trkpt>
      <trkpt lat="42.18959" lon="0.89402">
        <ele>544.91</ele>
        <time>2021-08-01T14:29:40Z</time>
      </trkpt>
      <trkpt lat="42.18942" lon="0.89486">
        <ele>550.79</ele>
        <time>2021-08-01T14:29:44Z</time>
      </trkpt>
      <trkpt lat="42.18929" lon="0.89545">
        <ele>553.93</ele>
        <time>2021-08-01T14:29:47Z</time>
      </trkpt>
      <trkpt lat="42.18944" lon="0.89621">
        <ele>557.9</ele>
        <time>2021-08-01T14:29:52Z</time>
      </trkpt>
      <trkpt lat="42.18988" lon="0.8962">
        <ele>560.46</ele>
        <time>2021-08-01T14:29:56Z</time>
      </trkpt>
      <trkpt lat="42.19007" lon="0.89601">
        <ele>561.58</ele>
        <time>2021-08-01T14:29:58Z</time>
      </trkpt>
      <trkpt lat="42.19061" lon="0.8953">
        <ele>565.23</ele>
        <time>2021-08-01T14:30:03Z</time>
      </trkpt>
      <trkpt lat="42.19098" lon="0.89481">
        <ele>569.25</ele>
        <time>2021-08-01T14:30:06Z</time>
      </trkpt>
      <trkpt lat="42.19136" lon="0.89433">
        <ele>573.49</ele>
        <time>2021-08-01T14:30:09Z</time>
      </trkpt>
      <trkpt lat="42.19161" lon="0.89399">
        <ele>576.58</ele>
        <time>2021-08-01T14:30:11Z</time>
      </trkpt>
      <trkpt lat="42.19198" lon="0.89341">
        <ele>580.9</ele>
        <time>2021-08-01T14:30:14Z</time>
      </trkpt>
      <trkpt lat="42.19231" lon="0.89281">
        <ele>584.7</ele>
        <time>2021-08-01T14:30:17Z</time>
      </trkpt>
      <trkpt lat="42.19278" lon="0.892">
        <ele>588.42</ele>
        <time>2021-08-01T14:30:21Z</time>
      </trkpt>
      <trkpt lat="42.19323" lon="0.89116">
        <ele>591.71</ele>
        <time>2021-08-01T14:30:25Z</time>
      </trkpt>
      <trkpt lat="42.19382" lon="0.89004">
        <ele>594.96</ele>
        <time>2021-08-01T14:30:30Z</time>
      </trkpt>
      <trkpt lat="42.19414" lon="0.88937">
        <ele>598.03</ele>
        <time>2021-08-01T14:30:33Z</time>
      </trkpt>
      <trkpt lat="42.19448" lon="0.88852">
        <ele>601.97</ele>
        <time>2021-08-01T14:30:37Z</time>
      </trkpt>
      <trkpt lat="42.19476" lon="0.88779">
        <ele>605.05</ele>
        <time>2021-08-01T14:30:41Z</time>
      </trkpt>
      <trkpt lat="42.195" lon="0.88712">
        <ele>608.53</ele>
        <time>2021-08-01T14:30:46Z</time>
      </trkpt>
      <trkpt lat="42.1952" lon="0.88656">
        <ele>612.01</ele>
        <time>2021-08-01T14:30:52Z</time>
      </trkpt>
      <trkpt lat="42.19533" lon="0.88592">
        <ele>615.33</ele>
        <time>2021-08-01T14:30:59Z</time>
      </trkpt>
      <trkpt lat="42.1955" lon="0.88525">
        <ele>618.89</ele>
        <time>2021-08-01T14:31:05Z</time>
      </trkpt>
      <trkpt lat="42.19555" lon="0.88463">
        <ele>622.04</ele>
        <time>2021-08-01T14:31:10Z</time>
      </trkpt>
      <trkpt lat="42.19571" lon="0.88377">
        <ele>626.21</ele>
        <time>2021-08-01T14:31:15Z</time>
      </trkpt>
      <trkpt lat="42.19587" lon="0.8832">
        <ele>629.23</ele>
        <time>2021-08-01T14:31:18Z</time>
      </trkpt>
      <trkpt lat="42.1961" lon="0.88256">
        <ele>633.82</ele>
        <time>2021-08-01T14:31:22Z</time>
      </trkpt>
      <trkpt lat="42.19616" lon="0.8824">
        <ele>633.82</ele>
        <time>2021-08-01T14:31:23Z</time>
      </trkpt>
      <trkpt lat="42.19635" lon="0.88192">
        <ele>637.53</ele>
        <time>2021-08-01T14:31:26Z</time>
      </trkpt>
      <trkpt lat="42.19657" lon="0.88132">
        <ele>641.21</ele>
        <time>2021-08-01T14:31:30Z</time>
      </trkpt>
      <trkpt lat="42.19679" lon="0.88077">
        <ele>644.39</ele>
        <time>2021-08-01T14:31:34Z</time>
      </trkpt>
      <trkpt lat="42.1969" lon="0.88047">
        <ele>645.82</ele>
        <time>2021-08-01T14:31:36Z</time>
      </trkpt>
      <trkpt lat="42.19704" lon="0.87962">
        <ele>650.26</ele>
        <time>2021-08-01T14:31:41Z</time>
      </trkpt>
      <trkpt lat="42.19707" lon="0.87909">
        <ele>653.47</ele>
        <time>2021-08-01T14:31:44Z</time>
      </trkpt>
      <trkpt lat="42.19709" lon="0.87848">
        <ele>657.38</ele>
        <time>2021-08-01T14:31:48Z</time>
      </trkpt>
      <trkpt lat="42.19712" lon="0.87787">
        <ele>661.24</ele>
        <time>2021-08-01T14:31:52Z</time>
      </trkpt>
      <trkpt lat="42.19724" lon="0.87731">
        <ele>664.76</ele>
        <time>2021-08-01T14:31:56Z</time>
      </trkpt>
      <trkpt lat="42.19733" lon="0.87704">
        <ele>666.7</ele>
        <time>2021-08-01T14:31:58Z</time>
      </trkpt>
      <trkpt lat="42.19776" lon="0.87643">
        <ele>670.75</ele>
        <time>2021-08-01T14:32:03Z</time>
      </trkpt>
      <trkpt lat="42.19814" lon="0.87595">
        <ele>673.27</ele>
        <time>2021-08-01T14:32:07Z</time>
      </trkpt>
      <trkpt lat="42.19858" lon="0.87568">
        <ele>675.76</ele>
        <time>2021-08-01T14:32:11Z</time>
      </trkpt>
      <trkpt lat="42.19893" lon="0.8756">
        <ele>677.75</ele>
        <time>2021-08-01T14:32:14Z</time>
      </trkpt>
      <trkpt lat="42.19952" lon="0.87525">
        <ele>681.96</ele>
        <time>2021-08-01T14:32:19Z</time>
      </trkpt>
      <trkpt lat="42.19964" lon="0.87516">
        <ele>682.9</ele>
        <time>2021-08-01T14:32:20Z</time>
      </trkpt>
      <trkpt lat="42.20002" lon="0.87465">
        <ele>686.89</ele>
        <time>2021-08-01T14:32:24Z</time>
      </trkpt>
      <trkpt lat="42.20023" lon="0.8742">
        <ele>690.29</ele>
        <time>2021-08-01T14:32:27Z</time>
      </trkpt>
      <trkpt lat="42.20037" lon="0.87371">
        <ele>693.89</ele>
        <time>2021-08-01T14:32:30Z</time>
      </trkpt>
      <trkpt lat="42.20047" lon="0.87319">
        <ele>697.16</ele>
        <time>2021-08-01T14:32:33Z</time>
      </trkpt>
      <trkpt lat="42.20056" lon="0.87286">
        <ele>699.26</ele>
        <time>2021-08-01T14:32:35Z</time>
      </trkpt>
      <trkpt lat="42.20084" lon="0.87229">
        <ele>703.18</ele>
        <time>2021-08-01T14:32:39Z</time>
      </trkpt>
      <trkpt lat="42.20094" lon="0.87218">
        <ele>704.15</ele>
        <time>2021-08-01T14:32:40Z</time>
      </trkpt>
      <trkpt lat="42.20136" lon="0.8717">
        <ele>708.76</ele>
        <time>2021-08-01T14:32:45Z</time>
      </trkpt>
      <trkpt lat="42.20167" lon="0.87122">
        <ele>712.24</ele>
        <time>2021-08-01T14:32:49Z</time>
      </trkpt>
      <trkpt lat="42.20189" lon="0.8707">
        <ele>716.18</ele>
        <time>2021-08-01T14:32:53Z</time>
      </trkpt>
      <trkpt lat="42.20199" lon="0.87043">
        <ele>718.21</ele>
        <time>2021-08-01T14:32:55Z</time>
      </trkpt>
      <trkpt lat="42.20236" lon="0.86982">
        <ele>723.02</ele>
        <time>2021-08-01T14:33:00Z</time>
      </trkpt>
      <trkpt lat="42.20251" lon="0.86956">
        <ele>726.17</ele>
        <time>2021-08-01T14:33:02Z</time>
      </trkpt>
      <trkpt lat="42.20272" lon="0.86922">
        <ele>729.42</ele>
        <time>2021-08-01T14:33:05Z</time>
      </trkpt>
      <trkpt lat="42.20294" lon="0.86887">
        <ele>732.56</ele>
        <time>2021-08-01T14:33:08Z</time>
      </trkpt>
      <trkpt lat="42.20318" lon="0.86851">
        <ele>735.72</ele>
        <time>2021-08-01T14:33:11Z</time>
      </trkpt>
      <trkpt lat="42.20342" lon="0.86815">
        <ele>739.01</ele>
        <time>2021-08-01T14:33:14Z</time>
      </trkpt>
      <trkpt lat="42.20365" lon="0.8678">
        <ele>742.05</ele>
        <time>2021-08-01T14:33:17Z</time>
      </trkpt>
      <trkpt lat="42.20372" lon="0.86768">
        <ele>743.03</ele>
        <time>2021-08-01T14:33:18Z</time>
      </trkpt>
      <trkpt lat="42.20398" lon="0.867">
        <ele>747.79</ele>
        <time>2021-08-01T14:33:23Z</time>
      </trkpt>
      <trkpt lat="42.20419" lon="0.86646">
        <ele>751.29</ele>
        <time>2021-08-01T14:33:27Z</time>
      </trkpt>
      <trkpt lat="42.20449" lon="0.86594">
        <ele>755.26</ele>
        <time>2021-08-01T14:33:31Z</time>
      </trkpt>
      <trkpt lat="42.2048" lon="0.86539">
        <ele>759.18</ele>
        <time>2021-08-01T14:33:35Z</time>
      </trkpt>
      <trkpt lat="42.20508" lon="0.86485">
        <ele>762.98</ele>
        <time>2021-08-01T14:33:39Z</time>
      </trkpt>
      <trkpt lat="42.20531" lon="0.86443">
        <ele>766.11</ele>
        <time>2021-08-01T14:33:42Z</time>
      </trkpt>
      <trkpt lat="42.20556" lon="0.864">
        <ele>769.27</ele>
        <time>2021-08-01T14:33:45Z</time>
      </trkpt>
      <trkpt lat="42.20584" lon="0.86361">
        <ele>772.42</ele>
        <time>2021-08-01T14:33:48Z</time>
      </trkpt>
      <trkpt lat="42.20622" lon="0.86311">
        <ele>776.35</ele>
        <time>2021-08-01T14:33:52Z</time>
      </trkpt>
      <trkpt lat="42.20645" lon="0.86269">
        <ele>779.59</ele>
        <time>2021-08-01T14:33:55Z</time>
      </trkpt>
      <trkpt lat="42.20667" lon="0.86225">
        <ele>783.01</ele>
        <time>2021-08-01T14:33:58Z</time>
      </trkpt>
      <trkpt lat="42.20691" lon="0.86176">
        <ele>786.67</ele>
        <time>2021-08-01T14:34:01Z</time>
      </trkpt>
      <trkpt lat="42.20716" lon="0.86129">
        <ele>790.69</ele>
        <time>2021-08-01T14:34:04Z</time>
      </trkpt>
      <trkpt lat="42.20739" lon="0.86079">
        <ele>794.7</ele>
        <time>2021-08-01T14:34:07Z</time>
      </trkpt>
      <trkpt lat="42.20763" lon="0.8603">
        <ele>798.56</ele>
        <time>2021-08-01T14:34:10Z</time>
      </trkpt>
      <trkpt lat="42.20788" lon="0.8598">
        <ele>802.09</ele>
        <time>2021-08-01T14:34:13Z</time>
      </trkpt>
      <trkpt lat="42.20833" lon="0.85923">
        <ele>806.88</ele>
        <time>2021-08-01T14:34:17Z</time>
      </trkpt>
      <trkpt lat="42.20871" lon="0.85853">
        <ele>811.85</ele>
        <time>2021-08-01T14:34:21Z</time>
      </trkpt>
      <trkpt lat="42.20876" lon="0.85833">
        <ele>813.03</ele>
        <time>2021-08-01T14:34:22Z</time>
      </trkpt>
      <trkpt lat="42.20909" lon="0.85748">
        <ele>818.75</ele>
        <time>2021-08-01T14:34:27Z</time>
      </trkpt>
      <trkpt lat="42.20937" lon="0.85702">
        <ele>822.06</ele>
        <time>2021-08-01T14:34:30Z</time>
      </trkpt>
      <trkpt lat="42.20967" lon="0.85658">
        <ele>825.58</ele>
        <time>2021-08-01T14:34:33Z</time>
      </trkpt>
      <trkpt lat="42.21002" lon="0.85617">
        <ele>829.08</ele>
        <time>2021-08-01T14:34:36Z</time>
      </trkpt>
      <trkpt lat="42.21036" lon="0.8557">
        <ele>832.93</ele>
        <time>2021-08-01T14:34:39Z</time>
      </trkpt>
      <trkpt lat="42.21061" lon="0.85536">
        <ele>836.41</ele>
        <time>2021-08-01T14:34:41Z</time>
      </trkpt>
      <trkpt lat="42.21087" lon="0.85447">
        <ele>841.03</ele>
        <time>2021-08-01T14:34:45Z</time>
      </trkpt>
      <trkpt lat="42.21091" lon="0.85423">
        <ele>842.25</ele>
        <time>2021-08-01T14:34:46Z</time>
      </trkpt>
      <trkpt lat="42.21122" lon="0.85336">
        <ele>847.69</ele>
        <time>2021-08-01T14:34:50Z</time>
      </trkpt>
      <trkpt lat="42.21142" lon="0.85293">
        <ele>850.98</ele>
        <time>2021-08-01T14:34:52Z</time>
      </trkpt>
      <trkpt lat="42.21164" lon="0.85254">
        <ele>854.31</ele>
        <time>2021-08-01T14:34:54Z</time>
      </trkpt>
      <trkpt lat="42.21183" lon="0.85185">
        <ele>859.05</ele>
        <time>2021-08-01T14:34:57Z</time>
      </trkpt>
      <trkpt lat="42.21188" lon="0.85134">
        <ele>862.11</ele>
        <time>2021-08-01T14:34:59Z</time>
      </trkpt>
      <trkpt lat="42.21202" lon="0.85061">
        <ele>866.39</ele>
        <time>2021-08-01T14:35:02Z</time>
      </trkpt>
      <trkpt lat="42.21208" lon="0.85038">
        <ele>868.09</ele>
        <time>2021-08-01T14:35:03Z</time>
      </trkpt>
      <trkpt lat="42.21234" lon="0.84975">
        <ele>873.6</ele>
        <time>2021-08-01T14:35:06Z</time>
      </trkpt>
      <trkpt lat="42.2125" lon="0.84936">
        <ele>876.92</ele>
        <time>2021-08-01T14:35:08Z</time>
      </trkpt>
      <trkpt lat="42.2129" lon="0.84896">
        <ele>882.97</ele>
        <time>2021-08-01T14:35:12Z</time>
      </trkpt>
      <trkpt lat="42.21306" lon="0.8489">
        <ele>886.83</ele>
        <time>2021-08-01T14:35:15Z</time>
      </trkpt>
      <trkpt lat="42.21291" lon="0.84901">
        <ele>890.7</ele>
        <time>2021-08-01T14:35:20Z</time>
      </trkpt>
      <trkpt lat="42.21276" lon="0.84907">
        <ele>891.44</ele>
        <time>2021-08-01T14:35:29Z</time>
      </trkpt>
      <trkpt lat="42.21286" lon="0.84903">
        <ele>891.31</ele>
        <time>2021-08-01T14:35:32Z</time>
      </trkpt>
      <trkpt lat="42.21285" lon="0.84854">
        <ele>892.66</ele>
        <time>2021-08-01T14:35:39Z</time>
      </trkpt>
      <trkpt lat="42.21251" lon="0.84802">
        <ele>894.1</ele>
        <time>2021-08-01T14:35:45Z</time>
      </trkpt>
      <trkpt lat="42.21215" lon="0.84774">
        <ele>896.02</ele>
        <time>2021-08-01T14:35:51Z</time>
      </trkpt>
      <trkpt lat="42.2119" lon="0.84786">
        <ele>896.73</ele>
        <time>2021-08-01T14:35:54Z</time>
      </trkpt>
      <trkpt lat="42.21182" lon="0.84786">
        <ele>896.9</ele>
        <time>2021-08-01T14:35:55Z</time>
      </trkpt>
      <trkpt lat="42.21174" lon="0.84783">
        <ele>897.01</ele>
        <time>2021-08-01T14:35:56Z</time>
      </trkpt>
      <trkpt lat="42.21146" lon="0.84734">
        <ele>897.23</ele>
        <time>2021-08-01T14:36:01Z</time>
      </trkpt>
      <trkpt lat="42.21108" lon="0.84659">
        <ele>896.78</ele>
        <time>2021-08-01T14:36:08Z</time>
      </trkpt>
      <trkpt lat="42.21068" lon="0.84671">
        <ele>896.21</ele>
        <time>2021-08-01T14:36:14Z</time>
      </trkpt>
      <trkpt lat="42.21064" lon="0.84683">
        <ele>896.16</ele>
        <time>2021-08-01T14:36:15Z</time>
      </trkpt>
      <trkpt lat="42.21054" lon="0.84717">
        <ele>896.36</ele>
        <time>2021-08-01T14:36:18Z</time>
      </trkpt>
      <trkpt lat="42.21014" lon="0.8474">
        <ele>896.95</ele>
        <time>2021-08-01T14:36:24Z</time>
      </trkpt>
      <trkpt lat="42.21004" lon="0.84739">
        <ele>897</ele>
        <time>2021-08-01T14:36:25Z</time>
      </trkpt>
      <trkpt lat="42.20964" lon="0.84731">
        <ele>897.39</ele>
        <time>2021-08-01T14:36:29Z</time>
      </trkpt>
      <trkpt lat="42.20885" lon="0.84677">
        <ele>900.17</ele>
        <time>2021-08-01T14:36:36Z</time>
      </trkpt>
      <trkpt lat="42.20875" lon="0.8462">
        <ele>902.74</ele>
        <time>2021-08-01T14:36:41Z</time>
      </trkpt>
      <trkpt lat="42.20881" lon="0.84609">
        <ele>903.36</ele>
        <time>2021-08-01T14:36:42Z</time>
      </trkpt>
      <trkpt lat="42.20887" lon="0.84599">
        <ele>903.99</ele>
        <time>2021-08-01T14:36:43Z</time>
      </trkpt>
      <trkpt lat="42.20891" lon="0.84588">
        <ele>904.59</ele>
        <time>2021-08-01T14:36:44Z</time>
      </trkpt>
      <trkpt lat="42.20894" lon="0.84577">
        <ele>905.09</ele>
        <time>2021-08-01T14:36:45Z</time>
      </trkpt>
      <trkpt lat="42.20895" lon="0.84563">
        <ele>905.59</ele>
        <time>2021-08-01T14:36:46Z</time>
      </trkpt>
      <trkpt lat="42.20908" lon="0.84469">
        <ele>908.93</ele>
        <time>2021-08-01T14:36:52Z</time>
      </trkpt>
      <trkpt lat="42.20915" lon="0.84443">
        <ele>909.81</ele>
        <time>2021-08-01T14:36:54Z</time>
      </trkpt>
      <trkpt lat="42.20896" lon="0.84424">
        <ele>912</ele>
        <time>2021-08-01T14:36:59Z</time>
      </trkpt>
      <trkpt lat="42.20862" lon="0.84444">
        <ele>912.67</ele>
        <time>2021-08-01T14:37:02Z</time>
      </trkpt>
      <trkpt lat="42.20825" lon="0.84467">
        <ele>913.66</ele>
        <time>2021-08-01T14:37:06Z</time>
      </trkpt>
      <trkpt lat="42.20797" lon="0.8445">
        <ele>915.33</ele>
        <time>2021-08-01T14:37:12Z</time>
      </trkpt>
      <trkpt lat="42.20795" lon="0.8444">
        <ele>915.71</ele>
        <time>2021-08-01T14:37:13Z</time>
      </trkpt>
      <trkpt lat="42.20784" lon="0.84387">
        <ele>917.52</ele>
        <time>2021-08-01T14:37:18Z</time>
      </trkpt>
      <trkpt lat="42.208" lon="0.84378">
        <ele>919.52</ele>
        <time>2021-08-01T14:37:23Z</time>
      </trkpt>
      <trkpt lat="42.20804" lon="0.84385">
        <ele>919.93</ele>
        <time>2021-08-01T14:37:24Z</time>
      </trkpt>
      <trkpt lat="42.20843" lon="0.84401">
        <ele>923.09</ele>
        <time>2021-08-01T14:37:31Z</time>
      </trkpt>
      <trkpt lat="42.20837" lon="0.84389">
        <ele>923.93</ele>
        <time>2021-08-01T14:37:33Z</time>
      </trkpt>
      <trkpt lat="42.20836" lon="0.84327">
        <ele>928.03</ele>
        <time>2021-08-01T14:37:41Z</time>
      </trkpt>
      <trkpt lat="42.2085" lon="0.84312">
        <ele>929.09</ele>
        <time>2021-08-01T14:37:43Z</time>
      </trkpt>
      <trkpt lat="42.20873" lon="0.84279">
        <ele>930.99</ele>
        <time>2021-08-01T14:37:47Z</time>
      </trkpt>
      <trkpt lat="42.20875" lon="0.84211">
        <ele>934.68</ele>
        <time>2021-08-01T14:37:54Z</time>
      </trkpt>
      <trkpt lat="42.20855" lon="0.84164">
        <ele>937.17</ele>
        <time>2021-08-01T14:37:59Z</time>
      </trkpt>
      <trkpt lat="42.20848" lon="0.84132">
        <ele>939.67</ele>
        <time>2021-08-01T14:38:03Z</time>
      </trkpt>
      <trkpt lat="42.20843" lon="0.84097">
        <ele>941.71</ele>
        <time>2021-08-01T14:38:08Z</time>
      </trkpt>
      <trkpt lat="42.20836" lon="0.84072">
        <ele>942.92</ele>
        <time>2021-08-01T14:38:11Z</time>
      </trkpt>
      <trkpt lat="42.20842" lon="0.84029">
        <ele>944.73</ele>
        <time>2021-08-01T14:38:15Z</time>
      </trkpt>
      <trkpt lat="42.20859" lon="0.83973">
        <ele>947.25</ele>
        <time>2021-08-01T14:38:20Z</time>
      </trkpt>
      <trkpt lat="42.20874" lon="0.8396">
        <ele>949.73</ele>
        <time>2021-08-01T14:38:26Z</time>
      </trkpt>
      <trkpt lat="42.20873" lon="0.83967">
        <ele>950.18</ele>
        <time>2021-08-01T14:38:27Z</time>
      </trkpt>
      <trkpt lat="42.20866" lon="0.84033">
        <ele>953.5</ele>
        <time>2021-08-01T14:38:34Z</time>
      </trkpt>
      <trkpt lat="42.2087" lon="0.84069">
        <ele>955.47</ele>
        <time>2021-08-01T14:38:38Z</time>
      </trkpt>
      <trkpt lat="42.209" lon="0.84132">
        <ele>959.04</ele>
        <time>2021-08-01T14:38:47Z</time>
      </trkpt>
      <trkpt lat="42.20924" lon="0.84172">
        <ele>961.78</ele>
        <time>2021-08-01T14:38:53Z</time>
      </trkpt>
      <trkpt lat="42.2096" lon="0.8416">
        <ele>965.2</ele>
        <time>2021-08-01T14:39:00Z</time>
      </trkpt>
      <trkpt lat="42.20966" lon="0.84152">
        <ele>965.65</ele>
        <time>2021-08-01T14:39:01Z</time>
      </trkpt>
      <trkpt lat="42.21003" lon="0.84096">
        <ele>969.25</ele>
        <time>2021-08-01T14:39:07Z</time>
      </trkpt>
      <trkpt lat="42.21025" lon="0.84055">
        <ele>972.75</ele>
        <time>2021-08-01T14:39:11Z</time>
      </trkpt>
      <trkpt lat="42.21047" lon="0.84015">
        <ele>976.8</ele>
        <time>2021-08-01T14:39:15Z</time>
      </trkpt>
      <trkpt lat="42.21073" lon="0.83976">
        <ele>980.61</ele>
        <time>2021-08-01T14:39:19Z</time>
      </trkpt>
      <trkpt lat="42.21095" lon="0.83944">
        <ele>984.23</ele>
        <time>2021-08-01T14:39:23Z</time>
      </trkpt>
      <trkpt lat="42.21115" lon="0.83911">
        <ele>987.54</ele>
        <time>2021-08-01T14:39:27Z</time>
      </trkpt>
      <trkpt lat="42.21133" lon="0.83889">
        <ele>989.7</ele>
        <time>2021-08-01T14:39:30Z</time>
      </trkpt>
      <trkpt lat="42.21155" lon="0.83904">
        <ele>991.04</ele>
        <time>2021-08-01T14:39:35Z</time>
      </trkpt>
      <trkpt lat="42.21156" lon="0.83913">
        <ele>991.13</ele>
        <time>2021-08-01T14:39:36Z</time>
      </trkpt>
      <trkpt lat="42.21164" lon="0.83975">
        <ele>991.47</ele>
        <time>2021-08-01T14:39:42Z</time>
      </trkpt>
      <trkpt lat="42.21178" lon="0.84136">
        <ele>994.12</ele>
        <time>2021-08-01T14:39:52Z</time>
      </trkpt>
      <trkpt lat="42.21183" lon="0.84182">
        <ele>997.74</ele>
        <time>2021-08-01T14:39:57Z</time>
      </trkpt>
      <trkpt lat="42.21192" lon="0.84201">
        <ele>1000.61</ele>
        <time>2021-08-01T14:40:01Z</time>
      </trkpt>
      <trkpt lat="42.212" lon="0.8421">
        <ele>1004.19</ele>
        <time>2021-08-01T14:40:08Z</time>
      </trkpt>
      <trkpt lat="42.2122" lon="0.84222">
        <ele>1007.01</ele>
        <time>2021-08-01T14:42:51Z</time>
      </trkpt>
      <trkpt lat="42.21242" lon="0.84212">
        <ele>1009.15</ele>
        <time>2021-08-01T14:42:59Z</time>
      </trkpt>
      <trkpt lat="42.21248" lon="0.84203">
        <ele>1009.76</ele>
        <time>2021-08-01T14:43:01Z</time>
      </trkpt>
      <trkpt lat="42.21255" lon="0.84187">
        <ele>1010.88</ele>
        <time>2021-08-01T14:43:04Z</time>
      </trkpt>
      <trkpt lat="42.21246" lon="0.84164">
        <ele>1012.79</ele>
        <time>2021-08-01T14:43:08Z</time>
      </trkpt>
      <trkpt lat="42.21232" lon="0.84123">
        <ele>1016.14</ele>
        <time>2021-08-01T14:43:14Z</time>
      </trkpt>
      <trkpt lat="42.21236" lon="0.84097">
        <ele>1017.84</ele>
        <time>2021-08-01T14:43:17Z</time>
      </trkpt>
      <trkpt lat="42.21237" lon="0.84076">
        <ele>1019.25</ele>
        <time>2021-08-01T14:43:20Z</time>
      </trkpt>
      <trkpt lat="42.21254" lon="0.83986">
        <ele>1023.44</ele>
        <time>2021-08-01T14:43:28Z</time>
      </trkpt>
      <trkpt lat="42.21255" lon="0.83928">
        <ele>1026.04</ele>
        <time>2021-08-01T14:43:32Z</time>
      </trkpt>
      <trkpt lat="42.21247" lon="0.83874">
        <ele>1029.75</ele>
        <time>2021-08-01T14:43:37Z</time>
      </trkpt>
      <trkpt lat="42.21242" lon="0.83821">
        <ele>1033.49</ele>
        <time>2021-08-01T14:43:42Z</time>
      </trkpt>
      <trkpt lat="42.21236" lon="0.83781">
        <ele>1037.02</ele>
        <time>2021-08-01T14:43:47Z</time>
      </trkpt>
      <trkpt lat="42.2123" lon="0.83742">
        <ele>1040.52</ele>
        <time>2021-08-01T14:43:53Z</time>
      </trkpt>
      <trkpt lat="42.21221" lon="0.8369">
        <ele>1043.53</ele>
        <time>2021-08-01T14:43:58Z</time>
      </trkpt>
      <trkpt lat="42.21219" lon="0.83646">
        <ele>1046.23</ele>
        <time>2021-08-01T14:44:03Z</time>
      </trkpt>
      <trkpt lat="42.21223" lon="0.83618">
        <ele>1048.46</ele>
        <time>2021-08-01T14:44:07Z</time>
      </trkpt>
      <trkpt lat="42.21199" lon="0.83599">
        <ele>1050.91</ele>
        <time>2021-08-01T14:44:13Z</time>
      </trkpt>
      <trkpt lat="42.21179" lon="0.83611">
        <ele>1051.92</ele>
        <time>2021-08-01T14:44:17Z</time>
      </trkpt>
      <trkpt lat="42.21121" lon="0.83672">
        <ele>1055.38</ele>
        <time>2021-08-01T14:44:28Z</time>
      </trkpt>
      <trkpt lat="42.211" lon="0.837">
        <ele>1058.16</ele>
        <time>2021-08-01T14:44:35Z</time>
      </trkpt>
      <trkpt lat="42.21089" lon="0.83689">
        <ele>1059.37</ele>
        <time>2021-08-01T14:44:39Z</time>
      </trkpt>
      <trkpt lat="42.2109" lon="0.83682">
        <ele>1060.84</ele>
        <time>2021-08-01T14:44:44Z</time>
      </trkpt>
      <trkpt lat="42.21111" lon="0.8366">
        <ele>1061.89</ele>
        <time>2021-08-01T14:44:50Z</time>
      </trkpt>
      <trkpt lat="42.21119" lon="0.83648">
        <ele>1062.34</ele>
        <time>2021-08-01T14:44:52Z</time>
      </trkpt>
      <trkpt lat="42.21151" lon="0.83599">
        <ele>1065.89</ele>
        <time>2021-08-01T14:45:00Z</time>
      </trkpt>
      <trkpt lat="42.21172" lon="0.83576">
        <ele>1068.24</ele>
        <time>2021-08-01T14:45:04Z</time>
      </trkpt>
      <trkpt lat="42.212" lon="0.83556">
        <ele>1070.57</ele>
        <time>2021-08-01T14:45:08Z</time>
      </trkpt>
      <trkpt lat="42.21225" lon="0.83545">
        <ele>1072.81</ele>
        <time>2021-08-01T14:45:11Z</time>
      </trkpt>
      <trkpt lat="42.2125" lon="0.83539">
        <ele>1075.1</ele>
        <time>2021-08-01T14:45:14Z</time>
      </trkpt>
      <trkpt lat="42.21283" lon="0.8352">
        <ele>1079.38</ele>
        <time>2021-08-01T14:45:19Z</time>
      </trkpt>
      <trkpt lat="42.21298" lon="0.83557">
        <ele>1082.51</ele>
        <time>2021-08-01T14:45:24Z</time>
      </trkpt>
      <trkpt lat="42.213" lon="0.83591">
        <ele>1083.76</ele>
        <time>2021-08-01T14:45:27Z</time>
      </trkpt>
      <trkpt lat="42.21302" lon="0.83645">
        <ele>1086</ele>
        <time>2021-08-01T14:45:33Z</time>
      </trkpt>
      <trkpt lat="42.2132" lon="0.83653">
        <ele>1088.87</ele>
        <time>2021-08-01T14:45:39Z</time>
      </trkpt>
      <trkpt lat="42.21322" lon="0.83648">
        <ele>1089.26</ele>
        <time>2021-08-01T14:45:40Z</time>
      </trkpt>
      <trkpt lat="42.21337" lon="0.83617">
        <ele>1092.18</ele>
        <time>2021-08-01T14:45:47Z</time>
      </trkpt>
      <trkpt lat="42.21329" lon="0.8358">
        <ele>1095.93</ele>
        <time>2021-08-01T14:45:55Z</time>
      </trkpt>
      <trkpt lat="42.21327" lon="0.83575">
        <ele>1096.38</ele>
        <time>2021-08-01T14:45:56Z</time>
      </trkpt>
      <trkpt lat="42.21324" lon="0.83531">
        <ele>1099.86</ele>
        <time>2021-08-01T14:46:03Z</time>
      </trkpt>
      <trkpt lat="42.21325" lon="0.83496">
        <ele>1103.3</ele>
        <time>2021-08-01T14:46:09Z</time>
      </trkpt>
      <trkpt lat="42.21325" lon="0.83483">
        <ele>1104.58</ele>
        <time>2021-08-01T14:46:11Z</time>
      </trkpt>
      <trkpt lat="42.21319" lon="0.83449">
        <ele>1108.11</ele>
        <time>2021-08-01T14:46:17Z</time>
      </trkpt>
      <trkpt lat="42.21313" lon="0.83434">
        <ele>1111.35</ele>
        <time>2021-08-01T14:46:26Z</time>
      </trkpt>
      <trkpt lat="42.21309" lon="0.83428">
        <ele>1111.8</ele>
        <time>2021-08-01T14:46:28Z</time>
      </trkpt>
      <trkpt lat="42.2129" lon="0.83426">
        <ele>1112.84</ele>
        <time>2021-08-01T14:46:32Z</time>
      </trkpt>
      <trkpt lat="42.21246" lon="0.83449">
        <ele>1116.56</ele>
        <time>2021-08-01T14:46:41Z</time>
      </trkpt>
      <trkpt lat="42.21213" lon="0.83455">
        <ele>1119.76</ele>
        <time>2021-08-01T14:46:50Z</time>
      </trkpt>
      <trkpt lat="42.21201" lon="0.83452">
        <ele>1122.11</ele>
        <time>2021-08-01T14:46:59Z</time>
      </trkpt>
      <trkpt lat="42.21202" lon="0.83452">
        <ele>1123.54</ele>
        <time>2021-08-01T14:51:06Z</time>
      </trkpt>
      <trkpt lat="42.21214" lon="0.83441">
        <ele>1124.66</ele>
        <time>2021-08-01T14:51:13Z</time>
      </trkpt>
      <trkpt lat="42.21234" lon="0.83439">
        <ele>1125.5</ele>
        <time>2021-08-01T14:51:17Z</time>
      </trkpt>
      <trkpt lat="42.21365" lon="0.83401">
        <ele>1139.13</ele>
        <time>2021-08-01T14:51:49Z</time>
      </trkpt>
      <trkpt lat="42.2137" lon="0.83413">
        <ele>1138.93</ele>
        <time>2021-08-01T14:51:51Z</time>
      </trkpt>
      <trkpt lat="42.21404" lon="0.83441">
        <ele>1139.36</ele>
        <time>2021-08-01T14:51:58Z</time>
      </trkpt>
      <trkpt lat="42.21415" lon="0.83411">
        <ele>1140.44</ele>
        <time>2021-08-01T14:52:04Z</time>
      </trkpt>
      <trkpt lat="42.21393" lon="0.83384">
        <ele>1141.62</ele>
        <time>2021-08-01T14:52:08Z</time>
      </trkpt>
      <trkpt lat="42.21359" lon="0.8335">
        <ele>1143.08</ele>
        <time>2021-08-01T14:52:15Z</time>
      </trkpt>
      <trkpt lat="42.21342" lon="0.83321">
        <ele>1144.17</ele>
        <time>2021-08-01T14:52:20Z</time>
      </trkpt>
      <trkpt lat="42.2132" lon="0.83249">
        <ele>1147.74</ele>
        <time>2021-08-01T14:52:28Z</time>
      </trkpt>
      <trkpt lat="42.21308" lon="0.83204">
        <ele>1150.23</ele>
        <time>2021-08-01T14:52:32Z</time>
      </trkpt>
      <trkpt lat="42.21309" lon="0.83133">
        <ele>1154.32</ele>
        <time>2021-08-01T14:52:38Z</time>
      </trkpt>
      <trkpt lat="42.21318" lon="0.831">
        <ele>1156.34</ele>
        <time>2021-08-01T14:52:41Z</time>
      </trkpt>
      <trkpt lat="42.21348" lon="0.83056">
        <ele>1160.11</ele>
        <time>2021-08-01T14:52:48Z</time>
      </trkpt>
      <trkpt lat="42.21346" lon="0.83001">
        <ele>1162.03</ele>
        <time>2021-08-01T14:52:54Z</time>
      </trkpt>
      <trkpt lat="42.21327" lon="0.82929">
        <ele>1162.79</ele>
        <time>2021-08-01T14:53:01Z</time>
      </trkpt>
      <trkpt lat="42.21333" lon="0.82866">
        <ele>1162.48</ele>
        <time>2021-08-01T14:53:07Z</time>
      </trkpt>
      <trkpt lat="42.21382" lon="0.82725">
        <ele>1164.06</ele>
        <time>2021-08-01T14:53:20Z</time>
      </trkpt>
      <trkpt lat="42.2142" lon="0.82627">
        <ele>1167.07</ele>
        <time>2021-08-01T14:53:28Z</time>
      </trkpt>
      <trkpt lat="42.2143" lon="0.8259">
        <ele>1167.89</ele>
        <time>2021-08-01T14:53:31Z</time>
      </trkpt>
      <trkpt lat="42.2142" lon="0.82472">
        <ele>1168.65</ele>
        <time>2021-08-01T14:53:40Z</time>
      </trkpt>
      <trkpt lat="42.21414" lon="0.82449">
        <ele>1168.43</ele>
        <time>2021-08-01T14:53:42Z</time>
      </trkpt>
      <trkpt lat="42.2143" lon="0.82404">
        <ele>1167.73</ele>
        <time>2021-08-01T14:53:48Z</time>
      </trkpt>
      <trkpt lat="42.21467" lon="0.8234">
        <ele>1167.36</ele>
        <time>2021-08-01T14:53:56Z</time>
      </trkpt>
      <trkpt lat="42.2147" lon="0.82277">
        <ele>1169.34</ele>
        <time>2021-08-01T14:54:05Z</time>
      </trkpt>
      <trkpt lat="42.21467" lon="0.82262">
        <ele>1169.88</ele>
        <time>2021-08-01T14:54:07Z</time>
      </trkpt>
      <trkpt lat="42.21466" lon="0.8224">
        <ele>1170.92</ele>
        <time>2021-08-01T14:54:10Z</time>
      </trkpt>
      <trkpt lat="42.21483" lon="0.82192">
        <ele>1173.69</ele>
        <time>2021-08-01T14:54:18Z</time>
      </trkpt>
      <trkpt lat="42.21485" lon="0.82185">
        <ele>1174.01</ele>
        <time>2021-08-01T14:54:19Z</time>
      </trkpt>
      <trkpt lat="42.21489" lon="0.82171">
        <ele>1174.58</ele>
        <time>2021-08-01T14:54:21Z</time>
      </trkpt>
      <trkpt lat="42.21485" lon="0.82147">
        <ele>1175.37</ele>
        <time>2021-08-01T14:54:25Z</time>
      </trkpt>
      <trkpt lat="42.21473" lon="0.82114">
        <ele>1177.09</ele>
        <time>2021-08-01T14:54:30Z</time>
      </trkpt>
      <trkpt lat="42.21482" lon="0.82063">
        <ele>1179.94</ele>
        <time>2021-08-01T14:54:36Z</time>
      </trkpt>
      <trkpt lat="42.21506" lon="0.82008">
        <ele>1183.54</ele>
        <time>2021-08-01T14:54:43Z</time>
      </trkpt>
      <trkpt lat="42.21511" lon="0.81993">
        <ele>1184.81</ele>
        <time>2021-08-01T14:54:45Z</time>
      </trkpt>
      <trkpt lat="42.21503" lon="0.81972">
        <ele>1187.42</ele>
        <time>2021-08-01T14:54:50Z</time>
      </trkpt>
      <trkpt lat="42.21461" lon="0.81962">
        <ele>1190.3</ele>
        <time>2021-08-01T14:54:56Z</time>
      </trkpt>
      <trkpt lat="42.21443" lon="0.81953">
        <ele>1191.93</ele>
        <time>2021-08-01T14:54:59Z</time>
      </trkpt>
      <trkpt lat="42.2142" lon="0.81944">
        <ele>1194.13</ele>
        <time>2021-08-01T14:55:03Z</time>
      </trkpt>
      <trkpt lat="42.21397" lon="0.81926">
        <ele>1197.81</ele>
        <time>2021-08-01T14:55:10Z</time>
      </trkpt>
      <trkpt lat="42.21394" lon="0.81924">
        <ele>1198.28</ele>
        <time>2021-08-01T14:55:11Z</time>
      </trkpt>
      <trkpt lat="42.21371" lon="0.81905">
        <ele>1201.06</ele>
        <time>2021-08-01T14:55:17Z</time>
      </trkpt>
      <trkpt lat="42.21369" lon="0.81899">
        <ele>1201.37</ele>
        <time>2021-08-01T14:55:18Z</time>
      </trkpt>
      <trkpt lat="42.21375" lon="0.81869">
        <ele>1204.76</ele>
        <time>2021-08-01T14:55:26Z</time>
      </trkpt>
      <trkpt lat="42.21428" lon="0.81876">
        <ele>1207.85</ele>
        <time>2021-08-01T14:55:34Z</time>
      </trkpt>
      <trkpt lat="42.21483" lon="0.81864">
        <ele>1211.52</ele>
        <time>2021-08-01T14:55:43Z</time>
      </trkpt>
      <trkpt lat="42.21501" lon="0.81859">
        <ele>1213.07</ele>
        <time>2021-08-01T14:55:47Z</time>
      </trkpt>
      <trkpt lat="42.2152" lon="0.81838">
        <ele>1215.07</ele>
        <time>2021-08-01T14:55:53Z</time>
      </trkpt>
      <trkpt lat="42.21538" lon="0.8182">
        <ele>1217</ele>
        <time>2021-08-01T14:55:58Z</time>
      </trkpt>
      <trkpt lat="42.21553" lon="0.8178">
        <ele>1220.44</ele>
        <time>2021-08-01T14:56:06Z</time>
      </trkpt>
      <trkpt lat="42.21566" lon="0.81747">
        <ele>1223.58</ele>
        <time>2021-08-01T14:56:14Z</time>
      </trkpt>
      <trkpt lat="42.21582" lon="0.81703">
        <ele>1226.72</ele>
        <time>2021-08-01T14:56:24Z</time>
      </trkpt>
      <trkpt lat="42.21604" lon="0.81662">
        <ele>1229.92</ele>
        <time>2021-08-01T14:56:34Z</time>
      </trkpt>
      <trkpt lat="42.2161" lon="0.81608">
        <ele>1232.89</ele>
        <time>2021-08-01T14:56:43Z</time>
      </trkpt>
      <trkpt lat="42.21612" lon="0.8159">
        <ele>1234.03</ele>
        <time>2021-08-01T14:56:46Z</time>
      </trkpt>
      <trkpt lat="42.21627" lon="0.81576">
        <ele>1235.36</ele>
        <time>2021-08-01T14:56:51Z</time>
      </trkpt>
      <trkpt lat="42.21685" lon="0.81564">
        <ele>1237.97</ele>
        <time>2021-08-01T14:57:04Z</time>
      </trkpt>
      <trkpt lat="42.21712" lon="0.81538">
        <ele>1239.47</ele>
        <time>2021-08-01T14:57:13Z</time>
      </trkpt>
      <trkpt lat="42.21743" lon="0.81553">
        <ele>1240.7</ele>
        <time>2021-08-01T14:57:21Z</time>
      </trkpt>
      <trkpt lat="42.21747" lon="0.81569">
        <ele>1241</ele>
        <time>2021-08-01T14:57:23Z</time>
      </trkpt>
      <trkpt lat="42.21755" lon="0.8161">
        <ele>1241.36</ele>
        <time>2021-08-01T14:57:28Z</time>
      </trkpt>
      <trkpt lat="42.21774" lon="0.81685">
        <ele>1242.46</ele>
        <time>2021-08-01T14:57:38Z</time>
      </trkpt>
      <trkpt lat="42.21782" lon="0.81701">
        <ele>1242.88</ele>
        <time>2021-08-01T14:57:40Z</time>
      </trkpt>
      <trkpt lat="42.21843" lon="0.81768">
        <ele>1244.62</ele>
        <time>2021-08-01T14:57:53Z</time>
      </trkpt>
      <trkpt lat="42.21906" lon="0.81812">
        <ele>1247.91</ele>
        <time>2021-08-01T14:58:04Z</time>
      </trkpt>
      <trkpt lat="42.21923" lon="0.8182">
        <ele>1248.95</ele>
        <time>2021-08-01T14:58:07Z</time>
      </trkpt>
      <trkpt lat="42.2197" lon="0.81792">
        <ele>1251.1</ele>
        <time>2021-08-01T14:58:16Z</time>
      </trkpt>
      <trkpt lat="42.22014" lon="0.81733">
        <ele>1248.36</ele>
        <time>2021-08-01T14:58:28Z</time>
      </trkpt>
      <trkpt lat="42.22035" lon="0.81711">
        <ele>1247.02</ele>
        <time>2021-08-01T14:58:32Z</time>
      </trkpt>
      <trkpt lat="42.22059" lon="0.81664">
        <ele>1243.31</ele>
        <time>2021-08-01T14:58:41Z</time>
      </trkpt>
      <trkpt lat="42.22079" lon="0.81616">
        <ele>1241.11</ele>
        <time>2021-08-01T14:58:50Z</time>
      </trkpt>
      <trkpt lat="42.22082" lon="0.8157">
        <ele>1239.41</ele>
        <time>2021-08-01T14:58:57Z</time>
      </trkpt>
      <trkpt lat="42.22105" lon="0.81536">
        <ele>1237.71</ele>
        <time>2021-08-01T14:59:06Z</time>
      </trkpt>
      <trkpt lat="42.2211" lon="0.81537">
        <ele>1237.47</ele>
        <time>2021-08-01T14:59:07Z</time>
      </trkpt>
      <trkpt lat="42.2215" lon="0.81537">
        <ele>1235.15</ele>
        <time>2021-08-01T14:59:17Z</time>
      </trkpt>
      <trkpt lat="42.22221" lon="0.81563">
        <ele>1232</ele>
        <time>2021-08-01T14:59:30Z</time>
      </trkpt>
      <trkpt lat="42.22247" lon="0.81572">
        <ele>1230.88</ele>
        <time>2021-08-01T14:59:35Z</time>
      </trkpt>
      <trkpt lat="42.22263" lon="0.81568">
        <ele>1229.91</ele>
        <time>2021-08-01T14:59:39Z</time>
      </trkpt>
      <trkpt lat="42.22278" lon="0.81557">
        <ele>1229.32</ele>
        <time>2021-08-01T14:59:42Z</time>
      </trkpt>
      <trkpt lat="42.2232" lon="0.81564">
        <ele>1228.18</ele>
        <time>2021-08-01T14:59:50Z</time>
      </trkpt>
      <trkpt lat="42.22356" lon="0.81532">
        <ele>1227.05</ele>
        <time>2021-08-01T14:59:58Z</time>
      </trkpt>
      <trkpt lat="42.2237" lon="0.81534">
        <ele>1226.58</ele>
        <time>2021-08-01T15:00:01Z</time>
      </trkpt>
      <trkpt lat="42.2241" lon="0.8155">
        <ele>1225.39</ele>
        <time>2021-08-01T15:00:11Z</time>
      </trkpt>
      <trkpt lat="42.22412" lon="0.8153">
        <ele>1224.65</ele>
        <time>2021-08-01T15:00:16Z</time>
      </trkpt>
      <trkpt lat="42.22403" lon="0.81503">
        <ele>1224.42</ele>
        <time>2021-08-01T15:00:20Z</time>
      </trkpt>
      <trkpt lat="42.22404" lon="0.81465">
        <ele>1224.68</ele>
        <time>2021-08-01T15:00:25Z</time>
      </trkpt>
      <trkpt lat="42.22424" lon="0.81411">
        <ele>1224.63</ele>
        <time>2021-08-01T15:00:35Z</time>
      </trkpt>
      <trkpt lat="42.22409" lon="0.81393">
        <ele>1224.7</ele>
        <time>2021-08-01T15:00:42Z</time>
      </trkpt>
      <trkpt lat="42.2239" lon="0.81398">
        <ele>1225.44</ele>
        <time>2021-08-01T15:00:53Z</time>
      </trkpt>
      <trkpt lat="42.22382" lon="0.81404">
        <ele>1225.82</ele>
        <time>2021-08-01T15:00:56Z</time>
      </trkpt>
      <trkpt lat="42.22353" lon="0.81392">
        <ele>1227.06</ele>
        <time>2021-08-01T15:01:02Z</time>
      </trkpt>
      <trkpt lat="42.22345" lon="0.81384">
        <ele>1227.48</ele>
        <time>2021-08-01T15:01:04Z</time>
      </trkpt>
      <trkpt lat="42.22323" lon="0.8137">
        <ele>1228.7</ele>
        <time>2021-08-01T15:01:10Z</time>
      </trkpt>
      <trkpt lat="42.22318" lon="0.81334">
        <ele>1229.98</ele>
        <time>2021-08-01T15:01:17Z</time>
      </trkpt>
      <trkpt lat="42.2233" lon="0.81305">
        <ele>1230.64</ele>
        <time>2021-08-01T15:01:22Z</time>
      </trkpt>
      <trkpt lat="42.22319" lon="0.81263">
        <ele>1231.61</ele>
        <time>2021-08-01T15:01:30Z</time>
      </trkpt>
      <trkpt lat="42.22314" lon="0.81262">
        <ele>1231.75</ele>
        <time>2021-08-01T15:01:31Z</time>
      </trkpt>
      <trkpt lat="42.22282" lon="0.81255">
        <ele>1232.93</ele>
        <time>2021-08-01T15:01:38Z</time>
      </trkpt>
      <trkpt lat="42.2226" lon="0.81226">
        <ele>1234.12</ele>
        <time>2021-08-01T15:01:45Z</time>
      </trkpt>
      <trkpt lat="42.22252" lon="0.81204">
        <ele>1234.81</ele>
        <time>2021-08-01T15:01:49Z</time>
      </trkpt>
      <trkpt lat="42.2226" lon="0.81161">
        <ele>1236.47</ele>
        <time>2021-08-01T15:01:56Z</time>
      </trkpt>
      <trkpt lat="42.223" lon="0.81085">
        <ele>1238.43</ele>
        <time>2021-08-01T15:02:07Z</time>
      </trkpt>
      <trkpt lat="42.22321" lon="0.81039">
        <ele>1239.32</ele>
        <time>2021-08-01T15:02:16Z</time>
      </trkpt>
      <trkpt lat="42.22295" lon="0.81002">
        <ele>1239.88</ele>
        <time>2021-08-01T15:02:22Z</time>
      </trkpt>
      <trkpt lat="42.22235" lon="0.80976">
        <ele>1241.32</ele>
        <time>2021-08-01T15:02:34Z</time>
      </trkpt>
      <trkpt lat="42.22225" lon="0.8097">
        <ele>1241.71</ele>
        <time>2021-08-01T15:02:36Z</time>
      </trkpt>
      <trkpt lat="42.22206" lon="0.80954">
        <ele>1242.77</ele>
        <time>2021-08-01T15:02:40Z</time>
      </trkpt>
      <trkpt lat="42.22184" lon="0.80924">
        <ele>1244.1</ele>
        <time>2021-08-01T15:02:45Z</time>
      </trkpt>
      <trkpt lat="42.22154" lon="0.80907">
        <ele>1244.9</ele>
        <time>2021-08-01T15:02:50Z</time>
      </trkpt>
      <trkpt lat="42.22131" lon="0.80902">
        <ele>1245.4</ele>
        <time>2021-08-01T15:02:55Z</time>
      </trkpt>
      <trkpt lat="42.22118" lon="0.80868">
        <ele>1246.32</ele>
        <time>2021-08-01T15:03:02Z</time>
      </trkpt>
      <trkpt lat="42.22152" lon="0.8078">
        <ele>1245.98</ele>
        <time>2021-08-01T15:03:15Z</time>
      </trkpt>
      <trkpt lat="42.22154" lon="0.80774">
        <ele>1245.85</ele>
        <time>2021-08-01T15:03:16Z</time>
      </trkpt>
      <trkpt lat="42.22157" lon="0.80756">
        <ele>1245.34</ele>
        <time>2021-08-01T15:03:19Z</time>
      </trkpt>
      <trkpt lat="42.22151" lon="0.80661">
        <ele>1242.26</ele>
        <time>2021-08-01T15:03:31Z</time>
      </trkpt>
      <trkpt lat="42.22149" lon="0.80589">
        <ele>1240.66</ele>
        <time>2021-08-01T15:03:38Z</time>
      </trkpt>
      <trkpt lat="42.22146" lon="0.80582">
        <ele>1240.72</ele>
        <time>2021-08-01T15:03:39Z</time>
      </trkpt>
      <trkpt lat="42.22142" lon="0.80576">
        <ele>1240.8</ele>
        <time>2021-08-01T15:03:40Z</time>
      </trkpt>
      <trkpt lat="42.22137" lon="0.80571">
        <ele>1240.89</ele>
        <time>2021-08-01T15:03:41Z</time>
      </trkpt>
      <trkpt lat="42.2213" lon="0.80565">
        <ele>1241.02</ele>
        <time>2021-08-01T15:03:42Z</time>
      </trkpt>
      <trkpt lat="42.22082" lon="0.80512">
        <ele>1241.69</ele>
        <time>2021-08-01T15:03:49Z</time>
      </trkpt>
      <trkpt lat="42.22077" lon="0.80503">
        <ele>1241.7</ele>
        <time>2021-08-01T15:03:50Z</time>
      </trkpt>
      <trkpt lat="42.22038" lon="0.8044">
        <ele>1242.02</ele>
        <time>2021-08-01T15:03:58Z</time>
      </trkpt>
      <trkpt lat="42.2203" lon="0.80409">
        <ele>1242.28</ele>
        <time>2021-08-01T15:04:01Z</time>
      </trkpt>
      <trkpt lat="42.22032" lon="0.80312">
        <ele>1243.28</ele>
        <time>2021-08-01T15:04:09Z</time>
      </trkpt>
      <trkpt lat="42.22046" lon="0.80283">
        <ele>1243.45</ele>
        <time>2021-08-01T15:04:13Z</time>
      </trkpt>
      <trkpt lat="42.22046" lon="0.80249">
        <ele>1242.99</ele>
        <time>2021-08-01T15:04:18Z</time>
      </trkpt>
      <trkpt lat="42.22015" lon="0.80172">
        <ele>1239.63</ele>
        <time>2021-08-01T15:04:27Z</time>
      </trkpt>
      <trkpt lat="42.21997" lon="0.8013">
        <ele>1236.48</ele>
        <time>2021-08-01T15:04:33Z</time>
      </trkpt>
      <trkpt lat="42.21989" lon="0.80117">
        <ele>1235.62</ele>
        <time>2021-08-01T15:04:35Z</time>
      </trkpt>
      <trkpt lat="42.21943" lon="0.80065">
        <ele>1231.59</ele>
        <time>2021-08-01T15:04:43Z</time>
      </trkpt>
      <trkpt lat="42.21916" lon="0.8003">
        <ele>1228.42</ele>
        <time>2021-08-01T15:04:48Z</time>
      </trkpt>
      <trkpt lat="42.21903" lon="0.80008">
        <ele>1226.36</ele>
        <time>2021-08-01T15:04:51Z</time>
      </trkpt>
      <trkpt lat="42.21894" lon="0.79999">
        <ele>1225.21</ele>
        <time>2021-08-01T15:04:53Z</time>
      </trkpt>
      <trkpt lat="42.21901" lon="0.79982">
        <ele>1221.75</ele>
        <time>2021-08-01T15:04:59Z</time>
      </trkpt>
      <trkpt lat="42.21937" lon="0.80006">
        <ele>1218.36</ele>
        <time>2021-08-01T15:05:06Z</time>
      </trkpt>
      <trkpt lat="42.2198" lon="0.79992">
        <ele>1215.23</ele>
        <time>2021-08-01T15:05:12Z</time>
      </trkpt>
      <trkpt lat="42.22002" lon="0.80009">
        <ele>1212.47</ele>
        <time>2021-08-01T15:05:16Z</time>
      </trkpt>
      <trkpt lat="42.22036" lon="0.80059">
        <ele>1208.76</ele>
        <time>2021-08-01T15:05:23Z</time>
      </trkpt>
      <trkpt lat="42.22072" lon="0.8009">
        <ele>1205.72</ele>
        <time>2021-08-01T15:05:29Z</time>
      </trkpt>
      <trkpt lat="42.22099" lon="0.80072">
        <ele>1202.98</ele>
        <time>2021-08-01T15:05:35Z</time>
      </trkpt>
      <trkpt lat="42.22106" lon="0.80002">
        <ele>1199.28</ele>
        <time>2021-08-01T15:05:42Z</time>
      </trkpt>
      <trkpt lat="42.22114" lon="0.79976">
        <ele>1197.8</ele>
        <time>2021-08-01T15:05:45Z</time>
      </trkpt>
      <trkpt lat="42.22126" lon="0.79957">
        <ele>1195.87</ele>
        <time>2021-08-01T15:05:48Z</time>
      </trkpt>
      <trkpt lat="42.22167" lon="0.7995">
        <ele>1191.75</ele>
        <time>2021-08-01T15:05:55Z</time>
      </trkpt>
      <trkpt lat="42.22191" lon="0.79935">
        <ele>1189.31</ele>
        <time>2021-08-01T15:06:00Z</time>
      </trkpt>
      <trkpt lat="42.2222" lon="0.79879">
        <ele>1186.15</ele>
        <time>2021-08-01T15:06:07Z</time>
      </trkpt>
      <trkpt lat="42.22231" lon="0.79835">
        <ele>1184.43</ele>
        <time>2021-08-01T15:06:11Z</time>
      </trkpt>
      <trkpt lat="42.22256" lon="0.79776">
        <ele>1182.09</ele>
        <time>2021-08-01T15:06:17Z</time>
      </trkpt>
      <trkpt lat="42.22278" lon="0.79735">
        <ele>1181.73</ele>
        <time>2021-08-01T15:06:21Z</time>
      </trkpt>
      <trkpt lat="42.22305" lon="0.79639">
        <ele>1182.48</ele>
        <time>2021-08-01T15:06:29Z</time>
      </trkpt>
      <trkpt lat="42.22317" lon="0.79574">
        <ele>1183.03</ele>
        <time>2021-08-01T15:06:33Z</time>
      </trkpt>
      <trkpt lat="42.2232" lon="0.79515">
        <ele>1184.22</ele>
        <time>2021-08-01T15:06:37Z</time>
      </trkpt>
      <trkpt lat="42.22319" lon="0.79484">
        <ele>1184.74</ele>
        <time>2021-08-01T15:06:39Z</time>
      </trkpt>
      <trkpt lat="42.2233" lon="0.79423">
        <ele>1185.27</ele>
        <time>2021-08-01T15:06:43Z</time>
      </trkpt>
      <trkpt lat="42.2236" lon="0.79328">
        <ele>1185.48</ele>
        <time>2021-08-01T15:06:50Z</time>
      </trkpt>
      <trkpt lat="42.22431" lon="0.79286">
        <ele>1184.75</ele>
        <time>2021-08-01T15:06:59Z</time>
      </trkpt>
      <trkpt lat="42.22436" lon="0.79243">
        <ele>1183.99</ele>
        <time>2021-08-01T15:07:05Z</time>
      </trkpt>
      <trkpt lat="42.22429" lon="0.79233">
        <ele>1183.77</ele>
        <time>2021-08-01T15:07:06Z</time>
      </trkpt>
      <trkpt lat="42.22401" lon="0.79169">
        <ele>1181.21</ele>
        <time>2021-08-01T15:07:12Z</time>
      </trkpt>
      <trkpt lat="42.22385" lon="0.79092">
        <ele>1177.09</ele>
        <time>2021-08-01T15:07:19Z</time>
      </trkpt>
      <trkpt lat="42.22384" lon="0.79069">
        <ele>1175.83</ele>
        <time>2021-08-01T15:07:21Z</time>
      </trkpt>
      <trkpt lat="42.22416" lon="0.79027">
        <ele>1172.24</ele>
        <time>2021-08-01T15:07:27Z</time>
      </trkpt>
      <trkpt lat="42.22471" lon="0.79021">
        <ele>1168.11</ele>
        <time>2021-08-01T15:07:33Z</time>
      </trkpt>
      <trkpt lat="42.22494" lon="0.79012">
        <ele>1165.95</ele>
        <time>2021-08-01T15:07:36Z</time>
      </trkpt>
      <trkpt lat="42.22507" lon="0.78997">
        <ele>1163.23</ele>
        <time>2021-08-01T15:07:40Z</time>
      </trkpt>
      <trkpt lat="42.22512" lon="0.7899">
        <ele>1161.42</ele>
        <time>2021-08-01T15:07:43Z</time>
      </trkpt>
      <trkpt lat="42.22514" lon="0.79013">
        <ele>1158.3</ele>
        <time>2021-08-01T15:07:49Z</time>
      </trkpt>
      <trkpt lat="42.22483" lon="0.79046">
        <ele>1156.39</ele>
        <time>2021-08-01T15:07:54Z</time>
      </trkpt>
      <trkpt lat="42.22444" lon="0.79069">
        <ele>1154.29</ele>
        <time>2021-08-01T15:07:59Z</time>
      </trkpt>
      <trkpt lat="42.22436" lon="0.79099">
        <ele>1151.19</ele>
        <time>2021-08-01T15:08:04Z</time>
      </trkpt>
      <trkpt lat="42.22454" lon="0.79138">
        <ele>1148.48</ele>
        <time>2021-08-01T15:08:09Z</time>
      </trkpt>
      <trkpt lat="42.22475" lon="0.79159">
        <ele>1146.07</ele>
        <time>2021-08-01T15:08:13Z</time>
      </trkpt>
      <trkpt lat="42.22518" lon="0.79187">
        <ele>1141.46</ele>
        <time>2021-08-01T15:08:20Z</time>
      </trkpt>
      <trkpt lat="42.2254" lon="0.7922">
        <ele>1138.08</ele>
        <time>2021-08-01T15:08:25Z</time>
      </trkpt>
      <trkpt lat="42.22567" lon="0.7923">
        <ele>1135.64</ele>
        <time>2021-08-01T15:08:29Z</time>
      </trkpt>
      <trkpt lat="42.22597" lon="0.79228">
        <ele>1133.21</ele>
        <time>2021-08-01T15:08:33Z</time>
      </trkpt>
      <trkpt lat="42.2261" lon="0.79215">
        <ele>1129.38</ele>
        <time>2021-08-01T15:08:39Z</time>
      </trkpt>
      <trkpt lat="42.22607" lon="0.79214">
        <ele>1128.68</ele>
        <time>2021-08-01T15:08:40Z</time>
      </trkpt>
      <trkpt lat="42.22577" lon="0.79207">
        <ele>1126.03</ele>
        <time>2021-08-01T15:08:45Z</time>
      </trkpt>
      <trkpt lat="42.22556" lon="0.79181">
        <ele>1124.62</ele>
        <time>2021-08-01T15:08:49Z</time>
      </trkpt>
      <trkpt lat="42.22549" lon="0.79163">
        <ele>1123.65</ele>
        <time>2021-08-01T15:08:51Z</time>
      </trkpt>
      <trkpt lat="42.22542" lon="0.79147">
        <ele>1122.9</ele>
        <time>2021-08-01T15:08:53Z</time>
      </trkpt>
      <trkpt lat="42.22558" lon="0.7911">
        <ele>1119.72</ele>
        <time>2021-08-01T15:08:59Z</time>
      </trkpt>
      <trkpt lat="42.22582" lon="0.79102">
        <ele>1118.03</ele>
        <time>2021-08-01T15:09:02Z</time>
      </trkpt>
      <trkpt lat="42.22612" lon="0.7908">
        <ele>1115.76</ele>
        <time>2021-08-01T15:09:06Z</time>
      </trkpt>
      <trkpt lat="42.22638" lon="0.7906">
        <ele>1111.91</ele>
        <time>2021-08-01T15:09:12Z</time>
      </trkpt>
      <trkpt lat="42.22636" lon="0.7907">
        <ele>1110.44</ele>
        <time>2021-08-01T15:09:14Z</time>
      </trkpt>
      <trkpt lat="42.22628" lon="0.79084">
        <ele>1109.2</ele>
        <time>2021-08-01T15:09:16Z</time>
      </trkpt>
      <trkpt lat="42.22605" lon="0.7913">
        <ele>1105.67</ele>
        <time>2021-08-01T15:09:23Z</time>
      </trkpt>
      <trkpt lat="42.22639" lon="0.79144">
        <ele>1103.5</ele>
        <time>2021-08-01T15:09:28Z</time>
      </trkpt>
      <trkpt lat="42.2272" lon="0.79132">
        <ele>1099.88</ele>
        <time>2021-08-01T15:09:36Z</time>
      </trkpt>
      <trkpt lat="42.2277" lon="0.79111">
        <ele>1096.23</ele>
        <time>2021-08-01T15:09:41Z</time>
      </trkpt>
      <trkpt lat="42.22797" lon="0.79096">
        <ele>1093.76</ele>
        <time>2021-08-01T15:09:44Z</time>
      </trkpt>
      <trkpt lat="42.22827" lon="0.79065">
        <ele>1089.77</ele>
        <time>2021-08-01T15:09:49Z</time>
      </trkpt>
      <trkpt lat="42.22856" lon="0.79022">
        <ele>1086.13</ele>
        <time>2021-08-01T15:09:54Z</time>
      </trkpt>
      <trkpt lat="42.22889" lon="0.7899">
        <ele>1083.01</ele>
        <time>2021-08-01T15:09:58Z</time>
      </trkpt>
      <trkpt lat="42.22898" lon="0.78984">
        <ele>1082.39</ele>
        <time>2021-08-01T15:09:59Z</time>
      </trkpt>
      <trkpt lat="42.22952" lon="0.78966">
        <ele>1078.41</ele>
        <time>2021-08-01T15:10:05Z</time>
      </trkpt>
      <trkpt lat="42.22973" lon="0.78957">
        <ele>1076.5</ele>
        <time>2021-08-01T15:10:08Z</time>
      </trkpt>
      <trkpt lat="42.22986" lon="0.78922">
        <ele>1072.64</ele>
        <time>2021-08-01T15:10:13Z</time>
      </trkpt>
      <trkpt lat="42.22984" lon="0.78908">
        <ele>1072.08</ele>
        <time>2021-08-01T15:10:14Z</time>
      </trkpt>
      <trkpt lat="42.22982" lon="0.78852">
        <ele>1070.36</ele>
        <time>2021-08-01T15:10:18Z</time>
      </trkpt>
      <trkpt lat="42.23022" lon="0.78778">
        <ele>1066.25</ele>
        <time>2021-08-01T15:10:25Z</time>
      </trkpt>
      <trkpt lat="42.23047" lon="0.78765">
        <ele>1063.09</ele>
        <time>2021-08-01T15:10:29Z</time>
      </trkpt>
      <trkpt lat="42.23064" lon="0.78741">
        <ele>1059.66</ele>
        <time>2021-08-01T15:10:33Z</time>
      </trkpt>
      <trkpt lat="42.23088" lon="0.78691">
        <ele>1056.8</ele>
        <time>2021-08-01T15:10:38Z</time>
      </trkpt>
      <trkpt lat="42.23124" lon="0.78658">
        <ele>1053.66</ele>
        <time>2021-08-01T15:10:43Z</time>
      </trkpt>
      <trkpt lat="42.23163" lon="0.78632">
        <ele>1048.68</ele>
        <time>2021-08-01T15:10:49Z</time>
      </trkpt>
      <trkpt lat="42.23174" lon="0.78621">
        <ele>1047.1</ele>
        <time>2021-08-01T15:10:51Z</time>
      </trkpt>
      <trkpt lat="42.23182" lon="0.7861">
        <ele>1045.64</ele>
        <time>2021-08-01T15:10:53Z</time>
      </trkpt>
      <trkpt lat="42.23193" lon="0.78623">
        <ele>1041.78</ele>
        <time>2021-08-01T15:10:58Z</time>
      </trkpt>
      <trkpt lat="42.23185" lon="0.78639">
        <ele>1040.61</ele>
        <time>2021-08-01T15:11:00Z</time>
      </trkpt>
      <trkpt lat="42.23166" lon="0.78681">
        <ele>1038.03</ele>
        <time>2021-08-01T15:11:04Z</time>
      </trkpt>
      <trkpt lat="42.23125" lon="0.78711">
        <ele>1034.11</ele>
        <time>2021-08-01T15:11:10Z</time>
      </trkpt>
      <trkpt lat="42.23116" lon="0.7876">
        <ele>1031.11</ele>
        <time>2021-08-01T15:11:15Z</time>
      </trkpt>
      <trkpt lat="42.23129" lon="0.78818">
        <ele>1026.46</ele>
        <time>2021-08-01T15:11:22Z</time>
      </trkpt>
      <trkpt lat="42.23113" lon="0.78853">
        <ele>1022.83</ele>
        <time>2021-08-01T15:11:28Z</time>
      </trkpt>
      <trkpt lat="42.23083" lon="0.78871">
        <ele>1020.11</ele>
        <time>2021-08-01T15:11:33Z</time>
      </trkpt>
      <trkpt lat="42.2308" lon="0.78899">
        <ele>1017.42</ele>
        <time>2021-08-01T15:11:38Z</time>
      </trkpt>
      <trkpt lat="42.23096" lon="0.78931">
        <ele>1015.45</ele>
        <time>2021-08-01T15:11:42Z</time>
      </trkpt>
      <trkpt lat="42.23138" lon="0.78985">
        <ele>1011.54</ele>
        <time>2021-08-01T15:11:49Z</time>
      </trkpt>
      <trkpt lat="42.23174" lon="0.79022">
        <ele>1008.23</ele>
        <time>2021-08-01T15:11:54Z</time>
      </trkpt>
      <trkpt lat="42.2321" lon="0.79058">
        <ele>1004.69</ele>
        <time>2021-08-01T15:11:59Z</time>
      </trkpt>
      <trkpt lat="42.2325" lon="0.79083">
        <ele>1001.02</ele>
        <time>2021-08-01T15:12:04Z</time>
      </trkpt>
      <trkpt lat="42.23281" lon="0.79099">
        <ele>998.14</ele>
        <time>2021-08-01T15:12:08Z</time>
      </trkpt>
      <trkpt lat="42.23307" lon="0.79139">
        <ele>993.88</ele>
        <time>2021-08-01T15:12:14Z</time>
      </trkpt>
      <trkpt lat="42.23305" lon="0.79158">
        <ele>992.5</ele>
        <time>2021-08-01T15:12:16Z</time>
      </trkpt>
      <trkpt lat="42.23306" lon="0.79216">
        <ele>988.96</ele>
        <time>2021-08-01T15:12:22Z</time>
      </trkpt>
      <trkpt lat="42.23305" lon="0.79247">
        <ele>987.12</ele>
        <time>2021-08-01T15:12:25Z</time>
      </trkpt>
      <trkpt lat="42.23284" lon="0.79299">
        <ele>983.52</ele>
        <time>2021-08-01T15:12:31Z</time>
      </trkpt>
      <trkpt lat="42.23264" lon="0.7931">
        <ele>981.57</ele>
        <time>2021-08-01T15:12:34Z</time>
      </trkpt>
      <trkpt lat="42.23228" lon="0.79329">
        <ele>978.72</ele>
        <time>2021-08-01T15:12:39Z</time>
      </trkpt>
      <trkpt lat="42.23176" lon="0.79333">
        <ele>974.98</ele>
        <time>2021-08-01T15:12:45Z</time>
      </trkpt>
      <trkpt lat="42.23155" lon="0.79334">
        <ele>970.29</ele>
        <time>2021-08-01T15:12:52Z</time>
      </trkpt>
      <trkpt lat="42.23118" lon="0.79347">
        <ele>967.14</ele>
        <time>2021-08-01T15:12:59Z</time>
      </trkpt>
      <trkpt lat="42.23093" lon="0.79354">
        <ele>965.57</ele>
        <time>2021-08-01T15:13:03Z</time>
      </trkpt>
      <trkpt lat="42.23092" lon="0.79383">
        <ele>962.74</ele>
        <time>2021-08-01T15:13:09Z</time>
      </trkpt>
      <trkpt lat="42.231" lon="0.79388">
        <ele>962.25</ele>
        <time>2021-08-01T15:13:10Z</time>
      </trkpt>
      <trkpt lat="42.23134" lon="0.79424">
        <ele>959.72</ele>
        <time>2021-08-01T15:13:16Z</time>
      </trkpt>
      <trkpt lat="42.23138" lon="0.79438">
        <ele>957.92</ele>
        <time>2021-08-01T15:13:19Z</time>
      </trkpt>
      <trkpt lat="42.23118" lon="0.79498">
        <ele>955.06</ele>
        <time>2021-08-01T15:13:26Z</time>
      </trkpt>
      <trkpt lat="42.2311" lon="0.7952">
        <ele>954.19</ele>
        <time>2021-08-01T15:13:28Z</time>
      </trkpt>
      <trkpt lat="42.23105" lon="0.79542">
        <ele>953.3</ele>
        <time>2021-08-01T15:13:30Z</time>
      </trkpt>
      <trkpt lat="42.23088" lon="0.79575">
        <ele>950.38</ele>
        <time>2021-08-01T15:13:34Z</time>
      </trkpt>
      <trkpt lat="42.23084" lon="0.79602">
        <ele>947.08</ele>
        <time>2021-08-01T15:13:43Z</time>
      </trkpt>
      <trkpt lat="42.23088" lon="0.79598">
        <ele>946.97</ele>
        <time>2021-08-01T15:13:44Z</time>
      </trkpt>
      <trkpt lat="42.23129" lon="0.7956">
        <ele>946.45</ele>
        <time>2021-08-01T15:13:51Z</time>
      </trkpt>
      <trkpt lat="42.23152" lon="0.79548">
        <ele>947.16</ele>
        <time>2021-08-01T15:13:55Z</time>
      </trkpt>
      <trkpt lat="42.23184" lon="0.7954">
        <ele>948.36</ele>
        <time>2021-08-01T15:13:59Z</time>
      </trkpt>
      <trkpt lat="42.23257" lon="0.79538">
        <ele>950.46</ele>
        <time>2021-08-01T15:14:08Z</time>
      </trkpt>
      <trkpt lat="42.23326" lon="0.79561">
        <ele>953.06</ele>
        <time>2021-08-01T15:14:17Z</time>
      </trkpt>
      <trkpt lat="42.23341" lon="0.79584">
        <ele>954.14</ele>
        <time>2021-08-01T15:14:21Z</time>
      </trkpt>
      <trkpt lat="42.2336" lon="0.796">
        <ele>955.06</ele>
        <time>2021-08-01T15:14:27Z</time>
      </trkpt>
      <trkpt lat="42.23387" lon="0.79576">
        <ele>955.91</ele>
        <time>2021-08-01T15:14:33Z</time>
      </trkpt>
      <trkpt lat="42.23405" lon="0.79588">
        <ele>956.36</ele>
        <time>2021-08-01T15:14:39Z</time>
      </trkpt>
      <trkpt lat="42.23403" lon="0.79653">
        <ele>956.35</ele>
        <time>2021-08-01T15:14:45Z</time>
      </trkpt>
      <trkpt lat="42.23416" lon="0.79809">
        <ele>954.34</ele>
        <time>2021-08-01T15:14:56Z</time>
      </trkpt>
      <trkpt lat="42.23422" lon="0.79849">
        <ele>953.38</ele>
        <time>2021-08-01T15:14:59Z</time>
      </trkpt>
      <trkpt lat="42.23452" lon="0.79892">
        <ele>950.78</ele>
        <time>2021-08-01T15:15:04Z</time>
      </trkpt>
      <trkpt lat="42.23474" lon="0.79908">
        <ele>948.85</ele>
        <time>2021-08-01T15:15:07Z</time>
      </trkpt>
      <trkpt lat="42.2349" lon="0.79898">
        <ele>946.54</ele>
        <time>2021-08-01T15:15:10Z</time>
      </trkpt>
      <trkpt lat="42.23491" lon="0.79891">
        <ele>946.05</ele>
        <time>2021-08-01T15:15:11Z</time>
      </trkpt>
      <trkpt lat="42.2349" lon="0.79882">
        <ele>945.58</ele>
        <time>2021-08-01T15:15:12Z</time>
      </trkpt>
      <trkpt lat="42.23489" lon="0.79872">
        <ele>945.18</ele>
        <time>2021-08-01T15:15:13Z</time>
      </trkpt>
      <trkpt lat="42.23487" lon="0.79862">
        <ele>944.88</ele>
        <time>2021-08-01T15:15:14Z</time>
      </trkpt>
      <trkpt lat="42.23485" lon="0.79841">
        <ele>944.48</ele>
        <time>2021-08-01T15:15:16Z</time>
      </trkpt>
      <trkpt lat="42.23487" lon="0.7983">
        <ele>944.27</ele>
        <time>2021-08-01T15:15:17Z</time>
      </trkpt>
      <trkpt lat="42.2349" lon="0.79819">
        <ele>943.98</ele>
        <time>2021-08-01T15:15:18Z</time>
      </trkpt>
      <trkpt lat="42.23501" lon="0.79789">
        <ele>942.96</ele>
        <time>2021-08-01T15:15:21Z</time>
      </trkpt>
      <trkpt lat="42.23506" lon="0.79783">
        <ele>942.53</ele>
        <time>2021-08-01T15:15:22Z</time>
      </trkpt>
      <trkpt lat="42.23511" lon="0.79771">
        <ele>941.51</ele>
        <time>2021-08-01T15:15:24Z</time>
      </trkpt>
      <trkpt lat="42.23506" lon="0.79695">
        <ele>938.26</ele>
        <time>2021-08-01T15:15:32Z</time>
      </trkpt>
      <trkpt lat="42.23506" lon="0.79618">
        <ele>935.98</ele>
        <time>2021-08-01T15:15:38Z</time>
      </trkpt>
      <trkpt lat="42.23536" lon="0.79566">
        <ele>932.93</ele>
        <time>2021-08-01T15:15:45Z</time>
      </trkpt>
      <trkpt lat="42.23544" lon="0.79524">
        <ele>930.42</ele>
        <time>2021-08-01T15:15:50Z</time>
      </trkpt>
      <trkpt lat="42.23537" lon="0.79473">
        <ele>927.9</ele>
        <time>2021-08-01T15:15:57Z</time>
      </trkpt>
      <trkpt lat="42.23547" lon="0.794">
        <ele>926.8</ele>
        <time>2021-08-01T15:16:03Z</time>
      </trkpt>
      <trkpt lat="42.2355" lon="0.79361">
        <ele>926.29</ele>
        <time>2021-08-01T15:16:06Z</time>
      </trkpt>
      <trkpt lat="42.2355" lon="0.79337">
        <ele>925.72</ele>
        <time>2021-08-01T15:16:08Z</time>
      </trkpt>
      <trkpt lat="42.23569" lon="0.79259">
        <ele>924.79</ele>
        <time>2021-08-01T15:16:15Z</time>
      </trkpt>
      <trkpt lat="42.23592" lon="0.79238">
        <ele>924.66</ele>
        <time>2021-08-01T15:16:19Z</time>
      </trkpt>
      <trkpt lat="42.23657" lon="0.79221">
        <ele>923.95</ele>
        <time>2021-08-01T15:16:26Z</time>
      </trkpt>
      <trkpt lat="42.237" lon="0.79196">
        <ele>921.75</ele>
        <time>2021-08-01T15:16:33Z</time>
      </trkpt>
      <trkpt lat="42.2376" lon="0.7908">
        <ele>918.32</ele>
        <time>2021-08-01T15:16:46Z</time>
      </trkpt>
      <trkpt lat="42.23769" lon="0.79068">
        <ele>917.28</ele>
        <time>2021-08-01T15:16:48Z</time>
      </trkpt>
      <trkpt lat="42.23784" lon="0.79059">
        <ele>916.24</ele>
        <time>2021-08-01T15:16:52Z</time>
      </trkpt>
      <trkpt lat="42.2381" lon="0.7906">
        <ele>913.48</ele>
        <time>2021-08-01T15:17:01Z</time>
      </trkpt>
      <trkpt lat="42.23853" lon="0.79093">
        <ele>910.34</ele>
        <time>2021-08-01T15:17:13Z</time>
      </trkpt>
      <trkpt lat="42.23871" lon="0.79101">
        <ele>907.99</ele>
        <time>2021-08-01T15:17:25Z</time>
      </trkpt>
      <trkpt lat="42.2389" lon="0.79104">
        <ele>906.51</ele>
        <time>2021-08-01T15:17:32Z</time>
      </trkpt>
      <trkpt lat="42.23889" lon="0.79064">
        <ele>904.43</ele>
        <time>2021-08-01T15:17:44Z</time>
      </trkpt>
      <trkpt lat="42.23885" lon="0.78988">
        <ele>903.07</ele>
        <time>2021-08-01T15:17:53Z</time>
      </trkpt>
      <trkpt lat="42.23885" lon="0.7897">
        <ele>902.39</ele>
        <time>2021-08-01T15:17:55Z</time>
      </trkpt>
      <trkpt lat="42.23906" lon="0.78918">
        <ele>899.91</ele>
        <time>2021-08-01T15:18:02Z</time>
      </trkpt>
      <trkpt lat="42.23999" lon="0.78831">
        <ele>899.93</ele>
        <time>2021-08-01T15:18:17Z</time>
      </trkpt>
      <trkpt lat="42.24057" lon="0.78764">
        <ele>902.53</ele>
        <time>2021-08-01T15:18:30Z</time>
      </trkpt>
      <trkpt lat="42.24071" lon="0.78755">
        <ele>904.03</ele>
        <time>2021-08-01T15:18:35Z</time>
      </trkpt>
      <trkpt lat="42.24098" lon="0.78752">
        <ele>905.3</ele>
        <time>2021-08-01T15:18:41Z</time>
      </trkpt>
      <trkpt lat="42.24128" lon="0.78723">
        <ele>905.82</ele>
        <time>2021-08-01T15:18:48Z</time>
      </trkpt>
      <trkpt lat="42.24142" lon="0.78708">
        <ele>906.03</ele>
        <time>2021-08-01T15:18:51Z</time>
      </trkpt>
      <trkpt lat="42.24161" lon="0.78713">
        <ele>906.43</ele>
        <time>2021-08-01T15:18:56Z</time>
      </trkpt>
      <trkpt lat="42.24172" lon="0.78729">
        <ele>906.69</ele>
        <time>2021-08-01T15:18:59Z</time>
      </trkpt>
      <trkpt lat="42.24192" lon="0.78729">
        <ele>906.34</ele>
        <time>2021-08-01T15:19:04Z</time>
      </trkpt>
      <trkpt lat="42.24218" lon="0.78722">
        <ele>905.54</ele>
        <time>2021-08-01T15:19:10Z</time>
      </trkpt>
      <trkpt lat="42.24228" lon="0.78724">
        <ele>905.41</ele>
        <time>2021-08-01T15:19:12Z</time>
      </trkpt>
      <trkpt lat="42.24264" lon="0.78718">
        <ele>905.27</ele>
        <time>2021-08-01T15:19:19Z</time>
      </trkpt>
      <trkpt lat="42.24296" lon="0.78693">
        <ele>903.98</ele>
        <time>2021-08-01T15:19:26Z</time>
      </trkpt>
      <trkpt lat="42.24303" lon="0.78682">
        <ele>903.22</ele>
        <time>2021-08-01T15:19:28Z</time>
      </trkpt>
      <trkpt lat="42.24339" lon="0.78645">
        <ele>899.58</ele>
        <time>2021-08-01T15:19:38Z</time>
      </trkpt>
      <trkpt lat="42.24354" lon="0.78658">
        <ele>897.7</ele>
        <time>2021-08-01T15:19:43Z</time>
      </trkpt>
      <trkpt lat="42.24359" lon="0.78671">
        <ele>897.28</ele>
        <time>2021-08-01T15:19:45Z</time>
      </trkpt>
      <trkpt lat="42.24386" lon="0.78725">
        <ele>894.86</ele>
        <time>2021-08-01T15:19:53Z</time>
      </trkpt>
      <trkpt lat="42.2442" lon="0.78763">
        <ele>891.29</ele>
        <time>2021-08-01T15:20:00Z</time>
      </trkpt>
      <trkpt lat="42.24423" lon="0.78767">
        <ele>890.86</ele>
        <time>2021-08-01T15:20:01Z</time>
      </trkpt>
      <trkpt lat="42.24432" lon="0.78757">
        <ele>888.31</ele>
        <time>2021-08-01T15:20:07Z</time>
      </trkpt>
      <trkpt lat="42.24428" lon="0.78752">
        <ele>887.49</ele>
        <time>2021-08-01T15:20:08Z</time>
      </trkpt>
      <trkpt lat="42.24413" lon="0.78731">
        <ele>886.5</ele>
        <time>2021-08-01T15:20:11Z</time>
      </trkpt>
      <trkpt lat="42.2439" lon="0.78653">
        <ele>883.87</ele>
        <time>2021-08-01T15:20:18Z</time>
      </trkpt>
      <trkpt lat="42.24404" lon="0.78601">
        <ele>881.85</ele>
        <time>2021-08-01T15:20:23Z</time>
      </trkpt>
      <trkpt lat="42.24434" lon="0.78526">
        <ele>878.82</ele>
        <time>2021-08-01T15:20:30Z</time>
      </trkpt>
      <trkpt lat="42.24428" lon="0.78463">
        <ele>874.86</ele>
        <time>2021-08-01T15:20:36Z</time>
      </trkpt>
      <trkpt lat="42.2438" lon="0.78445">
        <ele>872.15</ele>
        <time>2021-08-01T15:20:42Z</time>
      </trkpt>
      <trkpt lat="42.24369" lon="0.78446">
        <ele>871.6</ele>
        <time>2021-08-01T15:20:43Z</time>
      </trkpt>
      <trkpt lat="42.24348" lon="0.7845">
        <ele>870.27</ele>
        <time>2021-08-01T15:20:45Z</time>
      </trkpt>
      <trkpt lat="42.24329" lon="0.78449">
        <ele>869.09</ele>
        <time>2021-08-01T15:20:47Z</time>
      </trkpt>
      <trkpt lat="42.24297" lon="0.78464">
        <ele>866.69</ele>
        <time>2021-08-01T15:20:51Z</time>
      </trkpt>
      <trkpt lat="42.24271" lon="0.78488">
        <ele>865.22</ele>
        <time>2021-08-01T15:20:54Z</time>
      </trkpt>
      <trkpt lat="42.2425" lon="0.78527">
        <ele>862.58</ele>
        <time>2021-08-01T15:20:58Z</time>
      </trkpt>
      <trkpt lat="42.24221" lon="0.7857">
        <ele>859.45</ele>
        <time>2021-08-01T15:21:03Z</time>
      </trkpt>
      <trkpt lat="42.24206" lon="0.78566">
        <ele>855.08</ele>
        <time>2021-08-01T15:21:10Z</time>
      </trkpt>
      <trkpt lat="42.24218" lon="0.78541">
        <ele>853.66</ele>
        <time>2021-08-01T15:21:13Z</time>
      </trkpt>
      <trkpt lat="42.24236" lon="0.78484">
        <ele>851.78</ele>
        <time>2021-08-01T15:21:18Z</time>
      </trkpt>
      <trkpt lat="42.24264" lon="0.78397">
        <ele>848.03</ele>
        <time>2021-08-01T15:21:26Z</time>
      </trkpt>
      <trkpt lat="42.24297" lon="0.78352">
        <ele>845.26</ele>
        <time>2021-08-01T15:21:31Z</time>
      </trkpt>
      <trkpt lat="42.2431" lon="0.78328">
        <ele>844.24</ele>
        <time>2021-08-01T15:21:33Z</time>
      </trkpt>
      <trkpt lat="42.24329" lon="0.78223">
        <ele>840.24</ele>
        <time>2021-08-01T15:21:40Z</time>
      </trkpt>
      <trkpt lat="42.24327" lon="0.78211">
        <ele>839.52</ele>
        <time>2021-08-01T15:21:41Z</time>
      </trkpt>
      <trkpt lat="42.24336" lon="0.78168">
        <ele>834.41</ele>
        <time>2021-08-01T15:21:47Z</time>
      </trkpt>
      <trkpt lat="42.24353" lon="0.78169">
        <ele>831.53</ele>
        <time>2021-08-01T15:21:51Z</time>
      </trkpt>
      <trkpt lat="42.24381" lon="0.78171">
        <ele>828.35</ele>
        <time>2021-08-01T15:21:58Z</time>
      </trkpt>
      <trkpt lat="42.24403" lon="0.78128">
        <ele>826.03</ele>
        <time>2021-08-01T15:22:06Z</time>
      </trkpt>
      <trkpt lat="42.24406" lon="0.78097">
        <ele>825.16</ele>
        <time>2021-08-01T15:22:10Z</time>
      </trkpt>
      <trkpt lat="42.24424" lon="0.78065">
        <ele>824.39</ele>
        <time>2021-08-01T15:22:15Z</time>
      </trkpt>
      <trkpt lat="42.2446" lon="0.78047">
        <ele>821.03</ele>
        <time>2021-08-01T15:22:24Z</time>
      </trkpt>
      <trkpt lat="42.24469" lon="0.78063">
        <ele>820.48</ele>
        <time>2021-08-01T15:22:26Z</time>
      </trkpt>
      <trkpt lat="42.24486" lon="0.78104">
        <ele>819.49</ele>
        <time>2021-08-01T15:22:30Z</time>
      </trkpt>
      <trkpt lat="42.24504" lon="0.7812">
        <ele>818.23</ele>
        <time>2021-08-01T15:22:34Z</time>
      </trkpt>
      <trkpt lat="42.24529" lon="0.78121">
        <ele>816.92</ele>
        <time>2021-08-01T15:22:37Z</time>
      </trkpt>
      <trkpt lat="42.2456" lon="0.78104">
        <ele>814.75</ele>
        <time>2021-08-01T15:22:41Z</time>
      </trkpt>
      <trkpt lat="42.24595" lon="0.78066">
        <ele>811</ele>
        <time>2021-08-01T15:22:46Z</time>
      </trkpt>
      <trkpt lat="42.24607" lon="0.78006">
        <ele>806.99</ele>
        <time>2021-08-01T15:22:52Z</time>
      </trkpt>
      <trkpt lat="42.24602" lon="0.77996">
        <ele>806.26</ele>
        <time>2021-08-01T15:22:53Z</time>
      </trkpt>
      <trkpt lat="42.24582" lon="0.77953">
        <ele>803.56</ele>
        <time>2021-08-01T15:22:57Z</time>
      </trkpt>
      <trkpt lat="42.24541" lon="0.77931">
        <ele>799.22</ele>
        <time>2021-08-01T15:23:03Z</time>
      </trkpt>
      <trkpt lat="42.24537" lon="0.7791">
        <ele>796.25</ele>
        <time>2021-08-01T15:23:07Z</time>
      </trkpt>
      <trkpt lat="42.24577" lon="0.7791">
        <ele>792.85</ele>
        <time>2021-08-01T15:23:13Z</time>
      </trkpt>
      <trkpt lat="42.24602" lon="0.77916">
        <ele>789.46</ele>
        <time>2021-08-01T15:23:19Z</time>
      </trkpt>
      <trkpt lat="42.24612" lon="0.77901">
        <ele>788.62</ele>
        <time>2021-08-01T15:23:21Z</time>
      </trkpt>
      <trkpt lat="42.2461" lon="0.77868">
        <ele>784.88</ele>
        <time>2021-08-01T15:23:28Z</time>
      </trkpt>
      <trkpt lat="42.24579" lon="0.77864">
        <ele>781.66</ele>
        <time>2021-08-01T15:23:33Z</time>
      </trkpt>
      <trkpt lat="42.24587" lon="0.77853">
        <ele>779.4</ele>
        <time>2021-08-01T15:23:36Z</time>
      </trkpt>
      <trkpt lat="42.24595" lon="0.77848">
        <ele>777.94</ele>
        <time>2021-08-01T15:23:38Z</time>
      </trkpt>
      <trkpt lat="42.24596" lon="0.77824">
        <ele>774.51</ele>
        <time>2021-08-01T15:23:44Z</time>
      </trkpt>
      <trkpt lat="42.24605" lon="0.77809">
        <ele>770.94</ele>
        <time>2021-08-01T15:23:50Z</time>
      </trkpt>
      <trkpt lat="42.2461" lon="0.77813">
        <ele>770.26</ele>
        <time>2021-08-01T15:23:51Z</time>
      </trkpt>
      <trkpt lat="42.24621" lon="0.77823">
        <ele>769.25</ele>
        <time>2021-08-01T15:23:53Z</time>
      </trkpt>
      <trkpt lat="42.24644" lon="0.77821">
        <ele>767.6</ele>
        <time>2021-08-01T15:23:57Z</time>
      </trkpt>
      <trkpt lat="42.24691" lon="0.77843">
        <ele>765.51</ele>
        <time>2021-08-01T15:24:04Z</time>
      </trkpt>
      <trkpt lat="42.24722" lon="0.77885">
        <ele>764.75</ele>
        <time>2021-08-01T15:24:08Z</time>
      </trkpt>
      <trkpt lat="42.24751" lon="0.77885">
        <ele>762.66</ele>
        <time>2021-08-01T15:24:14Z</time>
      </trkpt>
      <trkpt lat="42.24744" lon="0.77871">
        <ele>761.67</ele>
        <time>2021-08-01T15:24:16Z</time>
      </trkpt>
      <trkpt lat="42.24719" lon="0.77806">
        <ele>758.5</ele>
        <time>2021-08-01T15:24:22Z</time>
      </trkpt>
      <trkpt lat="42.24694" lon="0.77775">
        <ele>754.82</ele>
        <time>2021-08-01T15:24:27Z</time>
      </trkpt>
      <trkpt lat="42.24675" lon="0.77761">
        <ele>751.96</ele>
        <time>2021-08-01T15:24:31Z</time>
      </trkpt>
      <trkpt lat="42.24646" lon="0.77665">
        <ele>747.15</ele>
        <time>2021-08-01T15:24:39Z</time>
      </trkpt>
      <trkpt lat="42.24621" lon="0.77603">
        <ele>743.88</ele>
        <time>2021-08-01T15:24:44Z</time>
      </trkpt>
      <trkpt lat="42.24611" lon="0.77545">
        <ele>739.68</ele>
        <time>2021-08-01T15:24:49Z</time>
      </trkpt>
      <trkpt lat="42.24607" lon="0.77524">
        <ele>738.3</ele>
        <time>2021-08-01T15:24:51Z</time>
      </trkpt>
      <trkpt lat="42.24631" lon="0.7752">
        <ele>733.89</ele>
        <time>2021-08-01T15:24:56Z</time>
      </trkpt>
      <trkpt lat="42.24653" lon="0.7752">
        <ele>730.53</ele>
        <time>2021-08-01T15:25:00Z</time>
      </trkpt>
      <trkpt lat="42.24658" lon="0.77485">
        <ele>727.18</ele>
        <time>2021-08-01T15:25:05Z</time>
      </trkpt>
      <trkpt lat="42.2463" lon="0.77464">
        <ele>724.46</ele>
        <time>2021-08-01T15:25:10Z</time>
      </trkpt>
      <trkpt lat="42.24614" lon="0.77408">
        <ele>721.3</ele>
        <time>2021-08-01T15:25:15Z</time>
      </trkpt>
      <trkpt lat="42.24583" lon="0.77337">
        <ele>718.2</ele>
        <time>2021-08-01T15:25:20Z</time>
      </trkpt>
      <trkpt lat="42.24564" lon="0.77271">
        <ele>714</ele>
        <time>2021-08-01T15:25:25Z</time>
      </trkpt>
      <trkpt lat="42.2454" lon="0.77258">
        <ele>711.37</ele>
        <time>2021-08-01T15:25:28Z</time>
      </trkpt>
      <trkpt lat="42.24534" lon="0.77255">
        <ele>707.32</ele>
        <time>2021-08-01T15:25:34Z</time>
      </trkpt>
      <trkpt lat="42.24534" lon="0.77254">
        <ele>704.28</ele>
        <time>2021-08-01T15:25:50Z</time>
      </trkpt>
      <trkpt lat="42.24534" lon="0.77254">
        <ele>703.82</ele>
        <time>2021-08-01T15:28:12Z</time>
      </trkpt>
      <trkpt lat="42.24536" lon="0.77202">
        <ele>703.83</ele>
        <time>2021-08-01T15:28:20Z</time>
      </trkpt>
      <trkpt lat="42.24542" lon="0.77194">
        <ele>703.83</ele>
        <time>2021-08-01T15:28:21Z</time>
      </trkpt>
      <trkpt lat="42.24552" lon="0.77178">
        <ele>703.59</ele>
        <time>2021-08-01T15:28:23Z</time>
      </trkpt>
      <trkpt lat="42.24551" lon="0.77141">
        <ele>703.03</ele>
        <time>2021-08-01T15:28:27Z</time>
      </trkpt>
      <trkpt lat="42.24537" lon="0.77077">
        <ele>702.29</ele>
        <time>2021-08-01T15:28:32Z</time>
      </trkpt>
      <trkpt lat="42.24496" lon="0.76987">
        <ele>700.3</ele>
        <time>2021-08-01T15:28:41Z</time>
      </trkpt>
      <trkpt lat="42.24492" lon="0.76979">
        <ele>700.01</ele>
        <time>2021-08-01T15:28:42Z</time>
      </trkpt>
      <trkpt lat="42.24482" lon="0.76942">
        <ele>698.82</ele>
        <time>2021-08-01T15:28:46Z</time>
      </trkpt>
      <trkpt lat="42.24477" lon="0.76866">
        <ele>695.75</ele>
        <time>2021-08-01T15:28:54Z</time>
      </trkpt>
      <trkpt lat="42.24486" lon="0.76845">
        <ele>694.69</ele>
        <time>2021-08-01T15:28:56Z</time>
      </trkpt>
      <trkpt lat="42.24509" lon="0.76808">
        <ele>692.93</ele>
        <time>2021-08-01T15:29:00Z</time>
      </trkpt>
      <trkpt lat="42.24541" lon="0.76769">
        <ele>692.18</ele>
        <time>2021-08-01T15:29:04Z</time>
      </trkpt>
      <trkpt lat="42.24563" lon="0.76701">
        <ele>691.6</ele>
        <time>2021-08-01T15:29:10Z</time>
      </trkpt>
      <trkpt lat="42.24599" lon="0.76593">
        <ele>690.21</ele>
        <time>2021-08-01T15:29:22Z</time>
      </trkpt>
      <trkpt lat="42.24609" lon="0.76573">
        <ele>690.02</ele>
        <time>2021-08-01T15:29:24Z</time>
      </trkpt>
      <trkpt lat="42.24612" lon="0.76562">
        <ele>689.98</ele>
        <time>2021-08-01T15:29:25Z</time>
      </trkpt>
      <trkpt lat="42.24615" lon="0.76551">
        <ele>689.96</ele>
        <time>2021-08-01T15:29:26Z</time>
      </trkpt>
      <trkpt lat="42.24618" lon="0.7654">
        <ele>689.96</ele>
        <time>2021-08-01T15:29:27Z</time>
      </trkpt>
      <trkpt lat="42.24622" lon="0.76531">
        <ele>689.96</ele>
        <time>2021-08-01T15:29:28Z</time>
      </trkpt>
      <trkpt lat="42.24627" lon="0.76523">
        <ele>690.04</ele>
        <time>2021-08-01T15:29:29Z</time>
      </trkpt>
      <trkpt lat="42.24634" lon="0.76516">
        <ele>690.11</ele>
        <time>2021-08-01T15:29:30Z</time>
      </trkpt>
      <trkpt lat="42.24641" lon="0.76511">
        <ele>690.18</ele>
        <time>2021-08-01T15:29:31Z</time>
      </trkpt>
      <trkpt lat="42.24648" lon="0.76506">
        <ele>690.28</ele>
        <time>2021-08-01T15:29:32Z</time>
      </trkpt>
      <trkpt lat="42.24655" lon="0.765">
        <ele>690.39</ele>
        <time>2021-08-01T15:29:33Z</time>
      </trkpt>
      <trkpt lat="42.24661" lon="0.76492">
        <ele>690.49</ele>
        <time>2021-08-01T15:29:34Z</time>
      </trkpt>
      <trkpt lat="42.24674" lon="0.76475">
        <ele>690.58</ele>
        <time>2021-08-01T15:29:36Z</time>
      </trkpt>
      <trkpt lat="42.24703" lon="0.76445">
        <ele>690.56</ele>
        <time>2021-08-01T15:29:40Z</time>
      </trkpt>
      <trkpt lat="42.24725" lon="0.76383">
        <ele>688.84</ele>
        <time>2021-08-01T15:29:46Z</time>
      </trkpt>
      <trkpt lat="42.24794" lon="0.7626">
        <ele>684.97</ele>
        <time>2021-08-01T15:29:57Z</time>
      </trkpt>
      <trkpt lat="42.24844" lon="0.7614">
        <ele>682.54</ele>
        <time>2021-08-01T15:30:06Z</time>
      </trkpt>
      <trkpt lat="42.24859" lon="0.76101">
        <ele>680.94</ele>
        <time>2021-08-01T15:30:09Z</time>
      </trkpt>
      <trkpt lat="42.24876" lon="0.76063">
        <ele>679.03</ele>
        <time>2021-08-01T15:30:12Z</time>
      </trkpt>
      <trkpt lat="42.24901" lon="0.75977">
        <ele>674.98</ele>
        <time>2021-08-01T15:30:18Z</time>
      </trkpt>
      <trkpt lat="42.24916" lon="0.75883">
        <ele>671.94</ele>
        <time>2021-08-01T15:30:24Z</time>
      </trkpt>
      <trkpt lat="42.24925" lon="0.75761">
        <ele>670.14</ele>
        <time>2021-08-01T15:30:31Z</time>
      </trkpt>
      <trkpt lat="42.24913" lon="0.75627">
        <ele>666.59</ele>
        <time>2021-08-01T15:30:39Z</time>
      </trkpt>
      <trkpt lat="42.24914" lon="0.75578">
        <ele>665</ele>
        <time>2021-08-01T15:30:42Z</time>
      </trkpt>
      <trkpt lat="42.24936" lon="0.7552">
        <ele>664.4</ele>
        <time>2021-08-01T15:30:47Z</time>
      </trkpt>
      <trkpt lat="42.24997" lon="0.75438">
        <ele>666.32</ele>
        <time>2021-08-01T15:30:54Z</time>
      </trkpt>
      <trkpt lat="42.25011" lon="0.75412">
        <ele>667.4</ele>
        <time>2021-08-01T15:30:56Z</time>
      </trkpt>
      <trkpt lat="42.25058" lon="0.75352">
        <ele>669.49</ele>
        <time>2021-08-01T15:31:02Z</time>
      </trkpt>
      <trkpt lat="42.25073" lon="0.75283">
        <ele>669.35</ele>
        <time>2021-08-01T15:31:08Z</time>
      </trkpt>
      <trkpt lat="42.25078" lon="0.75182">
        <ele>666.08</ele>
        <time>2021-08-01T15:31:17Z</time>
      </trkpt>
      <trkpt lat="42.25082" lon="0.75157">
        <ele>665.02</ele>
        <time>2021-08-01T15:31:19Z</time>
      </trkpt>
      <trkpt lat="42.25079" lon="0.75093">
        <ele>662.85</ele>
        <time>2021-08-01T15:31:23Z</time>
      </trkpt>
      <trkpt lat="42.251" lon="0.74998">
        <ele>658.84</ele>
        <time>2021-08-01T15:31:30Z</time>
      </trkpt>
      <trkpt lat="42.25139" lon="0.74991">
        <ele>656.05</ele>
        <time>2021-08-01T15:31:34Z</time>
      </trkpt>
      <trkpt lat="42.25167" lon="0.75016">
        <ele>652.22</ele>
        <time>2021-08-01T15:31:38Z</time>
      </trkpt>
      <trkpt lat="42.25173" lon="0.75017">
        <ele>652.22</ele>
        <time>2021-08-01T15:31:39Z</time>
      </trkpt>
      <trkpt lat="42.25181" lon="0.7499">
        <ele>648.99</ele>
        <time>2021-08-01T15:31:43Z</time>
      </trkpt>
      <trkpt lat="42.25177" lon="0.7498">
        <ele>648.62</ele>
        <time>2021-08-01T15:31:44Z</time>
      </trkpt>
      <trkpt lat="42.25135" lon="0.74887">
        <ele>647.74</ele>
        <time>2021-08-01T15:31:52Z</time>
      </trkpt>
      <trkpt lat="42.25141" lon="0.74836">
        <ele>647.88</ele>
        <time>2021-08-01T15:31:57Z</time>
      </trkpt>
      <trkpt lat="42.25129" lon="0.74778">
        <ele>646.51</ele>
        <time>2021-08-01T15:32:04Z</time>
      </trkpt>
      <trkpt lat="42.25122" lon="0.74771">
        <ele>646.3</ele>
        <time>2021-08-01T15:32:05Z</time>
      </trkpt>
      <trkpt lat="42.25124" lon="0.74732">
        <ele>645.98</ele>
        <time>2021-08-01T15:32:09Z</time>
      </trkpt>
      <trkpt lat="42.25182" lon="0.74632">
        <ele>647.33</ele>
        <time>2021-08-01T15:32:17Z</time>
      </trkpt>
      <trkpt lat="42.25207" lon="0.7459">
        <ele>648.26</ele>
        <time>2021-08-01T15:32:20Z</time>
      </trkpt>
      <trkpt lat="42.25217" lon="0.74495">
        <ele>650.91</ele>
        <time>2021-08-01T15:32:27Z</time>
      </trkpt>
      <trkpt lat="42.2522" lon="0.74459">
        <ele>651.31</ele>
        <time>2021-08-01T15:32:30Z</time>
      </trkpt>
      <trkpt lat="42.2524" lon="0.74406">
        <ele>650.89</ele>
        <time>2021-08-01T15:32:35Z</time>
      </trkpt>
      <trkpt lat="42.25254" lon="0.74384">
        <ele>650.07</ele>
        <time>2021-08-01T15:32:37Z</time>
      </trkpt>
      <trkpt lat="42.25328" lon="0.74323">
        <ele>646.3</ele>
        <time>2021-08-01T15:32:44Z</time>
      </trkpt>
      <trkpt lat="42.25326" lon="0.74266">
        <ele>642.14</ele>
        <time>2021-08-01T15:32:49Z</time>
      </trkpt>
      <trkpt lat="42.25291" lon="0.74209">
        <ele>639.28</ele>
        <time>2021-08-01T15:32:53Z</time>
      </trkpt>
      <trkpt lat="42.2529" lon="0.74119">
        <ele>635.36</ele>
        <time>2021-08-01T15:32:59Z</time>
      </trkpt>
      <trkpt lat="42.2534" lon="0.74015">
        <ele>632.77</ele>
        <time>2021-08-01T15:33:06Z</time>
      </trkpt>
      <trkpt lat="42.25343" lon="0.73944">
        <ele>631.02</ele>
        <time>2021-08-01T15:33:11Z</time>
      </trkpt>
      <trkpt lat="42.25336" lon="0.73859">
        <ele>627.54</ele>
        <time>2021-08-01T15:33:17Z</time>
      </trkpt>
      <trkpt lat="42.25341" lon="0.73834">
        <ele>625.35</ele>
        <time>2021-08-01T15:33:19Z</time>
      </trkpt>
      <trkpt lat="42.25387" lon="0.73785">
        <ele>621.25</ele>
        <time>2021-08-01T15:33:25Z</time>
      </trkpt>
      <trkpt lat="42.25411" lon="0.7378">
        <ele>620.05</ele>
        <time>2021-08-01T15:33:27Z</time>
      </trkpt>
      <trkpt lat="42.25472" lon="0.73748">
        <ele>616.17</ele>
        <time>2021-08-01T15:33:33Z</time>
      </trkpt>
      <trkpt lat="42.2548" lon="0.73698">
        <ele>613.68</ele>
        <time>2021-08-01T15:33:37Z</time>
      </trkpt>
      <trkpt lat="42.25485" lon="0.73665">
        <ele>610.45</ele>
        <time>2021-08-01T15:33:42Z</time>
      </trkpt>
      <trkpt lat="42.25508" lon="0.73627">
        <ele>607</ele>
        <time>2021-08-01T15:33:50Z</time>
      </trkpt>
      <trkpt lat="42.25537" lon="0.73589">
        <ele>604.06</ele>
        <time>2021-08-01T15:33:58Z</time>
      </trkpt>
      <trkpt lat="42.25538" lon="0.73581">
        <ele>603.39</ele>
        <time>2021-08-01T15:34:00Z</time>
      </trkpt>
      <trkpt lat="42.25547" lon="0.73546">
        <ele>603.98</ele>
        <time>2021-08-01T15:34:13Z</time>
      </trkpt>
      <trkpt lat="42.2555" lon="0.73538">
        <ele>604.11</ele>
        <time>2021-08-01T15:34:15Z</time>
      </trkpt>
      <trkpt lat="42.25542" lon="0.73511">
        <ele>604.25</ele>
        <time>2021-08-01T15:34:20Z</time>
      </trkpt>
      <trkpt lat="42.25492" lon="0.73407">
        <ele>604.09</ele>
        <time>2021-08-01T15:34:29Z</time>
      </trkpt>
      <trkpt lat="42.25409" lon="0.73221">
        <ele>606.1</ele>
        <time>2021-08-01T15:34:41Z</time>
      </trkpt>
      <trkpt lat="42.2536" lon="0.73112">
        <ele>606.75</ele>
        <time>2021-08-01T15:34:50Z</time>
      </trkpt>
      <trkpt lat="42.25337" lon="0.7306">
        <ele>606.46</ele>
        <time>2021-08-01T15:34:55Z</time>
      </trkpt>
      <trkpt lat="42.25332" lon="0.7303">
        <ele>605.89</ele>
        <time>2021-08-01T15:35:02Z</time>
      </trkpt>
      <trkpt lat="42.25332" lon="0.7303">
        <ele>605.3</ele>
        <time>2021-08-01T15:40:07Z</time>
      </trkpt>
      <trkpt lat="42.25331" lon="0.7303">
        <ele>605.3</ele>
        <time>2021-08-01T15:40:45Z</time>
      </trkpt>
      <trkpt lat="42.25329" lon="0.73027">
        <ele>605.3</ele>
        <time>2021-08-01T15:40:46Z</time>
      </trkpt>
      <trkpt lat="42.25297" lon="0.72966">
        <ele>606</ele>
        <time>2021-08-01T15:40:53Z</time>
      </trkpt>
      <trkpt lat="42.25242" lon="0.72843">
        <ele>607.52</ele>
        <time>2021-08-01T15:41:00Z</time>
      </trkpt>
      <trkpt lat="42.25206" lon="0.72766">
        <ele>608.63</ele>
        <time>2021-08-01T15:41:04Z</time>
      </trkpt>
      <trkpt lat="42.25124" lon="0.72688">
        <ele>610.05</ele>
        <time>2021-08-01T15:41:10Z</time>
      </trkpt>
      <trkpt lat="42.24887" lon="0.72595">
        <ele>609.45</ele>
        <time>2021-08-01T15:41:22Z</time>
      </trkpt>
      <trkpt lat="42.24721" lon="0.72529">
        <ele>608.27</ele>
        <time>2021-08-01T15:41:31Z</time>
      </trkpt>
      <trkpt lat="42.2454" lon="0.72367">
        <ele>605.14</ele>
        <time>2021-08-01T15:41:43Z</time>
      </trkpt>
      <trkpt lat="42.24368" lon="0.72206">
        <ele>602.33</ele>
        <time>2021-08-01T15:41:53Z</time>
      </trkpt>
      <trkpt lat="42.2416" lon="0.72034">
        <ele>600.51</ele>
        <time>2021-08-01T15:42:04Z</time>
      </trkpt>
      <trkpt lat="42.23911" lon="0.71847">
        <ele>599.23</ele>
        <time>2021-08-01T15:42:17Z</time>
      </trkpt>
      <trkpt lat="42.23674" lon="0.71667">
        <ele>596.19</ele>
        <time>2021-08-01T15:42:30Z</time>
      </trkpt>
      <trkpt lat="42.23509" lon="0.71565">
        <ele>593.7</ele>
        <time>2021-08-01T15:42:39Z</time>
      </trkpt>
      <trkpt lat="42.23447" lon="0.71545">
        <ele>590.07</ele>
        <time>2021-08-01T15:42:44Z</time>
      </trkpt>
      <trkpt lat="42.2344" lon="0.71543">
        <ele>589.49</ele>
        <time>2021-08-01T15:42:45Z</time>
      </trkpt>
      <trkpt lat="42.2344" lon="0.71522">
        <ele>586.34</ele>
        <time>2021-08-01T15:42:51Z</time>
      </trkpt>
      <trkpt lat="42.23461" lon="0.71487">
        <ele>584.17</ele>
        <time>2021-08-01T15:42:57Z</time>
      </trkpt>
      <trkpt lat="42.23461" lon="0.71476">
        <ele>583.88</ele>
        <time>2021-08-01T15:42:58Z</time>
      </trkpt>
      <trkpt lat="42.23454" lon="0.71353">
        <ele>581.97</ele>
        <time>2021-08-01T15:43:09Z</time>
      </trkpt>
      <trkpt lat="42.2345" lon="0.71314">
        <ele>582.23</ele>
        <time>2021-08-01T15:43:16Z</time>
      </trkpt>
      <trkpt lat="42.23447" lon="0.71289">
        <ele>583.12</ele>
        <time>2021-08-01T15:43:20Z</time>
      </trkpt>
      <trkpt lat="42.2344" lon="0.71267">
        <ele>583.79</ele>
        <time>2021-08-01T15:43:23Z</time>
      </trkpt>
      <trkpt lat="42.23435" lon="0.71213">
        <ele>587.27</ele>
        <time>2021-08-01T15:43:29Z</time>
      </trkpt>
      <trkpt lat="42.23447" lon="0.71179">
        <ele>590.52</ele>
        <time>2021-08-01T15:43:33Z</time>
      </trkpt>
      <trkpt lat="42.23466" lon="0.71143">
        <ele>594.82</ele>
        <time>2021-08-01T15:43:38Z</time>
      </trkpt>
      <trkpt lat="42.23469" lon="0.71136">
        <ele>595.82</ele>
        <time>2021-08-01T15:43:39Z</time>
      </trkpt>
      <trkpt lat="42.23485" lon="0.71118">
        <ele>600.8</ele>
        <time>2021-08-01T15:43:44Z</time>
      </trkpt>
      <trkpt lat="42.23499" lon="0.71103">
        <ele>604.21</ele>
        <time>2021-08-01T15:43:48Z</time>
      </trkpt>
      <trkpt lat="42.23503" lon="0.71098">
        <ele>605.07</ele>
        <time>2021-08-01T15:43:49Z</time>
      </trkpt>
      <trkpt lat="42.23531" lon="0.71075">
        <ele>609.49</ele>
        <time>2021-08-01T15:43:54Z</time>
      </trkpt>
      <trkpt lat="42.23538" lon="0.7107">
        <ele>610.44</ele>
        <time>2021-08-01T15:43:55Z</time>
      </trkpt>
      <trkpt lat="42.23559" lon="0.71048">
        <ele>614.63</ele>
        <time>2021-08-01T15:43:59Z</time>
      </trkpt>
      <trkpt lat="42.23572" lon="0.71032">
        <ele>617.87</ele>
        <time>2021-08-01T15:44:02Z</time>
      </trkpt>
      <trkpt lat="42.23593" lon="0.71014">
        <ele>622.05</ele>
        <time>2021-08-01T15:44:06Z</time>
      </trkpt>
      <trkpt lat="42.23624" lon="0.70989">
        <ele>626.17</ele>
        <time>2021-08-01T15:44:11Z</time>
      </trkpt>
      <trkpt lat="42.23657" lon="0.70963">
        <ele>629.79</ele>
        <time>2021-08-01T15:44:16Z</time>
      </trkpt>
      <trkpt lat="42.2367" lon="0.70947">
        <ele>631.34</ele>
        <time>2021-08-01T15:44:18Z</time>
      </trkpt>
      <trkpt lat="42.2371" lon="0.70917">
        <ele>635.75</ele>
        <time>2021-08-01T15:44:23Z</time>
      </trkpt>
      <trkpt lat="42.23717" lon="0.7091">
        <ele>636.86</ele>
        <time>2021-08-01T15:44:24Z</time>
      </trkpt>
      <trkpt lat="42.23745" lon="0.70874">
        <ele>641.16</ele>
        <time>2021-08-01T15:44:28Z</time>
      </trkpt>
      <trkpt lat="42.23759" lon="0.70856">
        <ele>643.44</ele>
        <time>2021-08-01T15:44:30Z</time>
      </trkpt>
      <trkpt lat="42.23781" lon="0.70822">
        <ele>647.68</ele>
        <time>2021-08-01T15:44:34Z</time>
      </trkpt>
      <trkpt lat="42.23801" lon="0.70787">
        <ele>651.57</ele>
        <time>2021-08-01T15:44:38Z</time>
      </trkpt>
      <trkpt lat="42.23821" lon="0.70751">
        <ele>655.35</ele>
        <time>2021-08-01T15:44:42Z</time>
      </trkpt>
      <trkpt lat="42.23837" lon="0.70725">
        <ele>658.58</ele>
        <time>2021-08-01T15:44:45Z</time>
      </trkpt>
      <trkpt lat="42.23854" lon="0.70699">
        <ele>661.71</ele>
        <time>2021-08-01T15:44:48Z</time>
      </trkpt>
      <trkpt lat="42.2386" lon="0.70689">
        <ele>662.81</ele>
        <time>2021-08-01T15:44:49Z</time>
      </trkpt>
      <trkpt lat="42.23879" lon="0.70645">
        <ele>668.46</ele>
        <time>2021-08-01T15:44:53Z</time>
      </trkpt>
      <trkpt lat="42.23888" lon="0.70621">
        <ele>670.61</ele>
        <time>2021-08-01T15:44:55Z</time>
      </trkpt>
      <trkpt lat="42.23903" lon="0.70573">
        <ele>675.15</ele>
        <time>2021-08-01T15:44:59Z</time>
      </trkpt>
      <trkpt lat="42.23913" lon="0.7054">
        <ele>678.59</ele>
        <time>2021-08-01T15:45:02Z</time>
      </trkpt>
      <trkpt lat="42.23918" lon="0.7052">
        <ele>680.89</ele>
        <time>2021-08-01T15:45:04Z</time>
      </trkpt>
      <trkpt lat="42.23928" lon="0.70468">
        <ele>685.17</ele>
        <time>2021-08-01T15:45:08Z</time>
      </trkpt>
      <trkpt lat="42.23959" lon="0.70374">
        <ele>688.48</ele>
        <time>2021-08-01T15:45:14Z</time>
      </trkpt>
      <trkpt lat="42.23986" lon="0.70304">
        <ele>692.19</ele>
        <time>2021-08-01T15:45:20Z</time>
      </trkpt>
      <trkpt lat="42.24001" lon="0.70266">
        <ele>695.73</ele>
        <time>2021-08-01T15:45:24Z</time>
      </trkpt>
      <trkpt lat="42.24016" lon="0.70228">
        <ele>699.64</ele>
        <time>2021-08-01T15:45:28Z</time>
      </trkpt>
      <trkpt lat="42.24025" lon="0.70201">
        <ele>702.75</ele>
        <time>2021-08-01T15:45:31Z</time>
      </trkpt>
      <trkpt lat="42.24032" lon="0.70169">
        <ele>706.39</ele>
        <time>2021-08-01T15:45:35Z</time>
      </trkpt>
      <trkpt lat="42.2404" lon="0.7014">
        <ele>707.69</ele>
        <time>2021-08-01T15:45:38Z</time>
      </trkpt>
      <trkpt lat="42.24064" lon="0.70033">
        <ele>710.94</ele>
        <time>2021-08-01T15:45:48Z</time>
      </trkpt>
      <trkpt lat="42.24073" lon="0.69986">
        <ele>713.39</ele>
        <time>2021-08-01T15:45:52Z</time>
      </trkpt>
      <trkpt lat="42.2407" lon="0.69938">
        <ele>715.94</ele>
        <time>2021-08-01T15:45:56Z</time>
      </trkpt>
      <trkpt lat="42.24049" lon="0.69879">
        <ele>720.57</ele>
        <time>2021-08-01T15:46:02Z</time>
      </trkpt>
      <trkpt lat="42.24045" lon="0.69869">
        <ele>721.51</ele>
        <time>2021-08-01T15:46:03Z</time>
      </trkpt>
      <trkpt lat="42.2403" lon="0.69822">
        <ele>726.45</ele>
        <time>2021-08-01T15:46:08Z</time>
      </trkpt>
      <trkpt lat="42.24021" lon="0.69798">
        <ele>729.43</ele>
        <time>2021-08-01T15:46:11Z</time>
      </trkpt>
      <trkpt lat="42.2401" lon="0.69763">
        <ele>733.48</ele>
        <time>2021-08-01T15:46:15Z</time>
      </trkpt>
      <trkpt lat="42.24007" lon="0.69724">
        <ele>737.24</ele>
        <time>2021-08-01T15:46:19Z</time>
      </trkpt>
      <trkpt lat="42.24009" lon="0.69706">
        <ele>739.01</ele>
        <time>2021-08-01T15:46:21Z</time>
      </trkpt>
      <trkpt lat="42.24016" lon="0.69674">
        <ele>743.07</ele>
        <time>2021-08-01T15:46:26Z</time>
      </trkpt>
      <trkpt lat="42.24017" lon="0.6967">
        <ele>743.87</ele>
        <time>2021-08-01T15:46:27Z</time>
      </trkpt>
      <trkpt lat="42.24016" lon="0.69659">
        <ele>745.59</ele>
        <time>2021-08-01T15:46:29Z</time>
      </trkpt>
      <trkpt lat="42.24016" lon="0.69631">
        <ele>749.45</ele>
        <time>2021-08-01T15:46:33Z</time>
      </trkpt>
      <trkpt lat="42.24012" lon="0.696">
        <ele>752.6</ele>
        <time>2021-08-01T15:46:37Z</time>
      </trkpt>
      <trkpt lat="42.23985" lon="0.69567">
        <ele>756.46</ele>
        <time>2021-08-01T15:46:42Z</time>
      </trkpt>
      <trkpt lat="42.23967" lon="0.69569">
        <ele>757.98</ele>
        <time>2021-08-01T15:46:44Z</time>
      </trkpt>
      <trkpt lat="42.23934" lon="0.69571">
        <ele>761.28</ele>
        <time>2021-08-01T15:46:48Z</time>
      </trkpt>
      <trkpt lat="42.23901" lon="0.69598">
        <ele>765.98</ele>
        <time>2021-08-01T15:46:53Z</time>
      </trkpt>
      <trkpt lat="42.23859" lon="0.6963">
        <ele>770.68</ele>
        <time>2021-08-01T15:47:00Z</time>
      </trkpt>
      <trkpt lat="42.238" lon="0.69611">
        <ele>774.47</ele>
        <time>2021-08-01T15:47:08Z</time>
      </trkpt>
      <trkpt lat="42.23773" lon="0.69607">
        <ele>777.52</ele>
        <time>2021-08-01T15:47:13Z</time>
      </trkpt>
      <trkpt lat="42.23773" lon="0.6958">
        <ele>781.6</ele>
        <time>2021-08-01T15:47:19Z</time>
      </trkpt>
      <trkpt lat="42.23791" lon="0.6957">
        <ele>784.68</ele>
        <time>2021-08-01T15:47:24Z</time>
      </trkpt>
      <trkpt lat="42.23816" lon="0.6956">
        <ele>788.54</ele>
        <time>2021-08-01T15:47:30Z</time>
      </trkpt>
      <trkpt lat="42.23828" lon="0.69556">
        <ele>790.34</ele>
        <time>2021-08-01T15:47:33Z</time>
      </trkpt>
      <trkpt lat="42.23833" lon="0.69533">
        <ele>794.8</ele>
        <time>2021-08-01T15:47:39Z</time>
      </trkpt>
      <trkpt lat="42.2382" lon="0.69527">
        <ele>797.12</ele>
        <time>2021-08-01T15:47:42Z</time>
      </trkpt>
      <trkpt lat="42.23809" lon="0.69525">
        <ele>798.11</ele>
        <time>2021-08-01T15:47:44Z</time>
      </trkpt>
      <trkpt lat="42.23771" lon="0.69529">
        <ele>801.68</ele>
        <time>2021-08-01T15:47:50Z</time>
      </trkpt>
      <trkpt lat="42.23735" lon="0.69536">
        <ele>805.16</ele>
        <time>2021-08-01T15:47:55Z</time>
      </trkpt>
      <trkpt lat="42.23706" lon="0.69546">
        <ele>808.38</ele>
        <time>2021-08-01T15:47:59Z</time>
      </trkpt>
      <trkpt lat="42.23676" lon="0.6956">
        <ele>811.49</ele>
        <time>2021-08-01T15:48:03Z</time>
      </trkpt>
      <trkpt lat="42.23663" lon="0.69566">
        <ele>813.33</ele>
        <time>2021-08-01T15:48:05Z</time>
      </trkpt>
      <trkpt lat="42.23635" lon="0.6956">
        <ele>818.06</ele>
        <time>2021-08-01T15:48:11Z</time>
      </trkpt>
      <trkpt lat="42.23641" lon="0.69531">
        <ele>821.79</ele>
        <time>2021-08-01T15:48:17Z</time>
      </trkpt>
      <trkpt lat="42.23652" lon="0.6952">
        <ele>823.88</ele>
        <time>2021-08-01T15:48:20Z</time>
      </trkpt>
      <trkpt lat="42.23667" lon="0.6949">
        <ele>827.23</ele>
        <time>2021-08-01T15:48:25Z</time>
      </trkpt>
      <trkpt lat="42.23689" lon="0.69454">
        <ele>831.64</ele>
        <time>2021-08-01T15:48:31Z</time>
      </trkpt>
      <trkpt lat="42.23695" lon="0.69437">
        <ele>833.06</ele>
        <time>2021-08-01T15:48:33Z</time>
      </trkpt>
      <trkpt lat="42.23719" lon="0.69387">
        <ele>837.53</ele>
        <time>2021-08-01T15:48:39Z</time>
      </trkpt>
      <trkpt lat="42.23735" lon="0.69353">
        <ele>840.63</ele>
        <time>2021-08-01T15:48:43Z</time>
      </trkpt>
      <trkpt lat="42.2376" lon="0.69303">
        <ele>843.91</ele>
        <time>2021-08-01T15:48:49Z</time>
      </trkpt>
      <trkpt lat="42.23782" lon="0.69279">
        <ele>845.57</ele>
        <time>2021-08-01T15:48:53Z</time>
      </trkpt>
      <trkpt lat="42.23808" lon="0.69255">
        <ele>846.97</ele>
        <time>2021-08-01T15:48:58Z</time>
      </trkpt>
      <trkpt lat="42.23825" lon="0.69233">
        <ele>848.84</ele>
        <time>2021-08-01T15:49:02Z</time>
      </trkpt>
      <trkpt lat="42.23848" lon="0.69189">
        <ele>852.54</ele>
        <time>2021-08-01T15:49:08Z</time>
      </trkpt>
      <trkpt lat="42.23882" lon="0.69122">
        <ele>856.33</ele>
        <time>2021-08-01T15:49:15Z</time>
      </trkpt>
      <trkpt lat="42.23887" lon="0.69113">
        <ele>856.82</ele>
        <time>2021-08-01T15:49:16Z</time>
      </trkpt>
      <trkpt lat="42.239" lon="0.69066">
        <ele>859.27</ele>
        <time>2021-08-01T15:49:21Z</time>
      </trkpt>
      <trkpt lat="42.239" lon="0.69049">
        <ele>860.56</ele>
        <time>2021-08-01T15:49:23Z</time>
      </trkpt>
      <trkpt lat="42.23907" lon="0.69009">
        <ele>863.62</ele>
        <time>2021-08-01T15:49:28Z</time>
      </trkpt>
      <trkpt lat="42.23902" lon="0.68978">
        <ele>865.96</ele>
        <time>2021-08-01T15:49:32Z</time>
      </trkpt>
      <trkpt lat="42.23892" lon="0.68959">
        <ele>868.13</ele>
        <time>2021-08-01T15:49:35Z</time>
      </trkpt>
      <trkpt lat="42.23864" lon="0.68923">
        <ele>872.47</ele>
        <time>2021-08-01T15:49:41Z</time>
      </trkpt>
      <trkpt lat="42.23834" lon="0.68899">
        <ele>875.96</ele>
        <time>2021-08-01T15:49:46Z</time>
      </trkpt>
      <trkpt lat="42.23809" lon="0.68896">
        <ele>880.36</ele>
        <time>2021-08-01T15:49:50Z</time>
      </trkpt>
      <trkpt lat="42.23803" lon="0.68899">
        <ele>881.28</ele>
        <time>2021-08-01T15:49:51Z</time>
      </trkpt>
      <trkpt lat="42.23777" lon="0.68921">
        <ele>886.47</ele>
        <time>2021-08-01T15:49:56Z</time>
      </trkpt>
      <trkpt lat="42.23752" lon="0.68955">
        <ele>890.96</ele>
        <time>2021-08-01T15:50:01Z</time>
      </trkpt>
      <trkpt lat="42.2373" lon="0.68983">
        <ele>894.28</ele>
        <time>2021-08-01T15:50:06Z</time>
      </trkpt>
      <trkpt lat="42.23713" lon="0.69004">
        <ele>897.29</ele>
        <time>2021-08-01T15:50:14Z</time>
      </trkpt>
      <trkpt lat="42.23677" lon="0.69039">
        <ele>899.73</ele>
        <time>2021-08-01T15:50:26Z</time>
      </trkpt>
      <trkpt lat="42.23628" lon="0.69095">
        <ele>902.87</ele>
        <time>2021-08-01T15:50:38Z</time>
      </trkpt>
      <trkpt lat="42.23594" lon="0.6914">
        <ele>905.67</ele>
        <time>2021-08-01T15:50:46Z</time>
      </trkpt>
      <trkpt lat="42.23578" lon="0.69127">
        <ele>908.94</ele>
        <time>2021-08-01T15:50:51Z</time>
      </trkpt>
      <trkpt lat="42.23579" lon="0.6912">
        <ele>909.7</ele>
        <time>2021-08-01T15:50:52Z</time>
      </trkpt>
      <trkpt lat="42.23586" lon="0.69082">
        <ele>913.6</ele>
        <time>2021-08-01T15:50:57Z</time>
      </trkpt>
      <trkpt lat="42.23593" lon="0.69054">
        <ele>917.01</ele>
        <time>2021-08-01T15:51:01Z</time>
      </trkpt>
      <trkpt lat="42.23606" lon="0.69027">
        <ele>920.86</ele>
        <time>2021-08-01T15:51:06Z</time>
      </trkpt>
      <trkpt lat="42.23614" lon="0.69007">
        <ele>924.3</ele>
        <time>2021-08-01T15:51:10Z</time>
      </trkpt>
      <trkpt lat="42.23623" lon="0.68988">
        <ele>928.01</ele>
        <time>2021-08-01T15:51:15Z</time>
      </trkpt>
      <trkpt lat="42.23635" lon="0.68962">
        <ele>931.49</ele>
        <time>2021-08-01T15:51:21Z</time>
      </trkpt>
      <trkpt lat="42.23645" lon="0.6894">
        <ele>934.55</ele>
        <time>2021-08-01T15:51:26Z</time>
      </trkpt>
      <trkpt lat="42.23654" lon="0.68915">
        <ele>937.76</ele>
        <time>2021-08-01T15:51:31Z</time>
      </trkpt>
      <trkpt lat="42.23665" lon="0.68883">
        <ele>941</ele>
        <time>2021-08-01T15:51:37Z</time>
      </trkpt>
      <trkpt lat="42.23673" lon="0.68851">
        <ele>944.39</ele>
        <time>2021-08-01T15:51:43Z</time>
      </trkpt>
      <trkpt lat="42.23679" lon="0.68818">
        <ele>947.65</ele>
        <time>2021-08-01T15:51:49Z</time>
      </trkpt>
      <trkpt lat="42.23681" lon="0.68784">
        <ele>950.91</ele>
        <time>2021-08-01T15:51:55Z</time>
      </trkpt>
      <trkpt lat="42.23685" lon="0.68745">
        <ele>953.95</ele>
        <time>2021-08-01T15:52:02Z</time>
      </trkpt>
      <trkpt lat="42.23693" lon="0.68698">
        <ele>956.96</ele>
        <time>2021-08-01T15:52:09Z</time>
      </trkpt>
      <trkpt lat="42.23694" lon="0.68688">
        <ele>957.38</ele>
        <time>2021-08-01T15:52:10Z</time>
      </trkpt>
      <trkpt lat="42.23699" lon="0.68581">
        <ele>961.02</ele>
        <time>2021-08-01T15:52:20Z</time>
      </trkpt>
      <trkpt lat="42.23704" lon="0.68507">
        <ele>964.25</ele>
        <time>2021-08-01T15:52:29Z</time>
      </trkpt>
      <trkpt lat="42.23708" lon="0.68429">
        <ele>967.35</ele>
        <time>2021-08-01T15:52:38Z</time>
      </trkpt>
      <trkpt lat="42.23711" lon="0.68404">
        <ele>967.62</ele>
        <time>2021-08-01T15:52:41Z</time>
      </trkpt>
      <trkpt lat="42.23719" lon="0.68371">
        <ele>967.35</ele>
        <time>2021-08-01T15:52:45Z</time>
      </trkpt>
      <trkpt lat="42.23734" lon="0.68341">
        <ele>966.19</ele>
        <time>2021-08-01T15:52:49Z</time>
      </trkpt>
      <trkpt lat="42.23747" lon="0.68304">
        <ele>964.22</ele>
        <time>2021-08-01T15:52:53Z</time>
      </trkpt>
      <trkpt lat="42.23767" lon="0.68221">
        <ele>960.57</ele>
        <time>2021-08-01T15:53:01Z</time>
      </trkpt>
      <trkpt lat="42.2377" lon="0.68202">
        <ele>959.69</ele>
        <time>2021-08-01T15:53:03Z</time>
      </trkpt>
      <trkpt lat="42.2377" lon="0.68168">
        <ele>958.73</ele>
        <time>2021-08-01T15:53:07Z</time>
      </trkpt>
      <trkpt lat="42.23755" lon="0.68123">
        <ele>958.67</ele>
        <time>2021-08-01T15:53:12Z</time>
      </trkpt>
      <trkpt lat="42.2374" lon="0.68089">
        <ele>959.47</ele>
        <time>2021-08-01T15:53:16Z</time>
      </trkpt>
      <trkpt lat="42.2374" lon="0.68042">
        <ele>962.32</ele>
        <time>2021-08-01T15:53:22Z</time>
      </trkpt>
      <trkpt lat="42.23755" lon="0.68014">
        <ele>966.05</ele>
        <time>2021-08-01T15:53:27Z</time>
      </trkpt>
      <trkpt lat="42.23765" lon="0.67991">
        <ele>969.57</ele>
        <time>2021-08-01T15:53:31Z</time>
      </trkpt>
      <trkpt lat="42.23774" lon="0.67968">
        <ele>972.89</ele>
        <time>2021-08-01T15:53:35Z</time>
      </trkpt>
      <trkpt lat="42.2378" lon="0.67951">
        <ele>975.4</ele>
        <time>2021-08-01T15:53:38Z</time>
      </trkpt>
      <trkpt lat="42.23783" lon="0.67913">
        <ele>980</ele>
        <time>2021-08-01T15:53:44Z</time>
      </trkpt>
      <trkpt lat="42.23801" lon="0.67876">
        <ele>983.38</ele>
        <time>2021-08-01T15:53:49Z</time>
      </trkpt>
      <trkpt lat="42.23825" lon="0.67844">
        <ele>987.29</ele>
        <time>2021-08-01T15:53:55Z</time>
      </trkpt>
      <trkpt lat="42.23832" lon="0.67832">
        <ele>988.59</ele>
        <time>2021-08-01T15:53:57Z</time>
      </trkpt>
      <trkpt lat="42.23849" lon="0.67791">
        <ele>992.64</ele>
        <time>2021-08-01T15:54:04Z</time>
      </trkpt>
      <trkpt lat="42.23869" lon="0.6775">
        <ele>995.78</ele>
        <time>2021-08-01T15:54:11Z</time>
      </trkpt>
      <trkpt lat="42.23896" lon="0.67711">
        <ele>998.84</ele>
        <time>2021-08-01T15:54:20Z</time>
      </trkpt>
      <trkpt lat="42.2392" lon="0.67692">
        <ele>1000.88</ele>
        <time>2021-08-01T15:54:28Z</time>
      </trkpt>
      <trkpt lat="42.23954" lon="0.67649">
        <ele>1002.9</ele>
        <time>2021-08-01T15:54:38Z</time>
      </trkpt>
      <trkpt lat="42.23973" lon="0.67626">
        <ele>1005.33</ele>
        <time>2021-08-01T15:54:48Z</time>
      </trkpt>
      <trkpt lat="42.23986" lon="0.67613">
        <ele>1007.6</ele>
        <time>2021-08-01T15:55:00Z</time>
      </trkpt>
      <trkpt lat="42.24024" lon="0.67565">
        <ele>1010.69</ele>
        <time>2021-08-01T15:55:13Z</time>
      </trkpt>
      <trkpt lat="42.2406" lon="0.67513">
        <ele>1013.36</ele>
        <time>2021-08-01T15:55:24Z</time>
      </trkpt>
      <trkpt lat="42.24067" lon="0.67488">
        <ele>1013.91</ele>
        <time>2021-08-01T15:55:29Z</time>
      </trkpt>
      <trkpt lat="42.24067" lon="0.67473">
        <ele>1013.95</ele>
        <time>2021-08-01T15:55:38Z</time>
      </trkpt>
      <trkpt lat="42.24068" lon="0.67471">
        <ele>1013.45</ele>
        <time>2021-08-01T15:55:48Z</time>
      </trkpt>
      <trkpt lat="42.24071" lon="0.67459">
        <ele>1013.21</ele>
        <time>2021-08-01T15:55:52Z</time>
      </trkpt>
      <trkpt lat="42.24089" lon="0.67404">
        <ele>1010.01</ele>
        <time>2021-08-01T15:56:05Z</time>
      </trkpt>
      <trkpt lat="42.24091" lon="0.67398">
        <ele>1008.04</ele>
        <time>2021-08-01T15:56:16Z</time>
      </trkpt>
      <trkpt lat="42.24094" lon="0.67387">
        <ele>1007.92</ele>
        <time>2021-08-01T15:56:18Z</time>
      </trkpt>
      <trkpt lat="42.24097" lon="0.67353">
        <ele>1007.46</ele>
        <time>2021-08-01T15:56:26Z</time>
      </trkpt>
      <trkpt lat="42.24097" lon="0.67356">
        <ele>1006.97</ele>
        <time>2021-08-01T15:56:37Z</time>
      </trkpt>
      <trkpt lat="42.24094" lon="0.67365">
        <ele>1006.71</ele>
        <time>2021-08-01T15:56:46Z</time>
      </trkpt>
      <trkpt lat="42.24086" lon="0.6735">
        <ele>1007.42</ele>
        <time>2021-08-01T15:57:00Z</time>
      </trkpt>
      <trkpt lat="42.24085" lon="0.67349">
        <ele>1009.06</ele>
        <time>2021-08-01T15:57:27Z</time>
      </trkpt>
      <trkpt lat="42.24092" lon="0.67357">
        <ele>1007.22</ele>
        <time>2021-08-01T15:57:55Z</time>
      </trkpt>
      <trkpt lat="42.24094" lon="0.67363">
        <ele>1006.59</ele>
        <time>2021-08-01T15:58:04Z</time>
      </trkpt>
      <trkpt lat="42.24087" lon="0.67409">
        <ele>1008.19</ele>
        <time>2021-08-01T15:58:27Z</time>
      </trkpt>
      <trkpt lat="42.24087" lon="0.67408">
        <ele>1008.37</ele>
        <time>2021-08-01T15:58:28Z</time>
      </trkpt>
      <trkpt lat="42.24089" lon="0.67405">
        <ele>1008.59</ele>
        <time>2021-08-01T15:58:33Z</time>
      </trkpt>
      <trkpt lat="42.24088" lon="0.67405">
        <ele>1008.64</ele>
        <time>2021-08-01T15:58:38Z</time>
      </trkpt>
      <trkpt lat="42.24092" lon="0.674">
        <ele>1009.36</ele>
        <time>2021-08-01T15:58:56Z</time>
      </trkpt>
      <trkpt lat="42.24093" lon="0.67399">
        <ele>1009.67</ele>
        <time>2021-08-01T15:59:20Z</time>
      </trkpt>
      <trkpt lat="42.24093" lon="0.67399">
        <ele>1010.05</ele>
        <time>2021-08-01T15:59:36Z</time>
      </trkpt>
      <trkpt lat="42.24091" lon="0.67401">
        <ele>1009.07</ele>
        <time>2021-08-01T16:03:13Z</time>
      </trkpt>
      <trkpt lat="42.24088" lon="0.674">
        <ele>1009.07</ele>
        <time>2021-08-01T16:03:24Z</time>
      </trkpt>
      <trkpt lat="42.24089" lon="0.67375">
        <ele>1006.04</ele>
        <time>2021-08-01T16:03:33Z</time>
      </trkpt>
      <trkpt lat="42.2409" lon="0.67368">
        <ele>1005.51</ele>
        <time>2021-08-01T16:03:36Z</time>
      </trkpt>
      <trkpt lat="42.24098" lon="0.67348">
        <ele>1004.84</ele>
        <time>2021-08-01T16:03:45Z</time>
      </trkpt>
      <trkpt lat="42.24099" lon="0.67347">
        <ele>1005.19</ele>
        <time>2021-08-01T16:04:53Z</time>
      </trkpt>
      <trkpt lat="42.24102" lon="0.67336">
        <ele>1005.29</ele>
        <time>2021-08-01T16:04:55Z</time>
      </trkpt>
      <trkpt lat="42.24139" lon="0.67259">
        <ele>1006.49</ele>
        <time>2021-08-01T16:05:03Z</time>
      </trkpt>
      <trkpt lat="42.2416" lon="0.67231">
        <ele>1007.37</ele>
        <time>2021-08-01T16:05:08Z</time>
      </trkpt>
      <trkpt lat="42.24173" lon="0.6722">
        <ele>1007.86</ele>
        <time>2021-08-01T16:05:11Z</time>
      </trkpt>
      <trkpt lat="42.24199" lon="0.67191">
        <ele>1009.63</ele>
        <time>2021-08-01T16:05:17Z</time>
      </trkpt>
      <trkpt lat="42.24218" lon="0.67152">
        <ele>1013.18</ele>
        <time>2021-08-01T16:05:23Z</time>
      </trkpt>
      <trkpt lat="42.24242" lon="0.67115">
        <ele>1016.42</ele>
        <time>2021-08-01T16:05:29Z</time>
      </trkpt>
      <trkpt lat="42.24248" lon="0.67096">
        <ele>1018.25</ele>
        <time>2021-08-01T16:05:34Z</time>
      </trkpt>
      <trkpt lat="42.24276" lon="0.67007">
        <ele>1020.9</ele>
        <time>2021-08-01T16:05:43Z</time>
      </trkpt>
      <trkpt lat="42.24317" lon="0.66851">
        <ele>1021.63</ele>
        <time>2021-08-01T16:05:55Z</time>
      </trkpt>
      <trkpt lat="42.24343" lon="0.6674">
        <ele>1021.44</ele>
        <time>2021-08-01T16:06:02Z</time>
      </trkpt>
      <trkpt lat="42.24356" lon="0.66691">
        <ele>1021.27</ele>
        <time>2021-08-01T16:06:05Z</time>
      </trkpt>
      <trkpt lat="42.24391" lon="0.66607">
        <ele>1020.48</ele>
        <time>2021-08-01T16:06:12Z</time>
      </trkpt>
      <trkpt lat="42.24409" lon="0.66595">
        <ele>1020.06</ele>
        <time>2021-08-01T16:06:14Z</time>
      </trkpt>
      <trkpt lat="42.2443" lon="0.66577">
        <ele>1018.87</ele>
        <time>2021-08-01T16:06:18Z</time>
      </trkpt>
      <trkpt lat="42.2444" lon="0.66574">
        <ele>1017.97</ele>
        <time>2021-08-01T16:06:20Z</time>
      </trkpt>
      <trkpt lat="42.24471" lon="0.6655">
        <ele>1016.37</ele>
        <time>2021-08-01T16:06:24Z</time>
      </trkpt>
      <trkpt lat="42.24489" lon="0.66526">
        <ele>1015.78</ele>
        <time>2021-08-01T16:06:26Z</time>
      </trkpt>
      <trkpt lat="42.24517" lon="0.66403">
        <ele>1014.96</ele>
        <time>2021-08-01T16:06:33Z</time>
      </trkpt>
      <trkpt lat="42.24546" lon="0.66309">
        <ele>1013.75</ele>
        <time>2021-08-01T16:06:40Z</time>
      </trkpt>
      <trkpt lat="42.24574" lon="0.66256">
        <ele>1013.02</ele>
        <time>2021-08-01T16:06:46Z</time>
      </trkpt>
      <trkpt lat="42.24587" lon="0.66223">
        <ele>1013.32</ele>
        <time>2021-08-01T16:06:49Z</time>
      </trkpt>
      <trkpt lat="42.24617" lon="0.66185">
        <ele>1014.44</ele>
        <time>2021-08-01T16:06:54Z</time>
      </trkpt>
      <trkpt lat="42.24646" lon="0.6609">
        <ele>1016.66</ele>
        <time>2021-08-01T16:07:01Z</time>
      </trkpt>
      <trkpt lat="42.24651" lon="0.66062">
        <ele>1017.33</ele>
        <time>2021-08-01T16:07:03Z</time>
      </trkpt>
      <trkpt lat="42.24665" lon="0.66025">
        <ele>1018.23</ele>
        <time>2021-08-01T16:07:06Z</time>
      </trkpt>
      <trkpt lat="42.24687" lon="0.65991">
        <ele>1018.75</ele>
        <time>2021-08-01T16:07:09Z</time>
      </trkpt>
      <trkpt lat="42.24718" lon="0.6592">
        <ele>1020.66</ele>
        <time>2021-08-01T16:07:15Z</time>
      </trkpt>
      <trkpt lat="42.24727" lon="0.65876">
        <ele>1023.08</ele>
        <time>2021-08-01T16:07:20Z</time>
      </trkpt>
      <trkpt lat="42.24731" lon="0.65861">
        <ele>1024.21</ele>
        <time>2021-08-01T16:07:22Z</time>
      </trkpt>
      <trkpt lat="42.24743" lon="0.65818">
        <ele>1028.41</ele>
        <time>2021-08-01T16:07:28Z</time>
      </trkpt>
      <trkpt lat="42.24787" lon="0.65763">
        <ele>1032.4</ele>
        <time>2021-08-01T16:07:34Z</time>
      </trkpt>
      <trkpt lat="42.24797" lon="0.65753">
        <ele>1032.89</ele>
        <time>2021-08-01T16:07:35Z</time>
      </trkpt>
      <trkpt lat="42.24825" lon="0.65702">
        <ele>1035.45</ele>
        <time>2021-08-01T16:07:39Z</time>
      </trkpt>
      <trkpt lat="42.24858" lon="0.65582">
        <ele>1038.77</ele>
        <time>2021-08-01T16:07:47Z</time>
      </trkpt>
      <trkpt lat="42.24858" lon="0.65546">
        <ele>1039.1</ele>
        <time>2021-08-01T16:07:49Z</time>
      </trkpt>
      <trkpt lat="42.24868" lon="0.65506">
        <ele>1039.03</ele>
        <time>2021-08-01T16:07:53Z</time>
      </trkpt>
      <trkpt lat="42.24876" lon="0.65411">
        <ele>1036.95</ele>
        <time>2021-08-01T16:08:01Z</time>
      </trkpt>
      <trkpt lat="42.24877" lon="0.65321">
        <ele>1035.09</ele>
        <time>2021-08-01T16:08:07Z</time>
      </trkpt>
      <trkpt lat="42.24888" lon="0.65282">
        <ele>1033.56</ele>
        <time>2021-08-01T16:08:11Z</time>
      </trkpt>
      <trkpt lat="42.249" lon="0.65263">
        <ele>1032.59</ele>
        <time>2021-08-01T16:08:13Z</time>
      </trkpt>
      <trkpt lat="42.24943" lon="0.6524">
        <ele>1029.99</ele>
        <time>2021-08-01T16:08:19Z</time>
      </trkpt>
      <trkpt lat="42.24955" lon="0.65242">
        <ele>1028.93</ele>
        <time>2021-08-01T16:08:25Z</time>
      </trkpt>
      <trkpt lat="42.24954" lon="0.65242">
        <ele>1028.54</ele>
        <time>2021-08-01T16:08:31Z</time>
      </trkpt>
      <trkpt lat="42.2496" lon="0.65244">
        <ele>1028.49</ele>
        <time>2021-08-01T16:08:41Z</time>
      </trkpt>
      <trkpt lat="42.24966" lon="0.65247">
        <ele>1028.69</ele>
        <time>2021-08-01T16:08:44Z</time>
      </trkpt>
      <trkpt lat="42.24986" lon="0.65271">
        <ele>1029.04</ele>
        <time>2021-08-01T16:08:48Z</time>
      </trkpt>
      <trkpt lat="42.25" lon="0.65288">
        <ele>1029.25</ele>
        <time>2021-08-01T16:08:50Z</time>
      </trkpt>
      <trkpt lat="42.25049" lon="0.65291">
        <ele>1029.93</ele>
        <time>2021-08-01T16:08:56Z</time>
      </trkpt>
      <trkpt lat="42.25062" lon="0.6527">
        <ele>1030.12</ele>
        <time>2021-08-01T16:08:58Z</time>
      </trkpt>
      <trkpt lat="42.25093" lon="0.65191">
        <ele>1031.02</ele>
        <time>2021-08-01T16:09:04Z</time>
      </trkpt>
      <trkpt lat="42.25123" lon="0.65128">
        <ele>1031.82</ele>
        <time>2021-08-01T16:09:09Z</time>
      </trkpt>
      <trkpt lat="42.25149" lon="0.65088">
        <ele>1032.18</ele>
        <time>2021-08-01T16:09:13Z</time>
      </trkpt>
      <trkpt lat="42.25166" lon="0.6503">
        <ele>1031.14</ele>
        <time>2021-08-01T16:09:17Z</time>
      </trkpt>
      <trkpt lat="42.25186" lon="0.64911">
        <ele>1032.24</ele>
        <time>2021-08-01T16:09:27Z</time>
      </trkpt>
      <trkpt lat="42.25236" lon="0.64855">
        <ele>1035.07</ele>
        <time>2021-08-01T16:09:34Z</time>
      </trkpt>
      <trkpt lat="42.2526" lon="0.6486">
        <ele>1035.52</ele>
        <time>2021-08-01T16:09:36Z</time>
      </trkpt>
      <trkpt lat="42.25312" lon="0.64875">
        <ele>1036.36</ele>
        <time>2021-08-01T16:09:41Z</time>
      </trkpt>
      <trkpt lat="42.25363" lon="0.64876">
        <ele>1036.73</ele>
        <time>2021-08-01T16:09:47Z</time>
      </trkpt>
      <trkpt lat="42.25404" lon="0.64843">
        <ele>1036.57</ele>
        <time>2021-08-01T16:09:52Z</time>
      </trkpt>
      <trkpt lat="42.25453" lon="0.6483">
        <ele>1038.36</ele>
        <time>2021-08-01T16:09:58Z</time>
      </trkpt>
      <trkpt lat="42.25482" lon="0.64818">
        <ele>1040.77</ele>
        <time>2021-08-01T16:10:04Z</time>
      </trkpt>
      <trkpt lat="42.25502" lon="0.64796">
        <ele>1044.58</ele>
        <time>2021-08-01T16:10:13Z</time>
      </trkpt>
      <trkpt lat="42.25533" lon="0.64776">
        <ele>1045.47</ele>
        <time>2021-08-01T16:10:18Z</time>
      </trkpt>
      <trkpt lat="42.25558" lon="0.6477">
        <ele>1044.89</ele>
        <time>2021-08-01T16:10:26Z</time>
      </trkpt>
      <trkpt lat="42.25585" lon="0.64756">
        <ele>1044.67</ele>
        <time>2021-08-01T16:10:36Z</time>
      </trkpt>
      <trkpt lat="42.25588" lon="0.6473">
        <ele>1045.42</ele>
        <time>2021-08-01T16:10:41Z</time>
      </trkpt>
      <trkpt lat="42.256" lon="0.64697">
        <ele>1046.17</ele>
        <time>2021-08-01T16:10:45Z</time>
      </trkpt>
      <trkpt lat="42.25638" lon="0.64639">
        <ele>1046.56</ele>
        <time>2021-08-01T16:10:51Z</time>
      </trkpt>
      <trkpt lat="42.25705" lon="0.64602">
        <ele>1046.8</ele>
        <time>2021-08-01T16:10:58Z</time>
      </trkpt>
      <trkpt lat="42.25757" lon="0.64575">
        <ele>1046.65</ele>
        <time>2021-08-01T16:11:03Z</time>
      </trkpt>
      <trkpt lat="42.25826" lon="0.64501">
        <ele>1044.37</ele>
        <time>2021-08-01T16:11:10Z</time>
      </trkpt>
      <trkpt lat="42.25839" lon="0.64471">
        <ele>1043.31</ele>
        <time>2021-08-01T16:11:13Z</time>
      </trkpt>
      <trkpt lat="42.25863" lon="0.64445">
        <ele>1041.83</ele>
        <time>2021-08-01T16:11:17Z</time>
      </trkpt>
      <trkpt lat="42.25901" lon="0.6438">
        <ele>1037.56</ele>
        <time>2021-08-01T16:11:24Z</time>
      </trkpt>
      <trkpt lat="42.25906" lon="0.64354">
        <ele>1035.89</ele>
        <time>2021-08-01T16:11:26Z</time>
      </trkpt>
      <trkpt lat="42.25916" lon="0.64316">
        <ele>1033.66</ele>
        <time>2021-08-01T16:11:29Z</time>
      </trkpt>
      <trkpt lat="42.25902" lon="0.64265">
        <ele>1028.97</ele>
        <time>2021-08-01T16:11:34Z</time>
      </trkpt>
      <trkpt lat="42.25876" lon="0.64229">
        <ele>1027.21</ele>
        <time>2021-08-01T16:11:38Z</time>
      </trkpt>
      <trkpt lat="42.25845" lon="0.64174">
        <ele>1027.52</ele>
        <time>2021-08-01T16:11:43Z</time>
      </trkpt>
      <trkpt lat="42.25734" lon="0.64041">
        <ele>1028.31</ele>
        <time>2021-08-01T16:11:52Z</time>
      </trkpt>
      <trkpt lat="42.25662" lon="0.63953">
        <ele>1031.89</ele>
        <time>2021-08-01T16:11:59Z</time>
      </trkpt>
      <trkpt lat="42.2561" lon="0.63897">
        <ele>1035.39</ele>
        <time>2021-08-01T16:12:04Z</time>
      </trkpt>
      <trkpt lat="42.25563" lon="0.6388">
        <ele>1039.55</ele>
        <time>2021-08-01T16:12:09Z</time>
      </trkpt>
      <trkpt lat="42.25542" lon="0.63869">
        <ele>1041.94</ele>
        <time>2021-08-01T16:12:12Z</time>
      </trkpt>
      <trkpt lat="42.25468" lon="0.63815">
        <ele>1046.23</ele>
        <time>2021-08-01T16:12:19Z</time>
      </trkpt>
      <trkpt lat="42.25377" lon="0.63748">
        <ele>1049.33</ele>
        <time>2021-08-01T16:12:26Z</time>
      </trkpt>
      <trkpt lat="42.25343" lon="0.63724">
        <ele>1049.94</ele>
        <time>2021-08-01T16:12:29Z</time>
      </trkpt>
      <trkpt lat="42.25299" lon="0.63709">
        <ele>1050.24</ele>
        <time>2021-08-01T16:12:33Z</time>
      </trkpt>
      <trkpt lat="42.25197" lon="0.63688">
        <ele>1049.38</ele>
        <time>2021-08-01T16:12:42Z</time>
      </trkpt>
      <trkpt lat="42.2517" lon="0.63667">
        <ele>1049.7</ele>
        <time>2021-08-01T16:12:49Z</time>
      </trkpt>
      <trkpt lat="42.25177" lon="0.63616">
        <ele>1049.69</ele>
        <time>2021-08-01T16:12:55Z</time>
      </trkpt>
      <trkpt lat="42.252" lon="0.63547">
        <ele>1048.72</ele>
        <time>2021-08-01T16:13:01Z</time>
      </trkpt>
      <trkpt lat="42.25244" lon="0.63427">
        <ele>1045.15</ele>
        <time>2021-08-01T16:13:09Z</time>
      </trkpt>
      <trkpt lat="42.25289" lon="0.63311">
        <ele>1042.11</ele>
        <time>2021-08-01T16:13:17Z</time>
      </trkpt>
      <trkpt lat="42.25344" lon="0.63223">
        <ele>1038.45</ele>
        <time>2021-08-01T16:13:23Z</time>
      </trkpt>
      <trkpt lat="42.25374" lon="0.63173">
        <ele>1035.34</ele>
        <time>2021-08-01T16:13:26Z</time>
      </trkpt>
      <trkpt lat="42.25392" lon="0.6314">
        <ele>1032.87</ele>
        <time>2021-08-01T16:13:28Z</time>
      </trkpt>
      <trkpt lat="42.25442" lon="0.63088">
        <ele>1027.46</ele>
        <time>2021-08-01T16:13:32Z</time>
      </trkpt>
      <trkpt lat="42.2548" lon="0.63043">
        <ele>1023.48</ele>
        <time>2021-08-01T16:13:35Z</time>
      </trkpt>
      <trkpt lat="42.25519" lon="0.63001">
        <ele>1020.27</ele>
        <time>2021-08-01T16:13:38Z</time>
      </trkpt>
      <trkpt lat="42.25579" lon="0.62936">
        <ele>1017.08</ele>
        <time>2021-08-01T16:13:43Z</time>
      </trkpt>
      <trkpt lat="42.25682" lon="0.6283">
        <ele>1013.53</ele>
        <time>2021-08-01T16:13:50Z</time>
      </trkpt>
      <trkpt lat="42.25708" lon="0.62804">
        <ele>1012.15</ele>
        <time>2021-08-01T16:13:52Z</time>
      </trkpt>
      <trkpt lat="42.25779" lon="0.62761">
        <ele>1008.34</ele>
        <time>2021-08-01T16:13:57Z</time>
      </trkpt>
      <trkpt lat="42.2586" lon="0.62723">
        <ele>1005.23</ele>
        <time>2021-08-01T16:14:03Z</time>
      </trkpt>
      <trkpt lat="42.25899" lon="0.62709">
        <ele>1003.7</ele>
        <time>2021-08-01T16:14:06Z</time>
      </trkpt>
      <trkpt lat="42.25935" lon="0.62662">
        <ele>1000.22</ele>
        <time>2021-08-01T16:14:11Z</time>
      </trkpt>
      <trkpt lat="42.25943" lon="0.62616">
        <ele>997.9</ele>
        <time>2021-08-01T16:14:14Z</time>
      </trkpt>
      <trkpt lat="42.25899" lon="0.62542">
        <ele>994.14</ele>
        <time>2021-08-01T16:14:20Z</time>
      </trkpt>
      <trkpt lat="42.25889" lon="0.62525">
        <ele>993.8</ele>
        <time>2021-08-01T16:14:21Z</time>
      </trkpt>
      <trkpt lat="42.25786" lon="0.62325">
        <ele>993.97</ele>
        <time>2021-08-01T16:14:31Z</time>
      </trkpt>
      <trkpt lat="42.25732" lon="0.62215">
        <ele>993.04</ele>
        <time>2021-08-01T16:14:36Z</time>
      </trkpt>
      <trkpt lat="42.25718" lon="0.62137">
        <ele>991.25</ele>
        <time>2021-08-01T16:14:40Z</time>
      </trkpt>
      <trkpt lat="42.25694" lon="0.62078">
        <ele>990.63</ele>
        <time>2021-08-01T16:14:44Z</time>
      </trkpt>
      <trkpt lat="42.25631" lon="0.61976">
        <ele>994.18</ele>
        <time>2021-08-01T16:14:51Z</time>
      </trkpt>
      <trkpt lat="42.25596" lon="0.61906">
        <ele>997.64</ele>
        <time>2021-08-01T16:14:55Z</time>
      </trkpt>
      <trkpt lat="42.25549" lon="0.61832">
        <ele>1000.85</ele>
        <time>2021-08-01T16:15:01Z</time>
      </trkpt>
      <trkpt lat="42.25513" lon="0.61788">
        <ele>1001.17</ele>
        <time>2021-08-01T16:15:05Z</time>
      </trkpt>
      <trkpt lat="42.25502" lon="0.61725">
        <ele>1000.6</ele>
        <time>2021-08-01T16:15:10Z</time>
      </trkpt>
      <trkpt lat="42.25509" lon="0.61658">
        <ele>999.04</ele>
        <time>2021-08-01T16:15:14Z</time>
      </trkpt>
      <trkpt lat="42.25466" lon="0.61604">
        <ele>996.56</ele>
        <time>2021-08-01T16:15:20Z</time>
      </trkpt>
      <trkpt lat="42.2541" lon="0.61604">
        <ele>993.85</ele>
        <time>2021-08-01T16:15:25Z</time>
      </trkpt>
      <trkpt lat="42.25381" lon="0.61562">
        <ele>991.95</ele>
        <time>2021-08-01T16:15:29Z</time>
      </trkpt>
      <trkpt lat="42.25378" lon="0.61546">
        <ele>991.7</ele>
        <time>2021-08-01T16:15:30Z</time>
      </trkpt>
      <trkpt lat="42.25335" lon="0.61463">
        <ele>990.05</ele>
        <time>2021-08-01T16:15:36Z</time>
      </trkpt>
      <trkpt lat="42.25314" lon="0.61442">
        <ele>989.13</ele>
        <time>2021-08-01T16:15:39Z</time>
      </trkpt>
      <trkpt lat="42.25314" lon="0.61378">
        <ele>987.98</ele>
        <time>2021-08-01T16:15:47Z</time>
      </trkpt>
      <trkpt lat="42.25352" lon="0.61354">
        <ele>987.94</ele>
        <time>2021-08-01T16:15:52Z</time>
      </trkpt>
      <trkpt lat="42.25403" lon="0.61345">
        <ele>987.56</ele>
        <time>2021-08-01T16:15:57Z</time>
      </trkpt>
      <trkpt lat="42.25434" lon="0.61306">
        <ele>987.26</ele>
        <time>2021-08-01T16:16:02Z</time>
      </trkpt>
      <trkpt lat="42.25423" lon="0.61244">
        <ele>987.45</ele>
        <time>2021-08-01T16:16:06Z</time>
      </trkpt>
      <trkpt lat="42.25422" lon="0.61201">
        <ele>987.91</ele>
        <time>2021-08-01T16:16:09Z</time>
      </trkpt>
      <trkpt lat="42.25443" lon="0.61146">
        <ele>989.48</ele>
        <time>2021-08-01T16:16:13Z</time>
      </trkpt>
      <trkpt lat="42.25456" lon="0.61117">
        <ele>990.49</ele>
        <time>2021-08-01T16:16:15Z</time>
      </trkpt>
      <trkpt lat="42.25483" lon="0.6108">
        <ele>991.86</ele>
        <time>2021-08-01T16:16:18Z</time>
      </trkpt>
      <trkpt lat="42.25526" lon="0.61005">
        <ele>993.84</ele>
        <time>2021-08-01T16:16:24Z</time>
      </trkpt>
      <trkpt lat="42.25541" lon="0.60939">
        <ele>993.75</ele>
        <time>2021-08-01T16:16:30Z</time>
      </trkpt>
      <trkpt lat="42.25541" lon="0.60901">
        <ele>992.65</ele>
        <time>2021-08-01T16:16:33Z</time>
      </trkpt>
      <trkpt lat="42.25512" lon="0.60847">
        <ele>992.38</ele>
        <time>2021-08-01T16:16:40Z</time>
      </trkpt>
      <trkpt lat="42.25487" lon="0.60802">
        <ele>993.34</ele>
        <time>2021-08-01T16:16:45Z</time>
      </trkpt>
      <trkpt lat="42.255" lon="0.60755">
        <ele>994.6</ele>
        <time>2021-08-01T16:16:50Z</time>
      </trkpt>
      <trkpt lat="42.25481" lon="0.60723">
        <ele>994.84</ele>
        <time>2021-08-01T16:16:53Z</time>
      </trkpt>
      <trkpt lat="42.25397" lon="0.60606">
        <ele>991.11</ele>
        <time>2021-08-01T16:17:02Z</time>
      </trkpt>
      <trkpt lat="42.25378" lon="0.60579">
        <ele>989.43</ele>
        <time>2021-08-01T16:17:04Z</time>
      </trkpt>
      <trkpt lat="42.25315" lon="0.60526">
        <ele>985.27</ele>
        <time>2021-08-01T16:17:10Z</time>
      </trkpt>
      <trkpt lat="42.25308" lon="0.60519">
        <ele>984.6</ele>
        <time>2021-08-01T16:17:11Z</time>
      </trkpt>
      <trkpt lat="42.25294" lon="0.605">
        <ele>982.12</ele>
        <time>2021-08-01T16:17:15Z</time>
      </trkpt>
      <trkpt lat="42.25294" lon="0.60483">
        <ele>979.71</ele>
        <time>2021-08-01T16:17:22Z</time>
      </trkpt>
      <trkpt lat="42.25294" lon="0.60483">
        <ele>978.65</ele>
        <time>2021-08-01T16:17:31Z</time>
      </trkpt>
      <trkpt lat="42.25315" lon="0.60474">
        <ele>978.5</ele>
        <time>2021-08-01T16:17:35Z</time>
      </trkpt>
      <trkpt lat="42.25358" lon="0.60445">
        <ele>978.52</ele>
        <time>2021-08-01T16:17:39Z</time>
      </trkpt>
      <trkpt lat="42.25383" lon="0.60419">
        <ele>978.65</ele>
        <time>2021-08-01T16:17:41Z</time>
      </trkpt>
      <trkpt lat="42.25451" lon="0.60298">
        <ele>979.59</ele>
        <time>2021-08-01T16:17:48Z</time>
      </trkpt>
      <trkpt lat="42.25496" lon="0.60258">
        <ele>980.2</ele>
        <time>2021-08-01T16:17:52Z</time>
      </trkpt>
      <trkpt lat="42.25591" lon="0.60193">
        <ele>981.76</ele>
        <time>2021-08-01T16:18:01Z</time>
      </trkpt>
      <trkpt lat="42.25637" lon="0.60171">
        <ele>981.23</ele>
        <time>2021-08-01T16:18:05Z</time>
      </trkpt>
      <trkpt lat="42.257" lon="0.60167">
        <ele>979.76</ele>
        <time>2021-08-01T16:18:10Z</time>
      </trkpt>
      <trkpt lat="42.2575" lon="0.60141">
        <ele>978.49</ele>
        <time>2021-08-01T16:18:14Z</time>
      </trkpt>
      <trkpt lat="42.25909" lon="0.59985">
        <ele>979.2</ele>
        <time>2021-08-01T16:18:25Z</time>
      </trkpt>
      <trkpt lat="42.25937" lon="0.59956">
        <ele>979.64</ele>
        <time>2021-08-01T16:18:27Z</time>
      </trkpt>
      <trkpt lat="42.25969" lon="0.59878">
        <ele>980.33</ele>
        <time>2021-08-01T16:18:31Z</time>
      </trkpt>
      <trkpt lat="42.25994" lon="0.59795">
        <ele>980.16</ele>
        <time>2021-08-01T16:18:36Z</time>
      </trkpt>
      <trkpt lat="42.26042" lon="0.59764">
        <ele>978.82</ele>
        <time>2021-08-01T16:18:42Z</time>
      </trkpt>
      <trkpt lat="42.2605" lon="0.59769">
        <ele>978.66</ele>
        <time>2021-08-01T16:18:43Z</time>
      </trkpt>
      <trkpt lat="42.26109" lon="0.59795">
        <ele>978.64</ele>
        <time>2021-08-01T16:18:51Z</time>
      </trkpt>
      <trkpt lat="42.26111" lon="0.59798">
        <ele>978.86</ele>
        <time>2021-08-01T16:18:58Z</time>
      </trkpt>
      <trkpt lat="42.26111" lon="0.59798">
        <ele>978.43</ele>
        <time>2021-08-01T16:19:20Z</time>
      </trkpt>
      <trkpt lat="42.26122" lon="0.59812">
        <ele>979</ele>
        <time>2021-08-01T16:19:29Z</time>
      </trkpt>
      <trkpt lat="42.26147" lon="0.59857">
        <ele>979.27</ele>
        <time>2021-08-01T16:19:37Z</time>
      </trkpt>
      <trkpt lat="42.26173" lon="0.59904">
        <ele>979.97</ele>
        <time>2021-08-01T16:19:42Z</time>
      </trkpt>
      <trkpt lat="42.26177" lon="0.59944">
        <ele>980.92</ele>
        <time>2021-08-01T16:19:46Z</time>
      </trkpt>
      <trkpt lat="42.26165" lon="0.60027">
        <ele>984.23</ele>
        <time>2021-08-01T16:19:54Z</time>
      </trkpt>
      <trkpt lat="42.26184" lon="0.60059">
        <ele>988.3</ele>
        <time>2021-08-01T16:20:00Z</time>
      </trkpt>
      <trkpt lat="42.26191" lon="0.60055">
        <ele>989.03</ele>
        <time>2021-08-01T16:20:01Z</time>
      </trkpt>
      <trkpt lat="42.26228" lon="0.60031">
        <ele>992.27</ele>
        <time>2021-08-01T16:20:06Z</time>
      </trkpt>
      <trkpt lat="42.26264" lon="0.60039">
        <ele>996.36</ele>
        <time>2021-08-01T16:20:12Z</time>
      </trkpt>
      <trkpt lat="42.26269" lon="0.60047">
        <ele>996.89</ele>
        <time>2021-08-01T16:20:13Z</time>
      </trkpt>
      <trkpt lat="42.26309" lon="0.60115">
        <ele>1000.57</ele>
        <time>2021-08-01T16:20:22Z</time>
      </trkpt>
      <trkpt lat="42.26334" lon="0.60174">
        <ele>1000.37</ele>
        <time>2021-08-01T16:20:28Z</time>
      </trkpt>
      <trkpt lat="42.26379" lon="0.60196">
        <ele>998.84</ele>
        <time>2021-08-01T16:20:33Z</time>
      </trkpt>
      <trkpt lat="42.2648" lon="0.60204">
        <ele>995.36</ele>
        <time>2021-08-01T16:20:43Z</time>
      </trkpt>
      <trkpt lat="42.26529" lon="0.60193">
        <ele>993.79</ele>
        <time>2021-08-01T16:20:48Z</time>
      </trkpt>
      <trkpt lat="42.26545" lon="0.60181">
        <ele>993.15</ele>
        <time>2021-08-01T16:20:50Z</time>
      </trkpt>
      <trkpt lat="42.26594" lon="0.60184">
        <ele>991.23</ele>
        <time>2021-08-01T16:20:56Z</time>
      </trkpt>
      <trkpt lat="42.2665" lon="0.60209">
        <ele>990.77</ele>
        <time>2021-08-01T16:21:04Z</time>
      </trkpt>
      <trkpt lat="42.26697" lon="0.60204">
        <ele>991.5</ele>
        <time>2021-08-01T16:21:10Z</time>
      </trkpt>
      <trkpt lat="42.26737" lon="0.60218">
        <ele>993.28</ele>
        <time>2021-08-01T16:21:14Z</time>
      </trkpt>
      <trkpt lat="42.2678" lon="0.60243">
        <ele>995.6</ele>
        <time>2021-08-01T16:21:18Z</time>
      </trkpt>
      <trkpt lat="42.26841" lon="0.60293">
        <ele>999.83</ele>
        <time>2021-08-01T16:21:24Z</time>
      </trkpt>
      <trkpt lat="42.26881" lon="0.60324">
        <ele>1003.21</ele>
        <time>2021-08-01T16:21:28Z</time>
      </trkpt>
      <trkpt lat="42.2689" lon="0.60332">
        <ele>1004.01</ele>
        <time>2021-08-01T16:21:29Z</time>
      </trkpt>
      <trkpt lat="42.26939" lon="0.60339">
        <ele>1007.79</ele>
        <time>2021-08-01T16:21:34Z</time>
      </trkpt>
      <trkpt lat="42.2695" lon="0.60339">
        <ele>1008.78</ele>
        <time>2021-08-01T16:21:35Z</time>
      </trkpt>
      <trkpt lat="42.27009" lon="0.60354">
        <ele>1013.88</ele>
        <time>2021-08-01T16:21:40Z</time>
      </trkpt>
      <trkpt lat="42.27034" lon="0.60361">
        <ele>1015.44</ele>
        <time>2021-08-01T16:21:42Z</time>
      </trkpt>
      <trkpt lat="42.27073" lon="0.60398">
        <ele>1018.5</ele>
        <time>2021-08-01T16:21:46Z</time>
      </trkpt>
      <trkpt lat="42.27114" lon="0.60405">
        <ele>1021.73</ele>
        <time>2021-08-01T16:21:50Z</time>
      </trkpt>
      <trkpt lat="42.27176" lon="0.60396">
        <ele>1026.45</ele>
        <time>2021-08-01T16:21:55Z</time>
      </trkpt>
      <trkpt lat="42.27217" lon="0.604">
        <ele>1029.55</ele>
        <time>2021-08-01T16:21:58Z</time>
      </trkpt>
      <trkpt lat="42.27244" lon="0.60396">
        <ele>1031.49</ele>
        <time>2021-08-01T16:22:00Z</time>
      </trkpt>
      <trkpt lat="42.27306" lon="0.60395">
        <ele>1036.53</ele>
        <time>2021-08-01T16:22:05Z</time>
      </trkpt>
      <trkpt lat="42.27357" lon="0.604">
        <ele>1041.06</ele>
        <time>2021-08-01T16:22:09Z</time>
      </trkpt>
      <trkpt lat="42.27403" lon="0.60446">
        <ele>1045.29</ele>
        <time>2021-08-01T16:22:14Z</time>
      </trkpt>
      <trkpt lat="42.27426" lon="0.60497">
        <ele>1048.3</ele>
        <time>2021-08-01T16:22:18Z</time>
      </trkpt>
      <trkpt lat="42.27456" lon="0.60565">
        <ele>1052.5</ele>
        <time>2021-08-01T16:22:23Z</time>
      </trkpt>
      <trkpt lat="42.27461" lon="0.60599">
        <ele>1055.27</ele>
        <time>2021-08-01T16:22:26Z</time>
      </trkpt>
      <trkpt lat="42.27476" lon="0.60648">
        <ele>1059.42</ele>
        <time>2021-08-01T16:22:31Z</time>
      </trkpt>
      <trkpt lat="42.27489" lon="0.60692">
        <ele>1061.31</ele>
        <time>2021-08-01T16:22:35Z</time>
      </trkpt>
      <trkpt lat="42.27488" lon="0.60793">
        <ele>1064.1</ele>
        <time>2021-08-01T16:22:43Z</time>
      </trkpt>
      <trkpt lat="42.27478" lon="0.6083">
        <ele>1065.07</ele>
        <time>2021-08-01T16:22:46Z</time>
      </trkpt>
      <trkpt lat="42.27481" lon="0.60928">
        <ele>1067.71</ele>
        <time>2021-08-01T16:22:53Z</time>
      </trkpt>
      <trkpt lat="42.27517" lon="0.60996">
        <ele>1069.72</ele>
        <time>2021-08-01T16:22:58Z</time>
      </trkpt>
      <trkpt lat="42.27556" lon="0.61021">
        <ele>1072.18</ele>
        <time>2021-08-01T16:23:03Z</time>
      </trkpt>
      <trkpt lat="42.27587" lon="0.6106">
        <ele>1074.1</ele>
        <time>2021-08-01T16:23:07Z</time>
      </trkpt>
      <trkpt lat="42.27628" lon="0.61098">
        <ele>1076</ele>
        <time>2021-08-01T16:23:11Z</time>
      </trkpt>
      <trkpt lat="42.2765" lon="0.61112">
        <ele>1077.39</ele>
        <time>2021-08-01T16:23:13Z</time>
      </trkpt>
      <trkpt lat="42.27681" lon="0.61167">
        <ele>1080.6</ele>
        <time>2021-08-01T16:23:18Z</time>
      </trkpt>
      <trkpt lat="42.27727" lon="0.61283">
        <ele>1084.65</ele>
        <time>2021-08-01T16:23:27Z</time>
      </trkpt>
      <trkpt lat="42.27739" lon="0.61312">
        <ele>1085.19</ele>
        <time>2021-08-01T16:23:29Z</time>
      </trkpt>
      <trkpt lat="42.27791" lon="0.61344">
        <ele>1086.17</ele>
        <time>2021-08-01T16:23:35Z</time>
      </trkpt>
      <trkpt lat="42.27814" lon="0.6134">
        <ele>1086.54</ele>
        <time>2021-08-01T16:23:37Z</time>
      </trkpt>
      <trkpt lat="42.27862" lon="0.61351">
        <ele>1087.05</ele>
        <time>2021-08-01T16:23:41Z</time>
      </trkpt>
      <trkpt lat="42.27883" lon="0.61364">
        <ele>1087.24</ele>
        <time>2021-08-01T16:23:43Z</time>
      </trkpt>
      <trkpt lat="42.27917" lon="0.61374">
        <ele>1088.24</ele>
        <time>2021-08-01T16:23:46Z</time>
      </trkpt>
      <trkpt lat="42.27985" lon="0.61433">
        <ele>1092.09</ele>
        <time>2021-08-01T16:23:52Z</time>
      </trkpt>
      <trkpt lat="42.27997" lon="0.61445">
        <ele>1092.81</ele>
        <time>2021-08-01T16:23:53Z</time>
      </trkpt>
      <trkpt lat="42.28074" lon="0.61548">
        <ele>1096.86</ele>
        <time>2021-08-01T16:24:00Z</time>
      </trkpt>
      <trkpt lat="42.28084" lon="0.61559">
        <ele>1097.4</ele>
        <time>2021-08-01T16:24:01Z</time>
      </trkpt>
      <trkpt lat="42.28105" lon="0.61573">
        <ele>1098.37</ele>
        <time>2021-08-01T16:24:03Z</time>
      </trkpt>
      <trkpt lat="42.28124" lon="0.61601">
        <ele>1099.64</ele>
        <time>2021-08-01T16:24:06Z</time>
      </trkpt>
      <trkpt lat="42.2816" lon="0.61669">
        <ele>1100.61</ele>
        <time>2021-08-01T16:24:12Z</time>
      </trkpt>
      <trkpt lat="42.28176" lon="0.61719">
        <ele>1100.76</ele>
        <time>2021-08-01T16:24:17Z</time>
      </trkpt>
      <trkpt lat="42.28186" lon="0.61764">
        <ele>1100.98</ele>
        <time>2021-08-01T16:24:21Z</time>
      </trkpt>
      <trkpt lat="42.28207" lon="0.61797">
        <ele>1101.82</ele>
        <time>2021-08-01T16:24:24Z</time>
      </trkpt>
      <trkpt lat="42.28215" lon="0.61806">
        <ele>1102.09</ele>
        <time>2021-08-01T16:24:25Z</time>
      </trkpt>
      <trkpt lat="42.28223" lon="0.61814">
        <ele>1102.37</ele>
        <time>2021-08-01T16:24:26Z</time>
      </trkpt>
      <trkpt lat="42.28233" lon="0.61817">
        <ele>1102.7</ele>
        <time>2021-08-01T16:24:27Z</time>
      </trkpt>
      <trkpt lat="42.28272" lon="0.61801">
        <ele>1103.94</ele>
        <time>2021-08-01T16:24:31Z</time>
      </trkpt>
      <trkpt lat="42.28337" lon="0.61762">
        <ele>1106.14</ele>
        <time>2021-08-01T16:24:37Z</time>
      </trkpt>
      <trkpt lat="42.28379" lon="0.61738">
        <ele>1107.26</ele>
        <time>2021-08-01T16:24:41Z</time>
      </trkpt>
      <trkpt lat="42.28418" lon="0.61723">
        <ele>1108.66</ele>
        <time>2021-08-01T16:24:45Z</time>
      </trkpt>
      <trkpt lat="42.28462" lon="0.61668">
        <ele>1111.33</ele>
        <time>2021-08-01T16:24:52Z</time>
      </trkpt>
      <trkpt lat="42.28484" lon="0.61636">
        <ele>1113.83</ele>
        <time>2021-08-01T16:25:00Z</time>
      </trkpt>
      <trkpt lat="42.28499" lon="0.61611">
        <ele>1115.91</ele>
        <time>2021-08-01T16:25:05Z</time>
      </trkpt>
      <trkpt lat="42.28544" lon="0.61548">
        <ele>1119.02</ele>
        <time>2021-08-01T16:25:14Z</time>
      </trkpt>
      <trkpt lat="42.28598" lon="0.61462">
        <ele>1122.12</ele>
        <time>2021-08-01T16:25:23Z</time>
      </trkpt>
      <trkpt lat="42.28602" lon="0.61454">
        <ele>1122.47</ele>
        <time>2021-08-01T16:25:24Z</time>
      </trkpt>
      <trkpt lat="42.28621" lon="0.61442">
        <ele>1123.47</ele>
        <time>2021-08-01T16:25:28Z</time>
      </trkpt>
      <trkpt lat="42.28686" lon="0.61455">
        <ele>1124.3</ele>
        <time>2021-08-01T16:25:38Z</time>
      </trkpt>
      <trkpt lat="42.28714" lon="0.61464">
        <ele>1124.51</ele>
        <time>2021-08-01T16:25:42Z</time>
      </trkpt>
      <trkpt lat="42.2877" lon="0.61456">
        <ele>1124.89</ele>
        <time>2021-08-01T16:25:50Z</time>
      </trkpt>
      <trkpt lat="42.28823" lon="0.61481">
        <ele>1122.39</ele>
        <time>2021-08-01T16:26:00Z</time>
      </trkpt>
      <trkpt lat="42.28888" lon="0.61504">
        <ele>1120.13</ele>
        <time>2021-08-01T16:26:10Z</time>
      </trkpt>
      <trkpt lat="42.28895" lon="0.61507">
        <ele>1120.1</ele>
        <time>2021-08-01T16:26:11Z</time>
      </trkpt>
      <trkpt lat="42.28909" lon="0.61512">
        <ele>1120.43</ele>
        <time>2021-08-01T16:26:13Z</time>
      </trkpt>
      <trkpt lat="42.28921" lon="0.61529">
        <ele>1122.19</ele>
        <time>2021-08-01T16:26:17Z</time>
      </trkpt>
      <trkpt lat="42.2893" lon="0.61556">
        <ele>1125.3</ele>
        <time>2021-08-01T16:26:23Z</time>
      </trkpt>
      <trkpt lat="42.28983" lon="0.61515">
        <ele>1182.7</ele>
      </trkpt>
    </trkseg>
  </trk>
</gpx>